Provisional Data: Quittapahilla Creek near Syner, PA


Please select a monitoring station.
Please select start date.
Please select start date.

Toggle Unit: C/F Toggle Unit: C/F
Sample Time Temperature (C) Temperature (F) Specific Conductivity (mS/cm) pH   Turbidity (NTU+) DO (mg/L)
1/12/2021 12:00:00 AM 7.25 45.05 0.598 2.55 94.3 -99999.99
1/12/2021 12:15:00 AM 7.23 45.014 0.598 2.62 94 -99999.99
1/12/2021 12:30:00 AM 7.22 44.996 0.598 2.89 93.8 -99999.99
1/12/2021 12:45:00 AM 7.2 44.96 0.598 3.08 93.8 -99999.99
1/12/2021 1:00:00 AM 7.19 44.942 0.597 3.44 93.8 -99999.99
1/12/2021 1:15:00 AM 7.13 44.834 0.6 2.48 93.5 -99999.99
1/12/2021 1:30:00 AM 7.08 44.744 0.603 2.42 93 -99999.99
1/12/2021 1:45:00 AM 7.05 44.69 0.603 2.69 93.1 -99999.99
1/12/2021 2:00:00 AM 7.03 44.654 0.601 2.44 93.1 -99999.99
1/12/2021 2:15:00 AM 7.01 44.618 0.6 2.57 93.1 -99999.99
1/12/2021 2:30:00 AM 6.99 44.582 0.599 2.79 92.9 -99999.99
1/12/2021 2:45:00 AM 6.97 44.546 0.598 3.28 92.9 -99999.99
1/12/2021 3:00:00 AM 6.94 44.492 0.598 2.88 92.8 -99999.99
1/12/2021 3:15:00 AM 6.92 44.456 0.598 3.01 92.9 -99999.99
1/12/2021 3:30:00 AM 6.89 44.402 0.598 2.58 92.8 -99999.99
1/12/2021 3:45:00 AM 6.86 44.348 0.598 2.71 92.7 -99999.99
1/12/2021 4:00:00 AM 6.83 44.294 0.598 2.32 92.6 -99999.99
1/12/2021 4:15:00 AM 6.78 44.204 0.598 2.85 92.2 -99999.99
1/12/2021 4:30:00 AM 6.73 44.114 0.598 2.81 91.9 -99999.99
1/12/2021 4:45:00 AM 6.69 44.042 0.598 2.68 91.6 -99999.99
1/12/2021 5:00:00 AM 6.66 43.988 0.598 2.89 91.5 -99999.99
1/12/2021 5:15:00 AM 6.64 43.952 0.598 2.58 91.5 -99999.99
1/12/2021 5:30:00 AM 6.62 43.916 0.598 3.27 91.4 -99999.99
1/12/2021 5:45:00 AM 6.6 43.88 0.599 3.09 91.5 -99999.99
1/12/2021 6:00:00 AM 6.61 43.898 0.599 2.56 91.7 -99999.99
1/12/2021 6:15:00 AM 6.61 43.898 0.599 2.88 92.3 -99999.99
1/12/2021 6:30:00 AM 6.55 43.79 0.602 2.85 92.4 -99999.99
1/12/2021 6:45:00 AM 6.51 43.718 0.604 2.41 92.4 -99999.99
1/12/2021 7:00:00 AM 6.5 43.7 0.604 2.84 92.6 -99999.99
1/12/2021 7:15:00 AM 6.5 43.7 0.603 2.53 92.7 -99999.99
1/12/2021 7:30:00 AM 6.49 43.682 0.602 2.24 92.6 -99999.99
1/12/2021 7:45:00 AM 6.47 43.646 0.601 2.4 92.8 -99999.99
1/12/2021 8:00:00 AM 6.46 43.628 0.6 2.78 93 -99999.99
1/12/2021 8:15:00 AM 6.45 43.61 0.6 2.34 93.3 -99999.99
1/12/2021 8:30:00 AM 6.44 43.592 0.599 2.21 93.9 -99999.99
1/12/2021 8:45:00 AM 6.44 43.592 0.599 2.09 94.2 -99999.99
1/12/2021 9:00:00 AM 6.45 43.61 0.599 2.35 94.9 -99999.99
1/12/2021 9:15:00 AM 6.47 43.646 0.599 2.36 95.6 -99999.99
1/12/2021 9:30:00 AM 6.51 43.718 0.599 2.84 96.5 -99999.99
1/12/2021 9:45:00 AM 6.56 43.808 0.598 2.22 97.3 -99999.99
1/12/2021 10:00:00 AM 6.63 43.934 0.598 2.08 98.5 -99999.99
1/12/2021 10:15:00 AM 6.7 44.06 0.598 2.05 99.5 -99999.99
1/12/2021 10:30:00 AM 6.77 44.186 0.597 1.99 100.5 -99999.99
1/12/2021 10:45:00 AM 6.85 44.33 0.597 2.07 101.4 -99999.99
1/12/2021 11:00:00 AM 6.94 44.492 0.597 2.11 102.5 -99999.99
1/12/2021 11:15:00 AM 7.02 44.636 0.596 2.44 103.5 -99999.99
1/12/2021 11:30:00 AM 7.05 44.69 0.599 2.07 104.3 -99999.99
1/12/2021 11:45:00 AM 7.1 44.78 0.602 1.88 104.9 -99999.99
1/12/2021 12:00:00 PM 7.19 44.942 0.601 1.97 105.9 -99999.99
1/12/2021 12:15:00 PM 7.29 45.122 0.6 1.9 106.7 -99999.99
1/12/2021 12:30:00 PM 7.38 45.284 0.598 2.17 107.5 -99999.99
1/12/2021 12:45:00 PM 7.45 45.41 0.597 1.93 108.3 -99999.99
1/12/2021 1:00:00 PM 7.51 45.518 0.596 2.02 108.7 -99999.99
1/12/2021 1:15:00 PM 7.56 45.608 0.595 1.93 109.6 -99999.99
1/12/2021 1:30:00 PM 7.61 45.698 0.595 2.03 110 -99999.99
1/12/2021 1:45:00 PM 7.64 45.752 0.595 2.28 110.4 -99999.99
1/12/2021 2:00:00 PM 7.66 45.788 0.595 1.88 110.7 -99999.99
1/12/2021 2:15:00 PM 7.67 45.806 0.594 2.06 111 -99999.99
1/12/2021 2:30:00 PM 7.68 45.824 0.594 2.17 111.2 -99999.99
1/12/2021 2:45:00 PM 7.68 45.824 0.594 2.1 111.3 -99999.99
1/12/2021 3:00:00 PM 7.68 45.824 0.594 2 111.4 -99999.99
1/12/2021 3:15:00 PM 7.67 45.806 0.594 2.35 111.4 -99999.99
1/12/2021 3:30:00 PM 7.66 45.788 0.594 1.94 111.1 -99999.99
1/12/2021 3:45:00 PM 7.65 45.77 0.595 2.18 110.9 -99999.99
1/12/2021 4:00:00 PM 7.64 45.752 0.595 2.23 110.5 -99999.99
1/12/2021 4:15:00 PM 7.63 45.734 0.595 2.29 110.1 -99999.99
1/12/2021 4:30:00 PM 7.63 45.734 0.595 2.27 109.6 -99999.99
1/12/2021 4:45:00 PM 7.6 45.68 0.597 2.25 108.9 -99999.99
1/12/2021 5:00:00 PM 7.55 45.59 0.6 1.97 108.1 -99999.99
1/12/2021 5:15:00 PM 7.52 45.536 0.6 2.21 107.1 -99999.99
1/12/2021 5:30:00 PM 7.5 45.5 0.599 2.18 106.2 -99999.99
1/12/2021 5:45:00 PM 7.49 45.482 0.598 2.39 105.4 -99999.99
1/12/2021 6:00:00 PM 7.48 45.464 0.597 2.32 104.8 -99999.99
1/12/2021 6:15:00 PM 7.47 45.446 0.596 2.3 104.1 -99999.99
1/12/2021 6:30:00 PM 7.45 45.41 0.596 2.4 103.4 -99999.99
1/12/2021 6:45:00 PM 7.44 45.392 0.596 2.34 102.7 -99999.99
1/12/2021 7:00:00 PM 7.42 45.356 0.596 2.4 102.2 -99999.99
1/12/2021 7:15:00 PM 7.41 45.338 0.596 2.81 101.8 -99999.99
1/12/2021 7:30:00 PM 7.4 45.32 0.596 2.32 101.1 -99999.99
1/12/2021 7:45:00 PM 7.4 45.32 0.596 2.17 100.6 -99999.99
1/12/2021 8:00:00 PM 7.41 45.338 0.596 2.44 100.3 -99999.99
1/12/2021 8:15:00 PM 7.42 45.356 0.596 2.47 100 -99999.99
1/12/2021 8:30:00 PM 7.44 45.392 0.596 2.43 99.5 -99999.99
1/12/2021 8:45:00 PM 7.46 45.428 0.596 2.25 99.2 -99999.99
1/12/2021 9:00:00 PM 7.49 45.482 0.597 2.63 99 -99999.99
1/12/2021 9:15:00 PM 7.51 45.518 0.597 2.6 98.5 -99999.99
1/12/2021 9:30:00 PM 7.53 45.554 0.597 2.37 98.2 -99999.99
1/12/2021 9:45:00 PM 7.54 45.572 0.598 2.48 97.7 -99999.99
1/12/2021 10:00:00 PM 7.56 45.608 0.598 2.99 97.6 -99999.99
1/12/2021 10:15:00 PM 7.57 45.626 0.598 3.04 97.2 -99999.99
1/12/2021 10:30:00 PM 7.53 45.554 0.602 2.56 96.7 -99999.99
1/12/2021 10:45:00 PM 7.51 45.518 0.604 2.68 96.1 -99999.99
1/12/2021 11:00:00 PM 7.51 45.518 0.603 3.22 95.8 -99999.99
1/12/2021 11:15:00 PM 7.52 45.536 0.602 2.7 95.4 -99999.99
1/12/2021 11:30:00 PM 7.54 45.572 0.601 2.21 95 -99999.99
1/12/2021 11:45:00 PM 7.55 45.59 0.6 2.63 94.5 -99999.99
1/13/2021 12:00:00 AM 7.57 45.626 0.599 2.85 94.2 -99999.99
1/13/2021 12:15:00 AM 7.58 45.644 0.599 3.11 94 -99999.99
1/13/2021 12:30:00 AM 7.59 45.662 0.599 2.43 93.7 -99999.99
1/13/2021 12:45:00 AM 7.6 45.68 0.599 2.77 93.5 -99999.99
1/13/2021 1:00:00 AM 7.61 45.698 0.599 2.76 93.3 -99999.99
1/13/2021 1:15:00 AM 7.61 45.698 0.599 2.67 93.1 -99999.99
1/13/2021 1:30:00 AM 7.61 45.698 0.599 3.14 92.9 -99999.99
1/13/2021 1:45:00 AM 7.61 45.698 0.599 2.83 93 -99999.99
1/13/2021 2:00:00 AM 7.6 45.68 0.599 2.34 92.9 -99999.99
1/13/2021 2:15:00 AM 7.58 45.644 0.599 2.45 92.7 -99999.99
1/13/2021 2:30:00 AM 7.56 45.608 0.599 2.82 92.7 -99999.99
1/13/2021 2:45:00 AM 7.52 45.536 0.599 2.61 92.6 -99999.99
1/13/2021 3:00:00 AM 7.49 45.482 0.599 2.79 92.5 -99999.99
1/13/2021 3:15:00 AM 7.46 45.428 0.599 3.01 92.5 -99999.99
1/13/2021 3:30:00 AM 7.43 45.374 0.599 3.19 92.3 -99999.99
1/13/2021 3:45:00 AM 7.4 45.32 0.599 2.75 92.1 -99999.99
1/13/2021 4:00:00 AM 7.34 45.212 0.601 2.71 91.6 -99999.99
1/13/2021 4:15:00 AM 7.28 45.104 0.604 2.84 91.3 -99999.99
1/13/2021 4:30:00 AM 7.25 45.05 0.604 2.83 91.2 -99999.99
1/13/2021 4:45:00 AM 7.25 45.05 0.603 2.79 91.2 -99999.99
1/13/2021 5:00:00 AM 7.25 45.05 0.602 2.87 91.2 -99999.99
1/13/2021 5:15:00 AM 7.26 45.068 0.601 2.99 91.1 -99999.99
1/13/2021 5:30:00 AM 7.28 45.104 0.6 2.93 91.4 -99999.99
1/13/2021 5:45:00 AM 7.3 45.14 0.599 2.95 91.5 -99999.99
1/13/2021 6:00:00 AM 7.31 45.158 0.599 3.88 91.8 -99999.99
1/13/2021 6:15:00 AM 7.33 45.194 0.599 2.76 91.8 -99999.99
1/13/2021 6:30:00 AM 7.34 45.212 0.599 3.13 91.9 -99999.99
1/13/2021 6:45:00 AM 7.35 45.23 0.599 3.35 91.8 -99999.99
1/13/2021 7:00:00 AM 7.36 45.248 0.599 3.47 91.9 -99999.99
1/13/2021 7:15:00 AM 7.36 45.248 0.599 2.91 92 -99999.99
1/13/2021 7:30:00 AM 7.37 45.266 0.599 2.5 91.9 -99999.99
1/13/2021 7:45:00 AM 7.38 45.284 0.599 2.53 92.1 -99999.99
1/13/2021 8:00:00 AM 7.39 45.302 0.599 2.81 92.3 -99999.99
1/13/2021 8:15:00 AM 7.4 45.32 0.599 2.56 92.6 -99999.99
1/13/2021 8:30:00 AM 7.42 45.356 0.599 2.42 93.2 -99999.99
1/13/2021 8:45:00 AM 7.45 45.41 0.599 2.3 94 -99999.99
1/13/2021 9:00:00 AM 7.5 45.5 0.598 2.28 95.4 -99999.99
1/13/2021 9:15:00 AM 7.5 45.5 0.599 2.4 96.2 -99999.99
1/13/2021 9:30:00 AM 7.5 45.5 0.602 2.19 97.1 -99999.99
1/13/2021 9:45:00 AM 7.52 45.536 0.603 2.38 97.9 -99999.99
1/13/2021 10:00:00 AM 7.56 45.608 0.602 2.05 98.6 -99999.99
1/13/2021 10:15:00 AM 7.6 45.68 0.601 2.28 99.7 -99999.99
1/13/2021 10:30:00 AM 7.64 45.752 0.599 2.1 100.2 -99999.99
1/13/2021 10:45:00 AM 7.68 45.824 0.598 1.97 101 -99999.99
1/13/2021 11:00:00 AM 7.72 45.896 0.598 2.26 101.5 -99999.99
1/13/2021 11:15:00 AM 7.75 45.95 0.597 1.86 101.9 -99999.99
1/13/2021 11:30:00 AM 7.78 46.004 0.597 2.13 102.6 -99999.99
1/13/2021 11:45:00 AM 7.81 46.058 0.596 1.95 103.6 -99999.99
1/13/2021 12:00:00 PM 7.85 46.13 0.596 2.05 104.3 -99999.99
1/13/2021 12:15:00 PM 7.9 46.22 0.596 2.1 105.3 -99999.99
1/13/2021 12:30:00 PM 7.94 46.292 0.596 1.8 106.1 -99999.99
1/13/2021 12:45:00 PM 8 46.4 0.596 2.45 107.2 -99999.99
1/13/2021 1:00:00 PM 8.06 46.508 0.595 2.18 108.3 -99999.99
1/13/2021 1:15:00 PM 8.12 46.616 0.595 1.97 109.3 -99999.99
1/13/2021 1:30:00 PM 8.17 46.706 0.595 1.87 110.3 -99999.99
1/13/2021 1:45:00 PM 8.21 46.778 0.595 2.06 111.1 -99999.99
1/13/2021 2:00:00 PM 8.27 46.886 0.594 2.01 112.2 -99999.99
1/13/2021 2:15:00 PM 8.31 46.958 0.596 2.05 112.9 -99999.99
1/13/2021 2:30:00 PM 8.3 46.94 0.599 1.87 112.8 -99999.99
1/13/2021 2:45:00 PM 8.31 46.958 0.599 1.9 113 -99999.99
1/13/2021 3:00:00 PM 8.32 46.976 0.598 2.38 113.2 -99999.99
1/13/2021 3:15:00 PM 8.32 46.976 0.597 1.82 113.3 -99999.99
1/13/2021 3:30:00 PM 8.29 46.922 0.598 2.06 113.1 -99999.99
1/13/2021 3:45:00 PM 8.24 46.832 0.6 2.22 112.4 -99999.99
1/13/2021 4:00:00 PM 8.22 46.796 0.599 1.92 111.5 -99999.99
1/13/2021 4:15:00 PM 8.22 46.796 0.598 2.29 111.1 -99999.99
1/13/2021 4:30:00 PM 8.22 46.796 0.597 1.87 110.4 -99999.99
1/13/2021 4:45:00 PM 8.21 46.778 0.596 1.91 109.5 -99999.99
1/13/2021 5:00:00 PM 8.21 46.778 0.595 1.92 108.6 -99999.99
1/13/2021 5:15:00 PM 8.19 46.742 0.595 1.76 107.6 -99999.99
1/13/2021 5:30:00 PM 8.17 46.706 0.595 2.12 106.7 -99999.99
1/13/2021 5:45:00 PM 8.15 46.67 0.595 2.25 105.9 -99999.99
1/13/2021 6:00:00 PM 8.13 46.634 0.595 2.16 105.2 -99999.99
1/13/2021 6:15:00 PM 8.11 46.598 0.595 1.99 104.6 -99999.99
1/13/2021 6:30:00 PM 8.08 46.544 0.595 2.55 103.9 -99999.99
1/13/2021 6:45:00 PM 8.05 46.49 0.595 2.63 103.4 -99999.99
1/13/2021 7:00:00 PM 8.03 46.454 0.595 2.23 102.7 -99999.99
1/13/2021 7:15:00 PM 8 46.4 0.595 2.12 102.3 -99999.99
1/13/2021 7:30:00 PM 7.98 46.364 0.595 2.25 101.9 -99999.99
1/13/2021 7:45:00 PM 7.95 46.31 0.595 2.21 101.4 -99999.99
1/13/2021 8:00:00 PM 7.93 46.274 0.595 2.55 101 -99999.99
1/13/2021 8:15:00 PM 7.91 46.238 0.595 2.43 100.3 -99999.99
1/13/2021 8:30:00 PM 7.89 46.202 0.595 2.49 100 -99999.99
1/13/2021 8:45:00 PM 7.88 46.184 0.595 2.31 99.6 -99999.99
1/13/2021 9:00:00 PM 7.88 46.184 0.595 2.41 99.2 -99999.99
1/13/2021 9:15:00 PM 7.86 46.148 0.596 2.22 98.8 -99999.99
1/13/2021 9:30:00 PM 7.82 46.076 0.599 3.16 98 -99999.99
1/13/2021 9:45:00 PM 7.8 46.04 0.599 2.55 97.3 -99999.99
1/13/2021 10:00:00 PM 7.79 46.022 0.598 2.47 96.9 -99999.99
1/13/2021 10:15:00 PM 7.79 46.022 0.597 2.26 96.5 -99999.99
1/13/2021 10:30:00 PM 7.8 46.04 0.596 2.37 95.9 -99999.99
1/13/2021 10:45:00 PM 7.8 46.04 0.595 2.92 95.4 -99999.99
1/13/2021 11:00:00 PM 7.79 46.022 0.595 2.31 94.8 -99999.99
1/13/2021 11:15:00 PM 7.79 46.022 0.595 2.55 94.6 -99999.99
1/13/2021 11:30:00 PM 7.78 46.004 0.595 2.56 94.4 -99999.99
1/13/2021 11:45:00 PM 7.77 45.986 0.595 2.86 94.1 -99999.99
1/14/2021 12:00:00 AM 7.76 45.968 0.594 2.15 93.9 -99999.99
1/14/2021 12:15:00 AM 7.76 45.968 0.594 2.64 93.7 -99999.99
1/14/2021 12:30:00 AM 7.75 45.95 0.594 2.47 93.5 -99999.99
1/14/2021 12:45:00 AM 7.75 45.95 0.594 2.39 93.4 -99999.99
1/14/2021 1:00:00 AM 7.75 45.95 0.594 2.37 93.2 -99999.99
1/14/2021 1:15:00 AM 7.74 45.932 0.594 3.06 92.9 -99999.99
1/14/2021 1:30:00 AM 7.74 45.932 0.594 2.58 92.9 -99999.99
1/14/2021 1:45:00 AM 7.73 45.914 0.594 2.64 92.8 -99999.99
1/14/2021 2:00:00 AM 7.73 45.914 0.594 2.44 92.7 -99999.99
1/14/2021 2:15:00 AM 7.73 45.914 0.594 3.02 92.6 -99999.99
1/14/2021 2:30:00 AM 7.71 45.878 0.594 2.9 92.7 -99999.99
1/14/2021 2:45:00 AM 7.67 45.806 0.596 2.77 92.2 -99999.99
1/14/2021 3:00:00 AM 7.63 45.734 0.599 3.08 92 -99999.99
1/14/2021 3:15:00 AM 7.62 45.716 0.598 2.52 92.1 -99999.99
1/14/2021 3:30:00 AM 7.62 45.716 0.598 2.69 91.9 -99999.99
1/14/2021 3:45:00 AM 7.62 45.716 0.597 2.86 92 -99999.99
1/14/2021 4:00:00 AM 7.62 45.716 0.596 2.95 91.9 -99999.99
1/14/2021 4:15:00 AM 7.62 45.716 0.595 3.08 91.9 -99999.99
1/14/2021 4:30:00 AM 7.6 45.68 0.595 3.21 91.8 -99999.99
1/14/2021 4:45:00 AM 7.6 45.68 0.595 2.51 91.7 -99999.99
1/14/2021 5:00:00 AM 7.59 45.662 0.595 2.68 91.7 -99999.99
1/14/2021 5:15:00 AM 7.59 45.662 0.595 3.01 91.7 -99999.99
1/14/2021 5:30:00 AM 7.59 45.662 0.595 2.56 91.6 -99999.99
1/14/2021 5:45:00 AM 7.6 45.68 0.595 3 91.7 -99999.99
1/14/2021 6:00:00 AM 7.59 45.662 0.596 3.12 91.7 -99999.99
1/14/2021 6:15:00 AM 7.59 45.662 0.596 2.65 91.7 -99999.99
1/14/2021 6:30:00 AM 7.59 45.662 0.596 2.64 91.5 -99999.99
1/14/2021 6:45:00 AM 7.57 45.626 0.596 2.65 91.6 -99999.99
1/14/2021 7:00:00 AM 7.56 45.608 0.596 2.65 91.6 -99999.99
1/14/2021 7:15:00 AM 7.56 45.608 0.596 3.01 91.5 -99999.99
1/14/2021 7:30:00 AM 7.56 45.608 0.596 2.55 91.7 -99999.99
1/14/2021 7:45:00 AM 7.56 45.608 0.596 2.95 91.7 -99999.99
1/14/2021 8:00:00 AM 7.58 45.644 0.595 2.62 92.2 -99999.99
1/14/2021 8:15:00 AM 7.57 45.626 0.596 2.62 92.5 -99999.99
1/14/2021 8:30:00 AM 7.54 45.572 0.599 2.38 92.7 -99999.99
1/14/2021 8:45:00 AM 7.54 45.572 0.6 2.24 93.3 -99999.99
1/14/2021 9:00:00 AM 7.57 45.626 0.6 2.66 94.2 -99999.99
1/14/2021 9:15:00 AM 7.61 45.698 0.599 2.1 95.4 -99999.99
1/14/2021 9:30:00 AM 7.65 45.77 0.598 2.52 96.8 -99999.99
1/14/2021 9:45:00 AM 7.69 45.842 0.597 2.49 98 -99999.99
1/14/2021 10:00:00 AM 7.72 45.896 0.596 1.97 99 -99999.99
1/14/2021 10:15:00 AM 7.78 46.004 0.596 1.86 100.5 -99999.99
1/14/2021 10:30:00 AM 7.83 46.094 0.595 2.06 101.6 -99999.99
1/14/2021 10:45:00 AM 7.89 46.202 0.595 2.03 103.1 -99999.99
1/14/2021 11:00:00 AM 7.97 46.346 0.595 1.88 104.3 -99999.99
1/14/2021 11:15:00 AM 8.06 46.508 0.594 1.83 105.9 -99999.99
1/14/2021 11:30:00 AM 8.15 46.67 0.594 1.91 107.2 -99999.99
1/14/2021 11:45:00 AM 8.22 46.796 0.594 1.85 108.5 -99999.99
1/14/2021 12:00:00 PM 8.31 46.958 0.593 1.95 109.7 -99999.99
1/14/2021 12:15:00 PM 8.37 47.066 0.593 1.98 110.4 -99999.99
1/14/2021 12:30:00 PM 8.43 47.174 0.593 1.83 111.4 -99999.99
1/14/2021 12:45:00 PM 8.5 47.3 0.593 1.96 112.4 -99999.99
1/14/2021 1:00:00 PM 8.56 47.408 0.593 1.99 113.3 -99999.99
1/14/2021 1:15:00 PM 8.65 47.57 0.592 2.03 114.4 -99999.99
1/14/2021 1:30:00 PM 8.68 47.624 0.593 1.88 114.9 -99999.99
1/14/2021 1:45:00 PM 8.68 47.624 0.596 2.45 115.1 -99999.99
1/14/2021 2:00:00 PM 8.69 47.642 0.597 2.21 115.2 -99999.99
1/14/2021 2:15:00 PM 8.69 47.642 0.597 2.05 115.1 -99999.99
1/14/2021 2:30:00 PM 8.69 47.642 0.595 2.33 114.9 -99999.99
1/14/2021 2:45:00 PM 8.73 47.714 0.594 2.39 115 -99999.99
1/14/2021 3:00:00 PM 8.76 47.768 0.593 1.95 115.3 -99999.99
1/14/2021 3:15:00 PM 8.77 47.786 0.593 2.08 115.3 -99999.99
1/14/2021 3:30:00 PM 8.79 47.822 0.593 1.97 115.1 -99999.99
1/14/2021 3:45:00 PM 8.79 47.822 0.593 1.95 114.6 -99999.99
1/14/2021 4:00:00 PM 8.78 47.804 0.593 2.02 114.3 -99999.99
1/14/2021 4:15:00 PM 8.76 47.768 0.593 2 113.5 -99999.99
1/14/2021 4:30:00 PM 8.73 47.714 0.593 2.03 112.7 -99999.99
1/14/2021 4:45:00 PM 8.7 47.66 0.593 2.02 111.5 -99999.99
1/14/2021 5:00:00 PM 8.66 47.588 0.594 2.06 110.4 -99999.99
1/14/2021 5:15:00 PM 8.63 47.534 0.594 1.81 109.1 -99999.99
1/14/2021 5:30:00 PM 8.6 47.48 0.594 2.04 108 -99999.99
1/14/2021 5:45:00 PM 8.58 47.444 0.594 1.94 107 -99999.99
1/14/2021 6:00:00 PM 8.56 47.408 0.594 2.67 106.2 -99999.99
1/14/2021 6:15:00 PM 8.54 47.372 0.594 2.1 105.6 -99999.99
1/14/2021 6:30:00 PM 8.52 47.336 0.594 2.18 105 -99999.99
1/14/2021 6:45:00 PM 8.5 47.3 0.594 2.27 104.4 -99999.99
1/14/2021 7:00:00 PM 8.48 47.264 0.594 2.02 103.7 -99999.99
1/14/2021 7:15:00 PM 8.46 47.228 0.594 2.23 103.4 -99999.99
1/14/2021 7:30:00 PM 8.42 47.156 0.597 2.3 102.5 -99999.99
1/14/2021 7:45:00 PM 8.37 47.066 0.6 2.06 101.9 -99999.99
1/14/2021 8:00:00 PM 8.34 47.012 0.599 2.42 101 -99999.99
1/14/2021 8:15:00 PM 8.32 46.976 0.598 2.06 100.6 -99999.99
1/14/2021 8:30:00 PM 8.3 46.94 0.597 2.44 100 -99999.99
1/14/2021 8:45:00 PM 8.29 46.922 0.596 2.21 99.5 -99999.99
1/14/2021 9:00:00 PM 8.27 46.886 0.596 2.33 99 -99999.99
1/14/2021 9:15:00 PM 8.26 46.868 0.596 2.65 98.5 -99999.99
1/14/2021 9:30:00 PM 8.25 46.85 0.596 2.3 98 -99999.99
1/14/2021 9:45:00 PM 8.23 46.814 0.596 2.19 97.6 -99999.99
1/14/2021 10:00:00 PM 8.22 46.796 0.596 2.86 97.1 -99999.99
1/14/2021 10:15:00 PM 8.22 46.796 0.596 2.99 96.5 -99999.99
1/14/2021 10:30:00 PM 8.21 46.778 0.596 2.54 96.1 -99999.99
1/14/2021 10:45:00 PM 8.21 46.778 0.596 3.07 95.7 -99999.99
1/14/2021 11:00:00 PM 8.21 46.778 0.597 2.74 95.3 -99999.99
1/14/2021 11:15:00 PM 8.2 46.76 0.597 3.08 94.8 -99999.99
1/14/2021 11:30:00 PM 8.19 46.742 0.597 2.58 94.4 -99999.99
1/14/2021 11:45:00 PM 8.19 46.742 0.597 3.07 94.2 -99999.99
1/15/2021 12:00:00 AM 8.18 46.724 0.597 3.44 93.9 -99999.99
1/15/2021 12:15:00 AM 8.18 46.724 0.597 2.93 93.6 -99999.99
1/15/2021 12:30:00 AM 8.17 46.706 0.597 3.06 93.2 -99999.99
1/15/2021 12:45:00 AM 8.16 46.688 0.597 2.68 93.2 -99999.99
1/15/2021 1:00:00 AM 8.14 46.652 0.597 3.5 93 -99999.99
1/15/2021 1:15:00 AM 8.1 46.58 0.598 3.08 92.2 -99999.99
1/15/2021 1:30:00 AM 8.05 46.49 0.602 2.89 91.5 -99999.99
1/15/2021 1:45:00 AM 8.01 46.418 0.603 2.71 91.2 -99999.99
1/15/2021 2:00:00 AM 7.98 46.364 0.602 2.9 91 -99999.99
1/15/2021 2:15:00 AM 7.97 46.346 0.601 3.08 90.9 -99999.99
1/15/2021 2:30:00 AM 7.95 46.31 0.6 2.91 90.7 -99999.99
1/15/2021 2:45:00 AM 7.93 46.274 0.6 2.95 90.7 -99999.99
1/15/2021 3:00:00 AM 7.92 46.256 0.599 3.23 90.8 -99999.99
1/15/2021 3:15:00 AM 7.92 46.256 0.599 5.07 91.1 -99999.99
1/15/2021 3:30:00 AM 7.91 46.238 0.599 3.14 91.3 -99999.99
1/15/2021 3:45:00 AM 7.9 46.22 0.599 3.25 91.3 -99999.99
1/15/2021 4:00:00 AM 7.88 46.184 0.599 3.67 91.4 -99999.99
1/15/2021 4:15:00 AM 7.87 46.166 0.599 3.22 91.3 -99999.99
1/15/2021 4:30:00 AM 7.85 46.13 0.599 3.42 91.2 -99999.99
1/15/2021 4:45:00 AM 7.84 46.112 0.599 3.27 91.2 -99999.99
1/15/2021 5:00:00 AM 7.83 46.094 0.599 3.45 91.2 -99999.99
1/15/2021 5:15:00 AM 7.82 46.076 0.6 3.37 91.2 -99999.99
1/15/2021 5:30:00 AM 7.81 46.058 0.6 3.71 91.2 -99999.99
1/15/2021 5:45:00 AM 7.8 46.04 0.6 3.65 91.2 -99999.99
1/15/2021 6:00:00 AM 7.79 46.022 0.6 3.32 91.2 -99999.99
1/15/2021 6:15:00 AM 7.78 46.004 0.6 3.49 91.3 -99999.99
1/15/2021 6:30:00 AM 7.77 45.986 0.599 3.25 91.6 -99999.99
1/15/2021 6:45:00 AM 7.73 45.914 0.601 3.48 91.3 -99999.99
1/15/2021 7:00:00 AM 7.67 45.806 0.604 3.71 91.1 -99999.99
1/15/2021 7:15:00 AM 7.65 45.77 0.604 3.4 91.1 -99999.99
1/15/2021 7:30:00 AM 7.64 45.752 0.603 3.39 91.1 -99999.99
1/15/2021 7:45:00 AM 7.64 45.752 0.603 3.75 91.3 -99999.99
1/15/2021 8:00:00 AM 7.63 45.734 0.602 3.29 91.6 -99999.99
1/15/2021 8:15:00 AM 7.64 45.752 0.601 3.04 91.9 -99999.99
1/15/2021 8:30:00 AM 7.64 45.752 0.601 2.96 92.5 -99999.99
1/15/2021 8:45:00 AM 7.65 45.77 0.601 2.63 93.3 -99999.99
1/15/2021 9:00:00 AM 7.68 45.824 0.6 3.01 94.4 -99999.99
1/15/2021 9:15:00 AM 7.71 45.878 0.6 2.95 95.5 -99999.99
1/15/2021 9:30:00 AM 7.75 45.95 0.6 3.04 96.9 -99999.99
1/15/2021 9:45:00 AM 7.79 46.022 0.6 3.04 98.1 -99999.99
1/15/2021 10:00:00 AM 7.83 46.094 0.6 2.68 99.2 -99999.99
1/15/2021 10:15:00 AM 7.87 46.166 0.6 2.51 100.2 -99999.99
1/15/2021 10:30:00 AM 7.91 46.238 0.599 2.68 101.4 -99999.99
1/15/2021 10:45:00 AM 7.96 46.328 0.599 2.82 102.6 -99999.99
1/15/2021 11:00:00 AM 8.02 46.436 0.598 2.42 104 -99999.99
1/15/2021 11:15:00 AM 8.06 46.508 0.598 2.29 104.7 -99999.99
1/15/2021 11:30:00 AM 8.09 46.562 0.598 2.49 104.9 -99999.99
1/15/2021 11:45:00 AM 8.11 46.598 0.597 2.78 104.9 -99999.99
1/15/2021 12:00:00 PM 8.13 46.634 0.597 2.76 104.7 -99999.99
1/15/2021 12:15:00 PM 8.15 46.67 0.597 2.31 105.1 -99999.99
1/15/2021 12:30:00 PM 8.14 46.652 0.599 2.47 105.3 -99999.99
1/15/2021 12:45:00 PM 8.16 46.688 0.602 2.59 105.6 -99999.99
1/15/2021 1:00:00 PM 8.22 46.796 0.602 2.17 106.6 -99999.99
1/15/2021 1:15:00 PM 8.28 46.904 0.601 2.28 107.8 -99999.99
1/15/2021 1:30:00 PM 8.33 46.994 0.599 2.19 108.3 -99999.99
1/15/2021 1:45:00 PM 8.38 47.084 0.598 2.27 109.2 -99999.99
1/15/2021 2:00:00 PM 8.41 47.138 0.597 2.24 109.6 -99999.99
1/15/2021 2:15:00 PM 8.44 47.192 0.597 2.3 110.2 -99999.99
1/15/2021 2:30:00 PM 8.46 47.228 0.596 2.39 110.4 -99999.99
1/15/2021 2:45:00 PM 8.47 47.246 0.596 2.37 110.2 -99999.99
1/15/2021 3:00:00 PM 8.49 47.282 0.596 2.35 109.8 -99999.99
1/15/2021 3:15:00 PM 8.5 47.3 0.596 2.35 109.6 -99999.99
1/15/2021 3:30:00 PM 8.51 47.318 0.597 2.53 108.7 -99999.99
1/15/2021 3:45:00 PM 8.53 47.354 0.597 2.49 108.3 -99999.99
1/15/2021 4:00:00 PM 8.54 47.372 0.597 2.38 107.7 -99999.99
1/15/2021 4:15:00 PM 8.54 47.372 0.597 2.39 107 -99999.99
1/15/2021 4:30:00 PM 8.55 47.39 0.597 2.43 106.2 -99999.99
1/15/2021 4:45:00 PM 8.55 47.39 0.597 2.31 105.4 -99999.99
1/15/2021 5:00:00 PM 8.56 47.408 0.597 3.78 104.7 -99999.99
1/15/2021 5:15:00 PM 8.56 47.408 0.597 2.46 104 -99999.99
1/15/2021 5:30:00 PM 8.56 47.408 0.597 2.83 103.3 -99999.99
1/15/2021 5:45:00 PM 8.57 47.426 0.597 2.59 102.7 -99999.99
1/15/2021 6:00:00 PM 8.59 47.462 0.597 3.34 102.3 -99999.99
1/15/2021 6:15:00 PM 8.59 47.462 0.599 2.64 102 -99999.99
1/15/2021 6:30:00 PM 8.58 47.444 0.601 2.64 101.2 -99999.99
1/15/2021 6:45:00 PM 8.58 47.444 0.601 2.72 100.6 -99999.99
1/15/2021 7:00:00 PM 8.58 47.444 0.6 2.75 100.2 -99999.99
1/15/2021 7:15:00 PM 8.59 47.462 0.6 2.68 99.9 -99999.99
1/15/2021 7:30:00 PM 8.61 47.498 0.599 2.98 99.5 -99999.99
1/15/2021 7:45:00 PM 8.63 47.534 0.598 2.83 99.2 -99999.99
1/15/2021 8:00:00 PM 8.65 47.57 0.597 2.86 98.8 -99999.99
1/15/2021 8:15:00 PM 8.65 47.57 0.596 3.14 98.4 -99999.99
1/15/2021 8:30:00 PM 8.66 47.588 0.595 3.02 98.1 -99999.99
1/15/2021 8:45:00 PM 8.66 47.588 0.593 3.06 97.8 -99999.99
1/15/2021 9:00:00 PM 8.67 47.606 0.592 3.37 97.3 -99999.99
1/15/2021 9:15:00 PM 8.68 47.624 0.591 3.57 97 -99999.99
1/15/2021 9:30:00 PM 8.69 47.642 0.59 3.73 96.5 -99999.99
1/15/2021 9:45:00 PM 8.7 47.66 0.589 4.06 96.3 -99999.99
1/15/2021 10:00:00 PM 8.7 47.66 0.588 4.36 95.7 -99999.99
1/15/2021 10:15:00 PM 8.7 47.66 0.587 4.53 95.3 -99999.99
1/15/2021 10:30:00 PM 8.7 47.66 0.587 5 94.9 -99999.99
1/15/2021 10:45:00 PM 8.71 47.678 0.586 4.85 94.5 -99999.99
1/15/2021 11:00:00 PM 8.71 47.678 0.586 9.08 94.4 -99999.99
1/15/2021 11:15:00 PM 8.72 47.696 0.586 21.83 94.2 -99999.99
1/15/2021 11:30:00 PM 8.72 47.696 0.588 6.51 93.7 -99999.99
1/15/2021 11:45:00 PM 8.71 47.678 0.59 18.09 93.3 -99999.99
1/16/2021 12:00:00 AM 8.72 47.696 0.59 8.07 93.2 -99999.99
1/16/2021 12:15:00 AM 8.72 47.696 0.589 14.21 92.9 -99999.99
1/16/2021 12:30:00 AM 8.72 47.696 0.59 12.74 92.2 -99999.99
1/16/2021 12:45:00 AM 8.72 47.696 0.589 5.14 92 -99999.99
1/16/2021 1:00:00 AM 8.73 47.714 0.588 6.5 91.8 -99999.99
1/16/2021 1:15:00 AM 8.75 47.75 0.586 4.61 91.7 -99999.99
1/16/2021 1:30:00 AM 8.78 47.804 0.584 4.63 91.4 -99999.99
1/16/2021 1:45:00 AM 8.79 47.822 0.583 4.61 91.1 -99999.99
1/16/2021 2:00:00 AM 8.8 47.84 0.581 8.18 90.8 -99999.99
1/16/2021 2:15:00 AM 8.81 47.858 0.578 6.83 90.7 -99999.99
1/16/2021 2:30:00 AM 8.81 47.858 0.575 6.67 90.6 -99999.99
1/16/2021 2:45:00 AM 8.8 47.84 0.572 11.5 90.5 -99999.99
1/16/2021 3:00:00 AM 8.79 47.822 0.569 5.96 90.3 -99999.99
1/16/2021 3:15:00 AM 8.79 47.822 0.568 6.69 90.1 -99999.99
1/16/2021 3:30:00 AM 8.79 47.822 0.569 7.75 90 -99999.99
1/16/2021 3:45:00 AM 8.8 47.84 0.57 6.37 89.8 -99999.99
1/16/2021 4:00:00 AM 8.81 47.858 0.572 6.94 89.5 -99999.99
1/16/2021 4:15:00 AM 8.83 47.894 0.573 7.77 89.3 -99999.99
1/16/2021 4:30:00 AM 8.84 47.912 0.574 7.58 89.3 -99999.99
1/16/2021 4:45:00 AM 8.86 47.948 0.575 7.37 89.3 -99999.99
1/16/2021 5:00:00 AM 8.86 47.948 0.576 44.17 89.5 -99999.99
1/16/2021 5:15:00 AM 8.87 47.966 0.577 6.74 89.4 -99999.99
1/16/2021 5:30:00 AM 8.85 47.93 0.58 6.57 88.9 -99999.99
1/16/2021 5:45:00 AM 8.83 47.894 0.579 6.82 88.7 -99999.99
1/16/2021 6:00:00 AM 8.82 47.876 0.576 14.08 88.7 -99999.99
1/16/2021 6:15:00 AM 8.81 47.858 0.574 8.09 88.7 -99999.99
1/16/2021 6:30:00 AM 8.8 47.84 0.572 6.46 88.6 -99999.99
1/16/2021 6:45:00 AM 8.78 47.804 0.572 7.57 88.5 -99999.99
1/16/2021 7:00:00 AM 8.76 47.768 0.573 7.11 88.7 -99999.99
1/16/2021 7:15:00 AM 8.74 47.732 0.574 8.51 88.8 -99999.99
1/16/2021 7:30:00 AM 8.72 47.696 0.575 7.17 88.8 -99999.99
1/16/2021 7:45:00 AM 8.71 47.678 0.575 7.43 88.8 -99999.99
1/16/2021 8:00:00 AM 8.7 47.66 0.576 6.97 89 -99999.99
1/16/2021 8:15:00 AM 8.7 47.66 0.575 6.04 89.2 -99999.99
1/16/2021 8:30:00 AM 8.71 47.678 0.573 6.16 89.6 -99999.99
1/16/2021 8:45:00 AM 8.71 47.678 0.569 6.31 89.9 -99999.99
1/16/2021 9:00:00 AM 8.7 47.66 0.563 6.17 90.2 -99999.99
1/16/2021 9:15:00 AM 8.68 47.624 0.555 6.47 90.2 -99999.99
1/16/2021 9:30:00 AM 8.67 47.606 0.547 6.66 90.9 -99999.99
1/16/2021 9:45:00 AM 8.68 47.624 0.538 7.29 92.1 -99999.99
1/16/2021 10:00:00 AM 8.69 47.642 0.532 221.5 93.8 -99999.99
1/16/2021 10:15:00 AM 8.71 47.678 0.527 6.25 95.4 -99999.99
1/16/2021 10:30:00 AM 8.7 47.66 0.524 6.06 96.6 -99999.99
1/16/2021 10:45:00 AM 8.7 47.66 0.522 6.23 97.7 -99999.99
1/16/2021 11:00:00 AM 8.72 47.696 0.52 5.47 99.3 -99999.99
1/16/2021 11:15:00 AM 8.74 47.732 0.516 4.76 100.8 -99999.99
1/16/2021 11:30:00 AM 8.74 47.732 0.514 4.81 101.6 -99999.99
1/16/2021 11:45:00 AM 8.75 47.75 0.512 4.57 102.3 -99999.99
1/16/2021 12:00:00 PM 8.82 47.876 0.51 4.75 103.9 -99999.99
1/16/2021 12:15:00 PM 8.87 47.966 0.509 4.7 105.2 -99999.99
1/16/2021 12:30:00 PM 8.95 48.11 0.507 4.72 106.7 -99999.99
1/16/2021 12:45:00 PM 9 48.2 0.507 4.58 108.1 -99999.99
1/16/2021 1:00:00 PM 9.02 48.236 0.506 4.46 108.9 -99999.99
1/16/2021 1:15:00 PM 8.99 48.182 0.507 4.33 109.3 -99999.99
1/16/2021 1:30:00 PM 8.99 48.182 0.507 4.44 109.6 -99999.99
1/16/2021 1:45:00 PM 8.94 48.092 0.508 4.92 109.3 -99999.99
1/16/2021 2:00:00 PM 8.94 48.092 0.51 4.14 109.5 -99999.99
1/16/2021 2:15:00 PM 8.96 48.128 0.512 4.1 110.5 -99999.99
1/16/2021 2:30:00 PM 8.97 48.146 0.514 4.47 111.2 -99999.99
1/16/2021 2:45:00 PM 8.96 48.128 0.517 4.21 111.5 -99999.99
1/16/2021 3:00:00 PM 8.95 48.11 0.52 4.88 111.3 -99999.99
1/16/2021 3:15:00 PM 8.94 48.092 0.52 4.03 111 -99999.99
1/16/2021 3:30:00 PM 8.93 48.074 0.52 3.77 110.8 -99999.99
1/16/2021 3:45:00 PM 8.91 48.038 0.52 4.01 110.6 -99999.99
1/16/2021 4:00:00 PM 8.89 48.002 0.52 3.86 109.7 -99999.99
1/16/2021 4:15:00 PM 8.88 47.984 0.521 4.43 109.1 -99999.99
1/16/2021 4:30:00 PM 8.86 47.948 0.523 4.12 108.1 -99999.99
1/16/2021 4:45:00 PM 8.83 47.894 0.524 3.88 106.8 -99999.99
1/16/2021 5:00:00 PM 8.81 47.858 0.525 4.12 105.6 -99999.99
1/16/2021 5:15:00 PM 8.78 47.804 0.526 4.15 104.6 -99999.99
1/16/2021 5:30:00 PM 8.77 47.786 0.527 4.18 103.7 -99999.99
1/16/2021 5:45:00 PM 8.76 47.768 0.527 4.26 102.7 -99999.99
1/16/2021 6:00:00 PM 8.75 47.75 0.48 4.25 101.9 -99999.99
1/16/2021 6:15:00 PM 8.74 47.732 0.491 4.42 101.4 -99999.99
1/16/2021 6:30:00 PM 8.72 47.696 0.531 4.19 100.8 -99999.99
1/16/2021 6:45:00 PM 8.71 47.678 0.533 5.29 100.2 -99999.99
1/16/2021 7:00:00 PM 8.69 47.642 0.534 4.67 99.6 -99999.99
1/16/2021 7:15:00 PM 8.67 47.606 0.536 4.9 99 -99999.99
1/16/2021 7:30:00 PM 8.65 47.57 0.537 4.61 98.6 -99999.99
1/16/2021 7:45:00 PM 8.63 47.534 0.539 4.4 98 -99999.99
1/16/2021 8:00:00 PM 8.62 47.516 0.541 4.58 97.4 -99999.99
1/16/2021 8:15:00 PM 8.61 47.498 0.542 5.8 97 -99999.99
1/16/2021 8:30:00 PM 8.6 47.48 0.544 4.82 96.5 -99999.99
1/16/2021 8:45:00 PM 8.59 47.462 0.546 5.01 96 -99999.99
1/16/2021 9:00:00 PM 8.57 47.426 0.548 4.96 95.4 -99999.99
1/16/2021 9:15:00 PM 8.56 47.408 0.549 4.69 94.7 -99999.99
1/16/2021 9:30:00 PM 8.55 47.39 0.551 5.38 94.2 -99999.99
1/16/2021 9:45:00 PM 8.54 47.372 0.553 5.46 93.6 -99999.99
1/16/2021 10:00:00 PM 8.52 47.336 0.554 6.08 92.9 -99999.99
1/16/2021 10:15:00 PM 8.5 47.3 0.555 5.12 92.4 -99999.99
1/16/2021 10:30:00 PM 8.47 47.246 0.557 5.11 91.8 -99999.99
1/16/2021 10:45:00 PM 8.45 47.21 0.558 4.87 91.4 -99999.99
1/16/2021 11:00:00 PM 8.43 47.174 0.559 4.71 91.1 -99999.99
1/16/2021 11:15:00 PM 8.42 47.156 0.56 5.39 90.7 -99999.99
1/16/2021 11:30:00 PM 8.42 47.156 0.562 5.05 90.5 -99999.99
1/16/2021 11:45:00 PM 8.41 47.138 0.563 6.46 90.3 -99999.99
1/17/2021 12:00:00 AM 8.38 47.084 0.564 5.17 90.1 -99999.99
1/17/2021 12:15:00 AM 8.35 47.03 0.565 5.59 89.8 -99999.99
1/17/2021 12:30:00 AM 8.32 46.976 0.566 5.1 89.6 -99999.99
1/17/2021 12:45:00 AM 8.29 46.922 0.566 4.86 89.5 -99999.99
1/17/2021 1:00:00 AM 8.27 46.886 0.567 4.44 89.4 -99999.99
1/17/2021 1:15:00 AM 8.24 46.832 0.568 5.08 89.2 -99999.99
1/17/2021 1:30:00 AM 8.2 46.76 0.569 4.96 89.2 -99999.99
1/17/2021 1:45:00 AM 8.17 46.706 0.569 4.87 89.1 -99999.99
1/17/2021 2:00:00 AM 8.13 46.634 0.569 5.25 89 -99999.99
1/17/2021 2:15:00 AM 8.1 46.58 0.57 4.98 88.9 -99999.99
1/17/2021 2:30:00 AM 8.07 46.526 0.57 4.87 88.7 -99999.99
1/17/2021 2:45:00 AM 8.05 46.49 0.571 5.3 88.6 -99999.99
1/17/2021 3:00:00 AM 8.03 46.454 0.571 5.45 88.5 -99999.99
1/17/2021 3:15:00 AM 8 46.4 0.571 4.76 88.3 -99999.99
1/17/2021 3:30:00 AM 7.99 46.382 0.572 4.68 88.1 -99999.99
1/17/2021 3:45:00 AM 7.97 46.346 0.572 4.7 88.1 -99999.99
1/17/2021 4:00:00 AM 7.96 46.328 0.573 5.56 88.1 -99999.99
1/17/2021 4:15:00 AM 7.96 46.328 0.573 5.16 88 -99999.99
1/17/2021 4:30:00 AM 7.95 46.31 0.574 4.81 88.2 -99999.99
1/17/2021 4:45:00 AM 7.94 46.292 0.574 4.68 88.4 -99999.99
1/17/2021 5:00:00 AM 7.94 46.292 0.575 4.91 88.4 -99999.99
1/17/2021 5:15:00 AM 7.93 46.274 0.575 5.15 88.6 -99999.99
1/17/2021 5:30:00 AM 7.92 46.256 0.576 4.41 88.7 -99999.99
1/17/2021 5:45:00 AM 7.9 46.22 0.576 4.42 88.7 -99999.99
1/17/2021 6:00:00 AM 7.89 46.202 0.577 4.52 88.8 -99999.99
1/17/2021 6:15:00 AM 7.88 46.184 0.577 4.28 88.8 -99999.99
1/17/2021 6:30:00 AM 7.86 46.148 0.578 4.07 88.9 -99999.99
1/17/2021 6:45:00 AM 7.85 46.13 0.578 5.27 89 -99999.99
1/17/2021 7:00:00 AM 7.84 46.112 0.579 4.15 89 -99999.99
1/17/2021 7:15:00 AM 7.84 46.112 0.579 3.68 88.9 -99999.99
1/17/2021 7:30:00 AM 7.83 46.094 0.579 3.93 89.2 -99999.99
1/17/2021 7:45:00 AM 7.81 46.058 0.579 3.6 89.2 -99999.99
1/17/2021 8:00:00 AM 7.8 46.04 0.58 3.72 89.3 -99999.99
1/17/2021 8:15:00 AM 7.8 46.04 0.579 3.61 89.6 -99999.99
1/17/2021 8:30:00 AM 7.79 46.022 0.58 3.3 89.9 -99999.99
1/17/2021 8:45:00 AM 7.79 46.022 0.58 3.37 90.4 -99999.99
1/17/2021 9:00:00 AM 7.79 46.022 0.58 3.12 90.9 -99999.99
1/17/2021 9:15:00 AM 7.79 46.022 0.58 3.02 91.4 -99999.99
1/17/2021 9:30:00 AM 7.81 46.058 0.58 3.24 92 -99999.99
1/17/2021 9:45:00 AM 7.82 46.076 0.58 2.65 93.2 -99999.99
1/17/2021 10:00:00 AM 7.83 46.094 0.58 2.48 94.1 -99999.99
1/17/2021 10:15:00 AM 7.85 46.13 0.58 2.56 95.4 -99999.99
1/17/2021 10:30:00 AM 7.86 46.148 0.58 2.5 96.6 -99999.99
1/17/2021 10:45:00 AM 7.88 46.184 0.58 2.4 98 -99999.99
1/17/2021 11:00:00 AM 7.93 46.274 0.58 2.36 99.5 -99999.99
1/17/2021 11:15:00 AM 7.98 46.364 0.58 2.56 101.2 -99999.99
1/17/2021 11:30:00 AM 8.01 46.418 0.58 2.24 102.7 -99999.99
1/17/2021 11:45:00 AM 8.04 46.472 0.58 2.04 103.9 -99999.99
1/17/2021 12:00:00 PM 8.07 46.526 0.58 2.12 105.1 -99999.99
1/17/2021 12:15:00 PM 8.09 46.562 0.58 2.29 105.9 -99999.99
1/17/2021 12:30:00 PM 8.1 46.58 0.58 2.24 106.5 -99999.99
1/17/2021 12:45:00 PM 8.13 46.634 0.58 2.09 107.9 -99999.99
1/17/2021 1:00:00 PM 8.14 46.652 0.58 2.11 108.7 -99999.99
1/17/2021 1:15:00 PM 8.15 46.67 0.58 1.99 109.3 -99999.99
1/17/2021 1:30:00 PM 8.18 46.724 0.579 2.03 110.2 -99999.99
1/17/2021 1:45:00 PM 8.2 46.76 0.579 1.98 110.7 -99999.99
1/17/2021 2:00:00 PM 8.21 46.778 0.579 1.95 110.8 -99999.99
1/17/2021 2:15:00 PM 8.23 46.814 0.579 1.95 111.3 -99999.99
1/17/2021 2:30:00 PM 8.23 46.814 0.579 1.92 111.5 -99999.99
1/17/2021 2:45:00 PM 8.23 46.814 0.579 1.98 111.4 -99999.99
1/17/2021 3:00:00 PM 8.24 46.832 0.58 2.07 111.4 -99999.99
1/17/2021 3:15:00 PM 8.24 46.832 0.58 1.87 111.4 -99999.99
1/17/2021 3:30:00 PM 8.26 46.868 0.58 1.83 111.2 -99999.99
1/17/2021 3:45:00 PM 8.26 46.868 0.58 2.02 111.1 -99999.99
1/17/2021 4:00:00 PM 8.27 46.886 0.58 1.88 111.1 -99999.99
1/17/2021 4:15:00 PM 8.28 46.904 0.581 1.76 110.6 -99999.99
1/17/2021 4:30:00 PM 8.28 46.904 0.581 1.77 110 -99999.99
1/17/2021 4:45:00 PM 8.26 46.868 0.582 1.8 109.4 -99999.99
1/17/2021 5:00:00 PM 8.26 46.868 0.582 1.82 108 -99999.99
1/17/2021 5:15:00 PM 8.26 46.868 0.582 1.73 107 -99999.99
1/17/2021 5:30:00 PM 8.23 46.814 0.583 1.93 105.9 -99999.99
1/17/2021 5:45:00 PM 8.22 46.796 0.583 1.94 104.8 -99999.99
1/17/2021 6:00:00 PM 8.21 46.778 0.583 1.93 104 -99999.99
1/17/2021 6:15:00 PM 8.19 46.742 0.584 2.09 103 -99999.99
1/17/2021 6:30:00 PM 8.19 46.742 0.584 1.87 102.4 -99999.99
1/17/2021 6:45:00 PM 8.19 46.742 0.584 2.06 101.6 -99999.99
1/17/2021 7:00:00 PM 8.18 46.724 0.584 2.17 100.9 -99999.99
1/17/2021 7:15:00 PM 8.17 46.706 0.584 2.12 100.4 -99999.99
1/17/2021 7:30:00 PM 8.16 46.688 0.584 2.26 99.8 -99999.99
1/17/2021 7:45:00 PM 8.14 46.652 0.585 2.23 99.2 -99999.99
1/17/2021 8:00:00 PM 8.13 46.634 0.585 2.12 98.5 -99999.99
1/17/2021 8:15:00 PM 8.12 46.616 0.585 2.19 98 -99999.99
1/17/2021 8:30:00 PM 8.11 46.598 0.585 2.42 97.3 -99999.99
1/17/2021 8:45:00 PM 8.11 46.598 0.585 2.14 96.7 -99999.99
1/17/2021 9:00:00 PM 8.1 46.58 0.585 2.05 96.1 -99999.99
1/17/2021 9:15:00 PM 8.09 46.562 0.586 2.13 95.6 -99999.99
1/17/2021 9:30:00 PM 8.08 46.544 0.586 9.01 94.8 -99999.99
1/17/2021 9:45:00 PM 8.06 46.508 0.586 15.88 94.1 -99999.99
1/17/2021 10:00:00 PM 8.05 46.49 0.586 32.82 93.4 -99999.99
1/17/2021 10:15:00 PM 8.05 46.49 0.587 2.39 92.6 -99999.99
1/17/2021 10:30:00 PM 8.05 46.49 0.587 18.16 92.1 -99999.99
1/17/2021 10:45:00 PM 8.05 46.49 0.587 2.83 91.6 -99999.99
1/17/2021 11:00:00 PM 8.06 46.508 0.587 2.74 91.1 -99999.99
1/17/2021 11:15:00 PM 8.07 46.526 0.588 2.87 90.9 -99999.99
1/17/2021 11:30:00 PM 8.08 46.544 0.589 2.71 90.6 -99999.99
1/17/2021 11:45:00 PM 8.08 46.544 0.589 3.06 90.3 -99999.99
1/18/2021 12:00:00 AM 8.08 46.544 0.59 7.28 89.9 -99999.99
1/18/2021 12:15:00 AM 8.08 46.544 0.59 2.88 89.6 -99999.99
1/18/2021 12:30:00 AM 8.07 46.526 0.591 3.34 89.3 -99999.99
1/18/2021 12:45:00 AM 8.05 46.49 0.591 2.6 89.1 -99999.99
1/18/2021 1:00:00 AM 8.03 46.454 0.591 4.44 88.8 -99999.99
1/18/2021 1:15:00 AM 8.01 46.418 0.592 4.86 88.7 -99999.99
1/18/2021 1:30:00 AM 8 46.4 0.592 8.11 88.5 -99999.99
1/18/2021 1:45:00 AM 8 46.4 0.592 3.05 88.3 -99999.99
1/18/2021 2:00:00 AM 8 46.4 0.592 7.87 88.1 -99999.99
1/18/2021 2:15:00 AM 7.99 46.382 0.592 4.67 88 -99999.99
1/18/2021 2:30:00 AM 8 46.4 0.593 4.72 87.9 -99999.99
1/18/2021 2:45:00 AM 8 46.4 0.593 11.54 87.8 -99999.99
1/18/2021 3:00:00 AM 7.99 46.382 0.593 2.98 87.7 -99999.99
1/18/2021 3:15:00 AM 7.99 46.382 0.594 8.76 87.7 -99999.99
1/18/2021 3:30:00 AM 8 46.4 0.594 3.38 87.5 -99999.99
1/18/2021 3:45:00 AM 7.99 46.382 0.594 3.39 87.6 -99999.99
1/18/2021 4:00:00 AM 7.98 46.364 0.595 3.45 87.4 -99999.99
1/18/2021 4:15:00 AM 7.96 46.328 0.595 3.07 87.4 -99999.99
1/18/2021 4:30:00 AM 7.95 46.31 0.595 3.93 87.4 -99999.99
1/18/2021 4:45:00 AM 7.93 46.274 0.596 3.94 87.2 -99999.99
1/18/2021 5:00:00 AM 7.91 46.238 0.596 3.65 87.1 -99999.99
1/18/2021 5:15:00 AM 7.88 46.184 0.597 3.36 87.1 -99999.99
1/18/2021 5:30:00 AM 7.87 46.166 0.597 3.41 87.1 -99999.99
1/18/2021 5:45:00 AM 7.86 46.148 0.597 5.83 87.1 -99999.99
1/18/2021 6:00:00 AM 7.85 46.13 0.597 3.33 87.1 -99999.99
1/18/2021 6:15:00 AM 7.84 46.112 0.597 3.67 87.1 -99999.99
1/18/2021 6:30:00 AM 7.82 46.076 0.597 3.48 87 -99999.99
1/18/2021 6:45:00 AM 7.8 46.04 0.597 4.59 87 -99999.99
1/18/2021 7:00:00 AM 7.77 45.986 0.597 4.52 87 -99999.99
1/18/2021 7:15:00 AM 7.76 45.968 0.597 3.27 86.9 -99999.99
1/18/2021 7:30:00 AM 7.75 45.95 0.597 2.94 87 -99999.99
1/18/2021 7:45:00 AM 7.74 45.932 0.597 2.95 87.2 -99999.99
1/18/2021 8:00:00 AM 7.75 45.95 0.597 2.86 87.4 -99999.99
1/18/2021 8:15:00 AM 7.75 45.95 0.597 2.95 87.9 -99999.99
1/18/2021 8:30:00 AM 7.77 45.986 0.596 2.77 88.8 -99999.99
1/18/2021 8:45:00 AM 7.79 46.022 0.596 2.73 90.2 -99999.99
1/18/2021 9:00:00 AM 7.82 46.076 0.595 3.5 92.4 -99999.99
1/18/2021 9:15:00 AM 7.85 46.13 0.595 2.83 94.9 -99999.99
1/18/2021 9:30:00 AM 7.88 46.184 0.595 2.87 97.3 -99999.99
1/18/2021 9:45:00 AM 7.93 46.274 0.595 2.28 99.5 -99999.99
1/18/2021 10:00:00 AM 7.97 46.346 0.595 2.27 101.2 -99999.99
1/18/2021 10:15:00 AM 8 46.4 0.595 2.15 102.3 -99999.99
1/18/2021 10:30:00 AM 8.02 46.436 0.595 1.93 103 -99999.99
1/18/2021 10:45:00 AM 8.04 46.472 0.595 2.29 103.4 -99999.99
1/18/2021 11:00:00 AM 8.06 46.508 0.594 1.95 104.3 -99999.99
1/18/2021 11:15:00 AM 8.08 46.544 0.594 3.41 105.3 -99999.99
1/18/2021 11:30:00 AM 8.1 46.58 0.593 1.93 106.2 -99999.99
1/18/2021 11:45:00 AM 8.12 46.616 0.593 1.89 107.7 -99999.99
1/18/2021 12:00:00 PM 8.15 46.67 0.592 2.05 109 -99999.99
1/18/2021 12:15:00 PM 8.19 46.742 0.592 1.93 110.5 -99999.99
1/18/2021 12:30:00 PM 8.23 46.814 0.591 1.84 112.2 -99999.99
1/18/2021 12:45:00 PM 8.27 46.886 0.591 1.9 114 -99999.99
1/18/2021 1:00:00 PM 8.28 46.904 0.591 1.99 114.6 -99999.99
1/18/2021 1:15:00 PM 8.33 46.994 0.59 1.79 115.2 -99999.99
1/18/2021 1:30:00 PM 8.41 47.138 0.59 1.84 116.9 -99999.99
1/18/2021 1:45:00 PM 8.41 47.138 0.59 1.9 116.8 -99999.99
1/18/2021 2:00:00 PM 8.47 47.246 0.589 1.82 118.1 -99999.99
1/18/2021 2:15:00 PM 8.46 47.228 0.59 1.87 117.9 -99999.99
1/18/2021 2:30:00 PM 8.46 47.228 0.589 1.97 117.7 -99999.99
1/18/2021 2:45:00 PM 8.45 47.21 0.589 1.87 117.8 -99999.99
1/18/2021 3:00:00 PM 8.43 47.174 0.589 1.82 117.8 -99999.99
1/18/2021 3:15:00 PM 8.43 47.174 0.589 1.91 118.2 -99999.99
1/18/2021 3:30:00 PM 8.43 47.174 0.589 1.95 118.6 -99999.99
1/18/2021 3:45:00 PM 8.43 47.174 0.589 1.86 119 -99999.99
1/18/2021 4:00:00 PM 8.42 47.156 0.589 1.77 118.5 -99999.99
1/18/2021 4:15:00 PM 8.4 47.12 0.589 1.92 117.9 -99999.99
1/18/2021 4:30:00 PM 8.36 47.048 0.589 1.82 116.5 -99999.99
1/18/2021 4:45:00 PM 8.35 47.03 0.59 2.03 115.3 -99999.99
1/18/2021 5:00:00 PM 8.31 46.958 0.59 1.81 113.7 -99999.99
1/18/2021 5:15:00 PM 8.27 46.886 0.59 2.2 111.8 -99999.99
1/18/2021 5:30:00 PM 8.23 46.814 0.591 1.94 110.1 -99999.99
1/18/2021 5:45:00 PM 8.19 46.742 0.591 2.04 108.7 -99999.99
1/18/2021 6:00:00 PM 8.17 46.706 0.591 2.05 107.5 -99999.99
1/18/2021 6:15:00 PM 8.13 46.634 0.591 2.29 106.6 -99999.99
1/18/2021 6:30:00 PM 8.09 46.562 0.591 2.06 105.8 -99999.99
1/18/2021 6:45:00 PM 8.06 46.508 0.591 2.17 105 -99999.99
1/18/2021 7:00:00 PM 8.03 46.454 0.591 2.1 104.1 -99999.99
1/18/2021 7:15:00 PM 8 46.4 0.591 2.27 103.3 -99999.99
1/18/2021 7:30:00 PM 7.98 46.364 0.591 2.35 102.5 -99999.99
1/18/2021 7:45:00 PM 7.95 46.31 0.591 2.23 101.9 -99999.99
1/18/2021 8:00:00 PM 7.94 46.292 0.592 2.43 101.1 -99999.99
1/18/2021 8:15:00 PM 7.94 46.292 0.592 2.45 100.4 -99999.99
1/18/2021 8:30:00 PM 7.94 46.292 0.592 2.84 99.8 -99999.99
1/18/2021 8:45:00 PM 7.94 46.292 0.592 2.41 99.3 -99999.99
1/18/2021 9:00:00 PM 7.94 46.292 0.592 2.47 98.6 -99999.99
1/18/2021 9:15:00 PM 7.94 46.292 0.592 2.78 98.1 -99999.99
1/18/2021 9:30:00 PM 7.94 46.292 0.592 2.57 97.7 -99999.99
1/18/2021 9:45:00 PM 7.93 46.274 0.593 2.51 97.3 -99999.99
1/18/2021 10:00:00 PM 7.93 46.274 0.593 2.66 96.8 -99999.99
1/18/2021 10:15:00 PM 7.92 46.256 0.593 2.42 96.5 -99999.99
1/18/2021 10:30:00 PM 7.91 46.238 0.594 2.32 95.9 -99999.99
1/18/2021 10:45:00 PM 7.91 46.238 0.594 2.46 95.3 -99999.99
1/18/2021 11:00:00 PM 7.91 46.238 0.594 2.89 95 -99999.99
1/18/2021 11:15:00 PM 7.9 46.22 0.594 2.55 94.5 -99999.99
1/18/2021 11:30:00 PM 7.89 46.202 0.491 2.55 94.3 -99999.99
1/18/2021 11:45:00 PM 7.89 46.202 0.516 2.89 93.9 -99999.99
1/19/2021 12:00:00 AM 7.88 46.184 0.449 2.83 93.5 -99999.99
1/19/2021 12:15:00 AM 7.87 46.166 0.594 2.96 93.1 -99999.99
1/19/2021 12:30:00 AM 7.87 46.166 0.593 3.15 92.9 -99999.99
1/19/2021 12:45:00 AM 7.85 46.13 0.593 2.9 92.6 -99999.99
1/19/2021 1:00:00 AM 7.84 46.112 0.593 3.63 92.3 -99999.99
1/19/2021 1:15:00 AM 7.82 46.076 0.593 3.42 92.1 -99999.99
1/19/2021 1:30:00 AM 7.81 46.058 0.593 3.15 91.9 -99999.99
1/19/2021 1:45:00 AM 7.81 46.058 0.593 3.3 91.8 -99999.99
1/19/2021 2:00:00 AM 7.81 46.058 0.593 3.26 91.6 -99999.99
1/19/2021 2:15:00 AM 7.8 46.04 0.593 3.59 91.3 -99999.99
1/19/2021 2:30:00 AM 7.79 46.022 0.593 4 91.3 -99999.99
1/19/2021 2:45:00 AM 7.78 46.004 0.593 4.11 91.3 -99999.99
1/19/2021 3:00:00 AM 7.76 45.968 0.593 3.16 91 -99999.99
1/19/2021 3:15:00 AM 7.76 45.968 0.593 4.4 91.4 -99999.99
1/19/2021 3:30:00 AM 7.74 45.932 0.593 3.6 91.5 -99999.99
1/19/2021 3:45:00 AM 7.7 45.86 0.598 4.09 91.3 -99999.99
1/19/2021 4:00:00 AM 7.65 45.77 0.603 3.71 91.5 -99999.99
1/19/2021 4:15:00 AM 7.62 45.716 0.607 3.57 91.7 -99999.99
1/19/2021 4:30:00 AM 7.61 45.698 0.608 3.51 91.6 -99999.99
1/19/2021 4:45:00 AM 7.6 45.68 0.609 3.89 91.8 -99999.99
1/19/2021 5:00:00 AM 7.59 45.662 0.609 3.79 91.8 -99999.99
1/19/2021 5:15:00 AM 7.58 45.644 0.61 3.83 91.7 -99999.99
1/19/2021 5:30:00 AM 7.58 45.644 0.61 3.91 91.8 -99999.99
1/19/2021 5:45:00 AM 7.57 45.626 0.61 3.47 91.8 -99999.99
1/19/2021 6:00:00 AM 7.56 45.608 0.61 4.84 91.9 -99999.99
1/19/2021 6:15:00 AM 7.55 45.59 0.61 3.53 91.8 -99999.99
1/19/2021 6:30:00 AM 7.53 45.554 0.61 3.87 92 -99999.99
1/19/2021 6:45:00 AM 7.52 45.536 0.61 3.71 92 -99999.99
1/19/2021 7:00:00 AM 7.51 45.518 0.61 3.62 92 -99999.99
1/19/2021 7:15:00 AM 7.5 45.5 0.61 3.27 92 -99999.99
1/19/2021 7:30:00 AM 7.49 45.482 0.61 3.04 92.1 -99999.99
1/19/2021 7:45:00 AM 7.47 45.446 0.61 3.21 92.2 -99999.99
1/19/2021 8:00:00 AM 7.46 45.428 0.609 2.99 92.2 -99999.99
1/19/2021 8:15:00 AM 7.47 45.446 0.606 3 92.7 -99999.99
1/19/2021 8:30:00 AM 7.51 45.518 0.602 3.36 93.5 -99999.99
1/19/2021 8:45:00 AM 7.56 45.608 0.6 4 94.9 -99999.99
1/19/2021 9:00:00 AM 7.59 45.662 0.598 3.09 95.9 -99999.99
1/19/2021 9:15:00 AM 7.62 45.716 0.597 3.13 97 -99999.99
1/19/2021 9:30:00 AM 7.65 45.77 0.596 2.8 98.6 -99999.99
1/19/2021 9:45:00 AM 7.7 45.86 0.596 2.84 100.6 -99999.99
1/19/2021 10:00:00 AM 7.71 45.878 0.596 2.62 102.2 -99999.99
1/19/2021 10:15:00 AM 7.71 45.878 0.599 2.55 104.1 -99999.99
1/19/2021 10:30:00 AM 7.76 45.968 0.6 2.8 106.2 -99999.99
1/19/2021 10:45:00 AM 7.82 46.076 0.599 2.64 108.5 -99999.99
1/19/2021 11:00:00 AM 7.88 46.184 0.598 2.61 110.8 -99999.99
1/19/2021 11:15:00 AM 7.94 46.292 0.598 2.51 112.4 -99999.99
1/19/2021 11:30:00 AM 7.99 46.382 0.597 2.58 113.8 -99999.99
1/19/2021 11:45:00 AM 8.03 46.454 0.596 2.53 115.2 -99999.99
1/19/2021 12:00:00 PM 8.06 46.508 0.596 2.5 116 -99999.99
1/19/2021 12:15:00 PM 8.1 46.58 0.595 2.56 116.7 -99999.99
1/19/2021 12:30:00 PM 8.16 46.688 0.595 2.53 117.6 -99999.99
1/19/2021 12:45:00 PM 8.17 46.706 0.594 2.37 118 -99999.99
1/19/2021 1:00:00 PM 8.19 46.742 0.593 2.43 118.6 -99999.99
1/19/2021 1:15:00 PM 8.19 46.742 0.593 2.4 118.6 -99999.99
1/19/2021 1:30:00 PM 8.24 46.832 0.592 2.77 119.9 -99999.99
1/19/2021 1:45:00 PM 8.29 46.922 0.592 2.5 121.1 -99999.99
1/19/2021 2:00:00 PM 8.31 46.958 0.592 2.56 121.7 -99999.99
1/19/2021 2:15:00 PM 8.34 47.012 0.592 2.64 122.4 -99999.99
1/19/2021 2:30:00 PM 8.38 47.084 0.592 2.69 122.8 -99999.99
1/19/2021 2:45:00 PM 8.41 47.138 0.592 2.68 123.3 -99999.99
1/19/2021 3:00:00 PM 8.43 47.174 0.591 2.72 123.2 -99999.99
1/19/2021 3:15:00 PM 8.4 47.12 0.592 2.76 122.8 -99999.99
1/19/2021 3:30:00 PM 8.35 47.03 0.595 2.84 121.4 -99999.99
1/19/2021 3:45:00 PM 8.31 46.958 0.596 3.04 120.1 -99999.99
1/19/2021 4:00:00 PM 8.27 46.886 0.596 2.96 119 -99999.99
1/19/2021 4:15:00 PM 8.25 46.85 0.595 2.79 117.8 -99999.99
1/19/2021 4:30:00 PM 8.22 46.796 0.595 2.7 116.6 -99999.99
1/19/2021 4:45:00 PM 8.2 46.76 0.594 2.84 115.4 -99999.99
1/19/2021 5:00:00 PM 8.18 46.724 0.594 2.68 113.9 -99999.99
1/19/2021 5:15:00 PM 8.17 46.706 0.594 2.87 112.4 -99999.99
1/19/2021 5:30:00 PM 8.15 46.67 0.594 2.84 111 -99999.99
1/19/2021 5:45:00 PM 8.13 46.634 0.594 2.97 109.8 -99999.99
1/19/2021 6:00:00 PM 8.12 46.616 0.594 2.94 108.8 -99999.99
1/19/2021 6:15:00 PM 8.11 46.598 0.594 2.89 107.9 -99999.99
1/19/2021 6:30:00 PM 8.09 46.562 0.594 3 106.8 -99999.99
1/19/2021 6:45:00 PM 8.06 46.508 0.594 2.83 106.1 -99999.99
1/19/2021 7:00:00 PM 8.03 46.454 0.594 2.8 105.2 -99999.99
1/19/2021 7:15:00 PM 7.99 46.382 0.594 2.93 104.4 -99999.99
1/19/2021 7:30:00 PM 7.96 46.328 0.594 2.95 103.8 -99999.99
1/19/2021 7:45:00 PM 7.93 46.274 0.594 3.02 102.9 -99999.99
1/19/2021 8:00:00 PM 7.89 46.202 0.595 3.05 102.4 -99999.99
1/19/2021 8:15:00 PM 7.86 46.148 0.595 2.93 101.5 -99999.99
1/19/2021 8:30:00 PM 7.83 46.094 0.595 2.95 101 -99999.99
1/19/2021 8:45:00 PM 7.81 46.058 0.595 3.07 100.2 -99999.99
1/19/2021 9:00:00 PM 7.78 46.004 0.595 3.12 99.5 -99999.99
1/19/2021 9:15:00 PM 7.76 45.968 0.595 10.59 98.8 -99999.99
1/19/2021 9:30:00 PM 7.74 45.932 0.595 3.18 98.2 -99999.99
1/19/2021 9:45:00 PM 7.71 45.878 0.595 3.31 97.6 -99999.99
1/19/2021 10:00:00 PM 7.7 45.86 0.595 3.58 97.1 -99999.99
1/19/2021 10:15:00 PM 7.68 45.824 0.595 3.73 96.6 -99999.99
1/19/2021 10:30:00 PM 7.68 45.824 0.595 3.57 96.3 -99999.99
1/19/2021 10:45:00 PM 7.68 45.824 0.595 3.36 95.8 -99999.99
1/19/2021 11:00:00 PM 7.68 45.824 0.595 3.69 95.3 -99999.99
1/19/2021 11:15:00 PM 7.67 45.806 0.596 3.65 94.9 -99999.99
1/19/2021 11:30:00 PM 7.67 45.806 0.596 3.68 94.7 -99999.99
1/19/2021 11:45:00 PM 7.68 45.824 0.596 3.79 94.3 -99999.99
1/20/2021 12:00:00 AM 7.68 45.824 0.596 3.82 94 -99999.99
1/20/2021 12:15:00 AM 7.69 45.842 0.596 3.85 93.5 -99999.99
1/20/2021 12:30:00 AM 7.69 45.842 0.596 3.82 93.2 -99999.99
1/20/2021 12:45:00 AM 7.69 45.842 0.596 3.74 93.1 -99999.99
1/20/2021 1:00:00 AM 7.69 45.842 0.596 4.62 92.8 -99999.99
1/20/2021 1:15:00 AM 7.68 45.824 0.596 3.59 92.6 -99999.99
1/20/2021 1:30:00 AM 7.67 45.806 0.596 3.62 92.4 -99999.99
1/20/2021 1:45:00 AM 7.67 45.806 0.595 3.64 92.2 -99999.99
1/20/2021 2:00:00 AM 7.66 45.788 0.595 3.78 92.1 -99999.99
1/20/2021 2:15:00 AM 7.66 45.788 0.595 3.95 91.9 -99999.99
1/20/2021 2:30:00 AM 7.65 45.77 0.595 3.7 91.7 -99999.99
1/20/2021 2:45:00 AM 7.65 45.77 0.595 3.63 91.4 -99999.99
1/20/2021 3:00:00 AM 7.64 45.752 0.595 3.94 91.5 -99999.99
1/20/2021 3:15:00 AM 7.64 45.752 0.595 4.02 91.2 -99999.99
1/20/2021 3:30:00 AM 7.63 45.734 0.595 3.92 91.2 -99999.99
1/20/2021 3:45:00 AM 7.63 45.734 0.595 3.97 91.1 -99999.99
1/20/2021 4:00:00 AM 7.63 45.734 0.595 3.74 91.1 -99999.99
1/20/2021 4:15:00 AM 7.63 45.734 0.595 3.51 90.9 -99999.99
1/20/2021 4:30:00 AM 7.62 45.716 0.595 3.96 91 -99999.99
1/20/2021 4:45:00 AM 7.63 45.734 0.595 5.04 90.8 -99999.99
1/20/2021 5:00:00 AM 7.62 45.716 0.595 3.61 90.8 -99999.99
1/20/2021 5:15:00 AM 7.62 45.716 0.595 3.54 90.8 -99999.99
1/20/2021 5:30:00 AM 7.62 45.716 0.595 3.99 90.7 -99999.99
1/20/2021 5:45:00 AM 7.63 45.734 0.596 3.92 90.6 -99999.99
1/20/2021 6:00:00 AM 7.63 45.734 0.596 3.59 90.4 -99999.99
1/20/2021 6:15:00 AM 7.62 45.716 0.596 3.54 90.4 -99999.99
1/20/2021 6:30:00 AM 7.6 45.68 0.596 3.5 90.5 -99999.99
1/20/2021 6:45:00 AM 7.58 45.644 0.596 3.22 90.5 -99999.99
1/20/2021 7:00:00 AM 7.53 45.554 0.596 3.26 90.3 -99999.99
1/20/2021 7:15:00 AM 7.5 45.5 0.596 2.94 89.9 -99999.99
1/20/2021 7:30:00 AM 7.46 45.428 0.596 3.06 89.5 -99999.99
1/20/2021 7:45:00 AM 7.42 45.356 0.596 2.87 89.4 -99999.99
1/20/2021 8:00:00 AM 7.4 45.32 0.596 2.83 89.9 -99999.99
1/20/2021 8:15:00 AM 7.39 45.302 0.596 2.75 90.7 -99999.99
1/20/2021 8:30:00 AM 7.38 45.284 0.596 2.87 91.5 -99999.99
1/20/2021 8:45:00 AM 7.39 45.302 0.596 2.81 92.9 -99999.99
1/20/2021 9:00:00 AM 7.4 45.32 0.596 2.65 94.5 -99999.99
1/20/2021 9:15:00 AM 7.41 45.338 0.596 2.91 96.4 -99999.99
1/20/2021 9:30:00 AM 7.44 45.392 0.595 2.67 98.4 -99999.99
1/20/2021 9:45:00 AM 7.46 45.428 0.595 2.61 100.6 -99999.99
1/20/2021 10:00:00 AM 7.49 45.482 0.595 2.73 102.7 -99999.99
1/20/2021 10:15:00 AM 7.52 45.536 0.595 2.58 104.5 -99999.99
1/20/2021 10:30:00 AM 7.56 45.608 0.595 2.45 106.6 -99999.99
1/20/2021 10:45:00 AM 7.59 45.662 0.594 2.39 107.7 -99999.99
1/20/2021 11:00:00 AM 7.6 45.68 0.594 2.68 109 -99999.99
1/20/2021 11:15:00 AM 7.62 45.716 0.594 2.26 109.6 -99999.99
1/20/2021 11:30:00 AM 7.69 45.842 0.594 2.46 111.7 -99999.99
1/20/2021 11:45:00 AM 7.74 45.932 0.594 2.46 113.4 -99999.99
1/20/2021 12:00:00 PM 7.8 46.04 0.593 2.33 115.8 -99999.99
1/20/2021 12:15:00 PM 7.81 46.058 0.593 2.38 117.2 -99999.99
1/20/2021 12:30:00 PM 7.8 46.04 0.593 2.33 117.9 -99999.99
1/20/2021 12:45:00 PM 7.83 46.094 0.594 2.21 118.2 -99999.99
1/20/2021 1:00:00 PM 7.85 46.13 0.593 2.27 119.5 -99999.99
1/20/2021 1:15:00 PM 7.82 46.076 0.592 2.32 119.6 -99999.99
1/20/2021 1:30:00 PM 7.82 46.076 0.592 2.33 119.7 -99999.99
1/20/2021 1:45:00 PM 7.83 46.094 0.592 2.52 120.1 -99999.99
1/20/2021 2:00:00 PM 7.8 46.04 0.592 2.36 120.5 -99999.99
1/20/2021 2:15:00 PM 7.73 45.914 0.592 2.32 119.8 -99999.99
1/20/2021 2:30:00 PM 7.71 45.878 0.592 2.36 119.8 -99999.99
1/20/2021 2:45:00 PM 7.65 45.77 0.593 2.4 118.5 -99999.99
1/20/2021 3:00:00 PM 7.64 45.752 0.593 2.36 119.1 -99999.99
1/20/2021 3:15:00 PM 7.65 45.77 0.593 2.52 119.7 -99999.99
1/20/2021 3:30:00 PM 7.66 45.788 0.593 2.56 120 -99999.99
1/20/2021 3:45:00 PM 7.66 45.788 0.593 2.74 120.1 -99999.99
1/20/2021 4:00:00 PM 7.65 45.77 0.593 2.62 120.4 -99999.99
1/20/2021 4:15:00 PM 7.62 45.716 0.594 2.58 119.8 -99999.99
1/20/2021 4:30:00 PM 7.57 45.626 0.594 2.69 118.2 -99999.99
1/20/2021 4:45:00 PM 7.52 45.536 0.595 2.67 116.5 -99999.99
1/20/2021 5:00:00 PM 7.48 45.464 0.595 2.62 115 -99999.99
1/20/2021 5:15:00 PM 7.45 45.41 0.595 2.65 113.3 -99999.99
1/20/2021 5:30:00 PM 7.42 45.356 0.596 2.69 111.3 -99999.99
1/20/2021 5:45:00 PM 7.39 45.302 0.596 2.76 110 -99999.99
1/20/2021 6:00:00 PM 7.37 45.266 0.596 2.83 108.7 -99999.99
1/20/2021 6:15:00 PM 7.36 45.248 0.596 2.93 107.8 -99999.99
1/20/2021 6:30:00 PM 7.34 45.212 0.596 2.86 106.9 -99999.99
1/20/2021 6:45:00 PM 7.33 45.194 0.596 2.8 106 -99999.99
1/20/2021 7:00:00 PM 7.33 45.194 0.596 2.85 105.1 -99999.99
1/20/2021 7:15:00 PM 7.3 45.14 0.596 3.03 104.2 -99999.99
1/20/2021 7:30:00 PM 7.28 45.104 0.596 3.2 103.5 -99999.99
1/20/2021 7:45:00 PM 7.26 45.068 0.582 3.14 102.6 -99999.99
1/20/2021 8:00:00 PM 7.23 45.014 0.596 3.01 101.8 -99999.99
1/20/2021 8:15:00 PM 7.21 44.978 0.596 2.89 101 -99999.99
1/20/2021 8:30:00 PM 7.17 44.906 0.597 2.96 100.4 -99999.99
1/20/2021 8:45:00 PM 7.14 44.852 0.596 3.54 99.8 -99999.99
1/20/2021 9:00:00 PM 7.11 44.798 0.597 3.73 99.4 -99999.99
1/20/2021 9:15:00 PM 7.09 44.762 0.597 3.16 99 -99999.99
1/20/2021 9:30:00 PM 7.08 44.744 0.597 3.09 98.6 -99999.99
1/20/2021 9:45:00 PM 7.06 44.708 0.597 3.48 98.4 -99999.99
1/20/2021 10:00:00 PM 7.04 44.672 0.598 3.36 98 -99999.99
1/20/2021 10:15:00 PM 7.01 44.618 0.598 3.4 97.7 -99999.99
1/20/2021 10:30:00 PM 6.98 44.564 0.598 3.2 97.2 -99999.99
1/20/2021 10:45:00 PM 6.96 44.528 0.598 3.32 96.9 -99999.99
1/20/2021 11:00:00 PM 6.93 44.474 0.598 3.25 96.4 -99999.99
1/20/2021 11:15:00 PM 6.9 44.42 0.599 3.36 95.9 -99999.99
1/20/2021 11:30:00 PM 6.87 44.366 0.599 3.14 95.4 -99999.99
1/20/2021 11:45:00 PM 6.84 44.312 0.599 3.38 94.9 -99999.99
1/21/2021 12:00:00 AM 6.81 44.258 0.599 3.42 94.7 -99999.99
1/21/2021 12:15:00 AM 6.78 44.204 0.599 3.5 94.3 -99999.99
1/21/2021 12:30:00 AM 6.75 44.15 0.599 3.5 94 -99999.99
1/21/2021 12:45:00 AM 6.72 44.096 0.599 3.63 93.7 -99999.99
1/21/2021 1:00:00 AM 6.68 44.024 0.599 3.84 93.4 -99999.99
1/21/2021 1:15:00 AM 6.65 43.97 0.599 3.58 93.2 -99999.99
1/21/2021 1:30:00 AM 6.62 43.916 0.598 3.8 92.9 -99999.99
1/21/2021 1:45:00 AM 6.59 43.862 0.599 3.73 92.9 -99999.99
1/21/2021 2:00:00 AM 6.56 43.808 0.599 4.43 92.7 -99999.99
1/21/2021 2:15:00 AM 6.52 43.736 0.599 4.02 92.6 -99999.99
1/21/2021 2:30:00 AM 6.49 43.682 0.599 4.19 92.4 -99999.99
1/21/2021 2:45:00 AM 6.45 43.61 0.599 4.16 92.3 -99999.99
1/21/2021 3:00:00 AM 6.42 43.556 0.599 3.95 92.1 -99999.99
1/21/2021 3:15:00 AM 6.38 43.484 0.599 4.21 91.9 -99999.99
1/21/2021 3:30:00 AM 6.35 43.43 0.599 4.29 91.8 -99999.99
1/21/2021 3:45:00 AM 6.32 43.376 0.599 4.94 91.8 -99999.99
1/21/2021 4:00:00 AM 6.28 43.304 0.599 4.58 91.7 -99999.99
1/21/2021 4:15:00 AM 6.26 43.268 0.599 4.33 91.6 -99999.99
1/21/2021 4:30:00 AM 6.23 43.214 0.6 4.44 91.4 -99999.99
1/21/2021 4:45:00 AM 6.21 43.178 0.599 4.13 91.2 -99999.99
1/21/2021 5:00:00 AM 6.18 43.124 0.599 4.59 91.2 -99999.99
1/21/2021 5:15:00 AM 6.16 43.088 0.599 4.63 91.2 -99999.99
1/21/2021 5:30:00 AM 6.13 43.034 0.599 4.58 91.3 -99999.99
1/21/2021 5:45:00 AM 6.13 43.034 0.599 4.16 91.2 -99999.99
1/21/2021 6:00:00 AM 6.13 43.034 0.599 4.46 91.1 -99999.99
1/21/2021 6:15:00 AM 6.13 43.034 0.599 4.36 91.2 -99999.99
1/21/2021 6:30:00 AM 6.13 43.034 0.599 4.3 91.3 -99999.99
1/21/2021 6:45:00 AM 6.13 43.034 0.599 4.65 91.2 -99999.99
1/21/2021 7:00:00 AM 6.13 43.034 0.599 4.13 91.1 -99999.99
1/21/2021 7:15:00 AM 6.12 43.016 0.599 4.08 91.3 -99999.99
1/21/2021 7:30:00 AM 6.12 43.016 0.599 3.91 91.3 -99999.99
1/21/2021 7:45:00 AM 6.12 43.016 0.599 3.95 91.6 -99999.99
1/21/2021 8:00:00 AM 6.13 43.034 0.599 3.72 91.8 -99999.99
1/21/2021 8:15:00 AM 6.15 43.07 0.599 3.57 92.7 -99999.99
1/21/2021 8:30:00 AM 6.16 43.088 0.599 3.64 94 -99999.99
1/21/2021 8:45:00 AM 6.16 43.088 0.599 3.74 95.1 -99999.99
1/21/2021 9:00:00 AM 6.16 43.088 0.599 3.68 96.3 -99999.99
1/21/2021 9:15:00 AM 6.17 43.106 0.599 3.37 97.9 -99999.99
1/21/2021 9:30:00 AM 6.2 43.16 0.599 3.45 99.8 -99999.99
1/21/2021 9:45:00 AM 6.25 43.25 0.598 3.39 102 -99999.99
1/21/2021 10:00:00 AM 6.31 43.358 0.598 3.54 104.3 -99999.99
1/21/2021 10:15:00 AM 6.37 43.466 0.597 3.25 106.6 -99999.99
1/21/2021 10:30:00 AM 6.45 43.61 0.597 3.25 109 -99999.99
1/21/2021 10:45:00 AM 6.52 43.736 0.596 3.3 111.2 -99999.99
1/21/2021 11:00:00 AM 6.59 43.862 0.596 3.35 112.9 -99999.99
1/21/2021 11:15:00 AM 6.68 44.024 0.595 3.41 114.8 -99999.99
1/21/2021 11:30:00 AM 6.78 44.204 0.595 3.54 116.7 -99999.99
1/21/2021 11:45:00 AM 6.88 44.384 0.594 3.43 118.8 -99999.99
1/21/2021 12:00:00 PM 6.97 44.546 0.594 3.3 120.6 -99999.99
1/21/2021 12:15:00 PM 7.05 44.69 0.594 3.43 121.8 -99999.99
1/21/2021 12:30:00 PM 7.11 44.798 0.593 3.5 122.5 -99999.99
1/21/2021 12:45:00 PM 7.18 44.924 0.593 3.28 123.8 -99999.99
1/21/2021 1:00:00 PM 7.23 45.014 0.593 3.55 124.4 -99999.99
1/21/2021 1:15:00 PM 7.31 45.158 0.593 3.38 125.2 -99999.99
1/21/2021 1:30:00 PM 7.39 45.302 0.593 3.65 126.3 -99999.99
1/21/2021 1:45:00 PM 7.47 45.446 0.593 3.48 127.3 -99999.99
1/21/2021 2:00:00 PM 7.54 45.572 0.593 3.39 127.8 -99999.99
1/21/2021 2:15:00 PM 7.58 45.644 0.593 3.5 128.1 -99999.99
1/21/2021 2:30:00 PM 7.6 45.68 0.593 3.56 128.2 -99999.99
1/21/2021 2:45:00 PM 7.61 45.698 0.593 3.41 128 -99999.99
1/21/2021 3:00:00 PM 7.59 45.662 0.593 3.99 127.3 -99999.99
1/21/2021 3:15:00 PM 7.56 45.608 0.593 3.47 126.4 -99999.99
1/21/2021 3:30:00 PM 7.57 45.626 0.593 3.91 126 -99999.99
1/21/2021 3:45:00 PM 7.54 45.572 0.593 3.94 125.3 -99999.99
1/21/2021 4:00:00 PM 7.51 45.518 0.593 3.53 123.9 -99999.99
1/21/2021 4:15:00 PM 7.49 45.482 0.593 3.41 122.4 -99999.99
1/21/2021 4:30:00 PM 7.49 45.482 0.593 3.79 120.5 -99999.99
1/21/2021 4:45:00 PM 7.48 45.464 0.593 3.56 119 -99999.99
1/21/2021 5:00:00 PM 7.48 45.464 0.593 3.71 117.5 -99999.99
1/21/2021 5:15:00 PM 7.48 45.464 0.593 3.69 115.4 -99999.99
1/21/2021 5:30:00 PM 7.47 45.446 0.593 3.72 113.7 -99999.99
1/21/2021 5:45:00 PM 7.47 45.446 0.593 3.92 112.3 -99999.99
1/21/2021 6:00:00 PM 7.46 45.428 0.593 3.6 110.9 -99999.99
1/21/2021 6:15:00 PM 7.46 45.428 0.593 4.02 109.7 -99999.99
1/21/2021 6:30:00 PM 7.45 45.41 0.593 3.71 108.5 -99999.99
1/21/2021 6:45:00 PM 7.45 45.41 0.593 4.22 107.5 -99999.99
1/21/2021 7:00:00 PM 7.43 45.374 0.594 3.68 106.6 -99999.99
1/21/2021 7:15:00 PM 7.42 45.356 0.594 3.76 105.8 -99999.99
1/21/2021 7:30:00 PM 7.41 45.338 0.594 3.74 104.9 -99999.99
1/21/2021 7:45:00 PM 7.4 45.32 0.594 3.86 104.2 -99999.99
1/21/2021 8:00:00 PM 7.39 45.302 0.594 4.32 103.4 -99999.99
1/21/2021 8:15:00 PM 7.37 45.266 0.594 4.05 102.9 -99999.99
1/21/2021 8:30:00 PM 7.36 45.248 0.595 4.29 101.9 -99999.99
1/21/2021 8:45:00 PM 7.36 45.248 0.595 4.11 101.3 -99999.99
1/21/2021 9:00:00 PM 7.36 45.248 0.595 3.84 100.7 -99999.99
1/21/2021 9:15:00 PM 7.36 45.248 0.595 4.15 100 -99999.99
1/21/2021 9:30:00 PM 7.36 45.248 0.596 4.07 99.3 -99999.99
1/21/2021 9:45:00 PM 7.36 45.248 0.596 4.11 98.8 -99999.99
1/21/2021 10:00:00 PM 7.36 45.248 0.597 3.9 98.2 -99999.99
1/21/2021 10:15:00 PM 7.37 45.266 0.597 3.99 97.5 -99999.99
1/21/2021 10:30:00 PM 7.37 45.266 0.597 3.95 96.9 -99999.99
1/21/2021 10:45:00 PM 7.38 45.284 0.597 4 96.3 -99999.99
1/21/2021 11:00:00 PM 7.4 45.32 0.598 4.01 95.6 -99999.99
1/21/2021 11:15:00 PM 7.41 45.338 0.598 4.1 95 -99999.99
1/21/2021 11:30:00 PM 7.42 45.356 0.599 4.4 94.4 -99999.99
1/21/2021 11:45:00 PM 7.43 45.374 0.599 4.21 93.9 -99999.99
1/22/2021 12:00:00 AM 7.45 45.41 0.599 4.12 93.5 -99999.99
1/22/2021 12:15:00 AM 7.46 45.428 0.6 4.05 93.2 -99999.99
1/22/2021 12:30:00 AM 7.48 45.464 0.6 4.01 92.9 -99999.99
1/22/2021 12:45:00 AM 7.49 45.482 0.601 4.11 92.7 -99999.99
1/22/2021 1:00:00 AM 7.5 45.5 0.602 4.36 92.5 -99999.99
1/22/2021 1:15:00 AM 7.51 45.518 0.602 4.15 92.2 -99999.99
1/22/2021 1:30:00 AM 7.52 45.536 0.602 4.41 92.1 -99999.99
1/22/2021 1:45:00 AM 7.52 45.536 0.603 4.47 91.9 -99999.99
1/22/2021 2:00:00 AM 7.52 45.536 0.603 4.31 91.6 -99999.99
1/22/2021 2:15:00 AM 7.52 45.536 0.603 4.54 91.3 -99999.99
1/22/2021 2:30:00 AM 7.51 45.518 0.603 4.41 91.2 -99999.99
1/22/2021 2:45:00 AM 7.5 45.5 0.603 5.51 90.9 -99999.99
1/22/2021 3:00:00 AM 7.48 45.464 0.603 4.71 90.8 -99999.99
1/22/2021 3:15:00 AM 7.46 45.428 0.603 4.49 90.5 -99999.99
1/22/2021 3:30:00 AM 7.44 45.392 0.603 5.21 90.4 -99999.99
1/22/2021 3:45:00 AM 7.42 45.356 0.603 5.15 90.3 -99999.99
1/22/2021 4:00:00 AM 7.39 45.302 0.603 5.25 90.2 -99999.99
1/22/2021 4:15:00 AM 7.38 45.284 0.603 4.77 90.1 -99999.99
1/22/2021 4:30:00 AM 7.36 45.248 0.603 6.2 90.1 -99999.99
1/22/2021 4:45:00 AM 7.34 45.212 0.603 5.45 90 -99999.99
1/22/2021 5:00:00 AM 7.33 45.194 0.602 4.98 89.9 -99999.99
1/22/2021 5:15:00 AM 7.32 45.176 0.602 5.1 90 -99999.99
1/22/2021 5:30:00 AM 7.3 45.14 0.602 5.41 89.9 -99999.99
1/22/2021 5:45:00 AM 7.27 45.086 0.601 5 89.9 -99999.99
1/22/2021 6:00:00 AM 7.25 45.05 0.601 5.35 89.9 -99999.99
1/22/2021 6:15:00 AM 7.22 44.996 0.601 5.59 89.9 -99999.99
1/22/2021 6:30:00 AM 7.2 44.96 0.601 5.09 89.9 -99999.99
1/22/2021 6:45:00 AM 7.18 44.924 0.6 5.39 89.6 -99999.99
1/22/2021 7:00:00 AM 7.17 44.906 0.6 4.79 89.8 -99999.99
1/22/2021 7:15:00 AM 7.15 44.87 0.6 4.5 89.7 -99999.99
1/22/2021 7:30:00 AM 7.13 44.834 0.599 4.4 89.7 -99999.99
1/22/2021 7:45:00 AM 7.11 44.798 0.599 4.44 89.7 -99999.99
1/22/2021 8:00:00 AM 7.09 44.762 0.599 4.5 89.9 -99999.99
1/22/2021 8:15:00 AM 7.08 44.744 0.599 4.28 90.4 -99999.99
1/22/2021 8:30:00 AM 7.08 44.744 0.598 4.46 91.3 -99999.99
1/22/2021 8:45:00 AM 7.09 44.762 0.598 4.37 92.7 -99999.99
1/22/2021 9:00:00 AM 7.11 44.798 0.597 4.26 94.5 -99999.99
1/22/2021 9:15:00 AM 7.14 44.852 0.596 4.22 96.8 -99999.99
1/22/2021 9:30:00 AM 7.19 44.942 0.596 4.38 99.3 -99999.99
1/22/2021 9:45:00 AM 7.23 45.014 0.596 4.06 101.4 -99999.99
1/22/2021 10:00:00 AM 7.28 45.104 0.595 4.29 103.5 -99999.99
1/22/2021 10:15:00 AM 7.33 45.194 0.595 4.24 105.5 -99999.99
1/22/2021 10:30:00 AM 7.36 45.248 0.595 4.18 107.2 -99999.99
1/22/2021 10:45:00 AM 7.39 45.302 0.6 4.14 109.7 -99999.99
1/22/2021 11:00:00 AM 7.4 45.32 0.605 4.22 112.2 -99999.99
1/22/2021 11:15:00 AM 7.4 45.32 0.608 4.25 113.8 -99999.99
1/22/2021 11:30:00 AM 7.39 45.302 0.609 4.37 113.6 -99999.99
1/22/2021 11:45:00 AM 7.39 45.302 0.609 4.82 113.7 -99999.99
1/22/2021 12:00:00 PM 7.39 45.302 0.609 5.02 114.2 -99999.99
1/22/2021 12:15:00 PM 7.4 45.32 0.608 4.51 115.5 -99999.99
1/22/2021 12:30:00 PM 7.43 45.374 0.608 4.52 117.4 -99999.99
1/22/2021 12:45:00 PM 7.43 45.374 0.607 4.41 118.4 -99999.99
1/22/2021 1:00:00 PM 7.46 45.428 0.607 4.55 119.1 -99999.99
1/22/2021 1:15:00 PM 7.5 45.5 0.606 4.63 120.1 -99999.99
1/22/2021 1:30:00 PM 7.55 45.59 0.606 5.33 121.3 -99999.99
1/22/2021 1:45:00 PM 7.59 45.662 0.605 4.49 122.5 -99999.99
1/22/2021 2:00:00 PM 7.61 45.698 0.605 4.59 122.8 -99999.99
1/22/2021 2:15:00 PM 7.6 45.68 0.603 4.41 122 -99999.99
1/22/2021 2:30:00 PM 7.61 45.698 0.601 4.27 122.1 -99999.99
1/22/2021 2:45:00 PM 7.57 45.626 0.599 4.26 121.2 -99999.99
1/22/2021 3:00:00 PM 7.55 45.59 0.596 4.47 120.1 -99999.99
1/22/2021 3:15:00 PM 7.54 45.572 0.594 5.33 118.5 -99999.99
1/22/2021 3:30:00 PM 7.54 45.572 0.592 5.23 116.5 -99999.99
1/22/2021 3:45:00 PM 7.55 45.59 0.591 4.99 115.5 -99999.99
1/22/2021 4:00:00 PM 7.58 45.644 0.59 4.94 114.8 -99999.99
1/22/2021 4:15:00 PM 7.6 45.68 0.589 4.95 114.4 -99999.99
1/22/2021 4:30:00 PM 7.61 45.698 0.589 4.92 113.9 -99999.99
1/22/2021 4:45:00 PM 7.63 45.734 0.589 4.78 113.2 -99999.99
1/22/2021 5:00:00 PM 7.64 45.752 0.589 5.04 111.8 -99999.99
1/22/2021 5:15:00 PM 7.63 45.734 0.59 5.1 111.1 -99999.99
1/22/2021 5:30:00 PM 7.59 45.662 0.592 4.95 110.1 -99999.99
1/22/2021 5:45:00 PM 7.56 45.608 0.592 4.95 108.7 -99999.99
1/22/2021 6:00:00 PM 7.54 45.572 0.591 4.92 107.5 -99999.99
1/22/2021 6:15:00 PM 7.52 45.536 0.591 4.97 106.2 -99999.99
1/22/2021 6:30:00 PM 7.51 45.518 0.59 12.26 105 -99999.99
1/22/2021 6:45:00 PM 7.49 45.482 0.589 4.99 104.2 -99999.99
1/22/2021 7:00:00 PM 7.49 45.482 0.589 5.05 103.3 -99999.99
1/22/2021 7:15:00 PM 7.49 45.482 0.589 5.1 102.7 -99999.99
1/22/2021 7:30:00 PM 7.48 45.464 0.589 4.96 101.9 -99999.99
1/22/2021 7:45:00 PM 7.48 45.464 0.589 5.09 100.9 -99999.99
1/22/2021 8:00:00 PM 7.48 45.464 0.589 4.78 100.2 -99999.99
1/22/2021 8:15:00 PM 7.48 45.464 0.59 4.62 99.3 -99999.99
1/22/2021 8:30:00 PM 7.48 45.464 0.59 4.86 98.7 -99999.99
1/22/2021 8:45:00 PM 7.48 45.464 0.59 4.71 97.8 -99999.99
1/22/2021 9:00:00 PM 7.47 45.446 0.591 4.78 97.5 -99999.99
1/22/2021 9:15:00 PM 7.47 45.446 0.591 5.07 97 -99999.99
1/22/2021 9:30:00 PM 7.47 45.446 0.591 6 96.7 -99999.99
1/22/2021 9:45:00 PM 7.47 45.446 0.591 5.17 96.6 -99999.99
1/22/2021 10:00:00 PM 7.47 45.446 0.591 5.05 96.3 -99999.99
1/22/2021 10:15:00 PM 7.46 45.428 0.592 5.6 96 -99999.99
1/22/2021 10:30:00 PM 7.43 45.374 0.592 5.28 95.7 -99999.99
1/22/2021 10:45:00 PM 7.42 45.356 0.592 5.08 95.3 -99999.99
1/22/2021 11:00:00 PM 7.4 45.32 0.593 5.68 94.7 -99999.99
1/22/2021 11:15:00 PM 7.39 45.302 0.593 5.64 94.6 -99999.99
1/22/2021 11:30:00 PM 7.36 45.248 0.594 5.39 94 -99999.99
1/22/2021 11:45:00 PM 7.3 45.14 0.597 5.16 93.4 -99999.99
1/23/2021 12:00:00 AM 7.27 45.086 0.597 5.35 93.2 -99999.99
1/23/2021 12:15:00 AM 7.25 45.05 0.597 6.26 92.9 -99999.99
1/23/2021 12:30:00 AM 7.24 45.032 0.596 5.4 92.7 -99999.99
1/23/2021 12:45:00 AM 7.22 44.996 0.595 5.66 92.4 -99999.99
1/23/2021 1:00:00 AM 7.22 44.996 0.594 5.58 92.2 -99999.99
1/23/2021 1:15:00 AM 7.2 44.96 0.594 5.22 92.1 -99999.99
1/23/2021 1:30:00 AM 7.2 44.96 0.594 5.3 91.8 -99999.99
1/23/2021 1:45:00 AM 7.19 44.942 0.594 5.75 91.7 -99999.99
1/23/2021 2:00:00 AM 7.17 44.906 0.594 5.39 91.6 -99999.99
1/23/2021 2:15:00 AM 7.15 44.87 0.594 5.14 91.5 -99999.99
1/23/2021 2:30:00 AM 7.14 44.852 0.594 5.39 91.4 -99999.99
1/23/2021 2:45:00 AM 7.12 44.816 0.594 5.36 91.2 -99999.99
1/23/2021 3:00:00 AM 7.11 44.798 0.594 5.18 91.1 -99999.99
1/23/2021 3:15:00 AM 7.09 44.762 0.594 5.47 91.2 -99999.99
1/23/2021 3:30:00 AM 7.08 44.744 0.594 5.29 91.1 -99999.99
1/23/2021 3:45:00 AM 7.06 44.708 0.594 5.72 91.1 -99999.99
1/23/2021 4:00:00 AM 7.04 44.672 0.594 5.6 90.9 -99999.99
1/23/2021 4:15:00 AM 7.01 44.618 0.595 6.14 90.9 -99999.99
1/23/2021 4:30:00 AM 6.99 44.582 0.595 6.32 90.8 -99999.99
1/23/2021 4:45:00 AM 6.95 44.51 0.595 6.72 90.9 -99999.99
1/23/2021 5:00:00 AM 6.91 44.438 0.595 6.69 90.7 -99999.99
1/23/2021 5:15:00 AM 6.88 44.384 0.595 6.87 90.8 -99999.99
1/23/2021 5:30:00 AM 6.85 44.33 0.595 6.24 90.7 -99999.99
1/23/2021 5:45:00 AM 6.81 44.258 0.595 6.42 90.7 -99999.99
1/23/2021 6:00:00 AM 6.78 44.204 0.595 7.26 90.9 -99999.99
1/23/2021 6:15:00 AM 6.71 44.078 0.596 6.37 90.7 -99999.99
1/23/2021 6:30:00 AM 6.61 43.898 0.599 6.34 90.5 -99999.99
1/23/2021 6:45:00 AM 6.56 43.808 0.599 6.95 90.3 -99999.99
1/23/2021 7:00:00 AM 6.54 43.772 0.599 5.9 90.6 -99999.99
1/23/2021 7:15:00 AM 6.52 43.736 0.598 6.16 90.7 -99999.99
1/23/2021 7:30:00 AM 6.49 43.682 0.598 6.11 90.9 -99999.99
1/23/2021 7:45:00 AM 6.46 43.628 0.598 6.1 91.1 -99999.99
1/23/2021 8:00:00 AM 6.44 43.592 0.597 5.84 91.8 -99999.99
1/23/2021 8:15:00 AM 6.4 43.52 0.597 5.84 92.8 -99999.99
1/23/2021 8:30:00 AM 6.38 43.484 0.597 6.08 93.9 -99999.99
1/23/2021 8:45:00 AM 6.34 43.412 0.597 5.7 95.1 -99999.99
1/23/2021 9:00:00 AM 6.33 43.394 0.597 5.52 96.8 -99999.99
1/23/2021 9:15:00 AM 6.31 43.358 0.597 5.56 98.7 -99999.99
1/23/2021 9:30:00 AM 6.3 43.34 0.597 5.44 100.8 -99999.99
1/23/2021 9:45:00 AM 6.32 43.376 0.596 5.5 103.1 -99999.99
1/23/2021 10:00:00 AM 6.33 43.394 0.596 5.63 105.7 -99999.99
1/23/2021 10:15:00 AM 6.38 43.484 0.595 5.47 107.9 -99999.99
1/23/2021 10:30:00 AM 6.41 43.538 0.595 5.52 109.6 -99999.99
1/23/2021 10:45:00 AM 6.42 43.556 0.595 5.55 110.9 -99999.99
1/23/2021 11:00:00 AM 6.42 43.556 0.595 5.54 112.2 -99999.99
1/23/2021 11:15:00 AM 6.43 43.574 0.594 5.45 113.6 -99999.99
1/23/2021 11:30:00 AM 6.43 43.574 0.594 5.56 114.4 -99999.99
1/23/2021 11:45:00 AM 6.42 43.556 0.594 5.31 115.1 -99999.99
1/23/2021 12:00:00 PM 6.41 43.538 0.594 5.58 116.2 -99999.99
1/23/2021 12:15:00 PM 6.43 43.574 0.593 5.54 117.5 -99999.99
1/23/2021 12:30:00 PM 6.44 43.592 0.593 5.47 118.8 -99999.99
1/23/2021 12:45:00 PM 6.47 43.646 0.592 5.41 120.4 -99999.99
1/23/2021 1:00:00 PM 6.52 43.736 0.592 5.46 122.4 -99999.99
1/23/2021 1:15:00 PM 6.52 43.736 0.592 5.41 123.6 -99999.99
1/23/2021 1:30:00 PM 6.49 43.682 0.594 5.38 124.4 -99999.99
1/23/2021 1:45:00 PM 6.49 43.682 0.595 5.22 125.3 -99999.99
1/23/2021 2:00:00 PM 6.54 43.772 0.595 5.36 126.1 -99999.99
1/23/2021 2:15:00 PM 6.57 43.826 0.594 5.44 127.3 -99999.99
1/23/2021 2:30:00 PM 6.58 43.844 0.593 5.43 128 -99999.99
1/23/2021 2:45:00 PM 6.6 43.88 0.592 5.28 128.1 -99999.99
1/23/2021 3:00:00 PM 6.6 43.88 0.591 5.37 128 -99999.99
1/23/2021 3:15:00 PM 6.63 43.934 0.59 5.3 128.7 -99999.99
1/23/2021 3:30:00 PM 6.6 43.88 0.59 5.19 128.7 -99999.99
1/23/2021 3:45:00 PM 6.58 43.844 0.59 5.34 128.1 -99999.99
1/23/2021 4:00:00 PM 6.58 43.844 0.59 5.24 127.2 -99999.99
1/23/2021 4:15:00 PM 6.55 43.79 0.59 5.65 125.8 -99999.99
1/23/2021 4:30:00 PM 6.53 43.754 0.59 5.23 124.7 -99999.99
1/23/2021 4:45:00 PM 6.51 43.718 0.59 5.39 122.7 -99999.99
1/23/2021 5:00:00 PM 6.5 43.7 0.59 5.48 121.2 -99999.99
1/23/2021 5:15:00 PM 6.49 43.682 0.59 5.41 119.2 -99999.99
1/23/2021 5:30:00 PM 6.46 43.628 0.591 5.32 117.1 -99999.99
1/23/2021 5:45:00 PM 6.45 43.61 0.591 5.48 115.4 -99999.99
1/23/2021 6:00:00 PM 6.43 43.574 0.591 5.94 114 -99999.99
1/23/2021 6:15:00 PM 6.4 43.52 0.591 5.6 112.7 -99999.99
1/23/2021 6:30:00 PM 6.39 43.502 0.591 5.49 111.6 -99999.99
1/23/2021 6:45:00 PM 6.38 43.484 0.591 5.46 110.8 -99999.99
1/23/2021 7:00:00 PM 6.36 43.448 0.591 5.45 110 -99999.99
1/23/2021 7:15:00 PM 6.35 43.43 0.591 5.65 109.2 -99999.99
1/23/2021 7:30:00 PM 6.35 43.43 0.591 5.44 108.4 -99999.99
1/23/2021 7:45:00 PM 6.34 43.412 0.591 5.68 107.8 -99999.99
1/23/2021 8:00:00 PM 6.28 43.304 0.594 5.58 107.1 -99999.99
1/23/2021 8:15:00 PM 6.22 43.196 0.596 5.68 106.4 -99999.99
1/23/2021 8:30:00 PM 6.2 43.16 0.596 5.35 105.5 -99999.99
1/23/2021 8:45:00 PM 6.18 43.124 0.595 5.49 104.9 -99999.99
1/23/2021 9:00:00 PM 6.17 43.106 0.594 5.56 104.1 -99999.99
1/23/2021 9:15:00 PM 6.16 43.088 0.594 5.62 103.7 -99999.99
1/23/2021 9:30:00 PM 6.15 43.07 0.593 5.74 103.1 -99999.99
1/23/2021 9:45:00 PM 6.13 43.034 0.593 5.56 102.4 -99999.99
1/23/2021 10:00:00 PM 6.1 42.98 0.593 5.98 101.9 -99999.99
1/23/2021 10:15:00 PM 6.07 42.926 0.593 5.67 101.2 -99999.99
1/23/2021 10:30:00 PM 6.05 42.89 0.593 5.72 100.7 -99999.99
1/23/2021 10:45:00 PM 6.01 42.818 0.593 5.29 100 -99999.99
1/23/2021 11:00:00 PM 6 42.8 0.594 5.61 99.5 -99999.99
1/23/2021 11:15:00 PM 5.99 42.782 0.594 5.87 98.7 -99999.99
1/23/2021 11:30:00 PM 5.97 42.746 0.594 4.86 98.1 -99999.99
1/23/2021 11:45:00 PM 5.96 42.728 0.594 4.74 97.5 -99999.99
1/24/2021 12:00:00 AM 5.95 42.71 0.594 4.74 97.2 -99999.99
1/24/2021 12:15:00 AM 5.95 42.71 0.595 5.05 96.7 -99999.99
1/24/2021 12:30:00 AM 5.94 42.692 0.595 4.82 96.3 -99999.99
1/24/2021 12:45:00 AM 5.93 42.674 0.595 4.96 96 -99999.99
1/24/2021 1:00:00 AM 5.93 42.674 0.596 4.87 95.5 -99999.99
1/24/2021 1:15:00 AM 5.93 42.674 0.596 4.88 95.3 -99999.99
1/24/2021 1:30:00 AM 5.93 42.674 0.597 4.88 95.3 -99999.99
1/24/2021 1:45:00 AM 5.93 42.674 0.597 4.67 94.8 -99999.99
1/24/2021 2:00:00 AM 5.93 42.674 0.598 4.8 94.8 -99999.99
1/24/2021 2:15:00 AM 5.94 42.692 0.598 5.22 94.8 -99999.99
1/24/2021 2:30:00 AM 5.9 42.62 0.6 4.93 94.4 -99999.99
1/24/2021 2:45:00 AM 5.81 42.458 0.603 4.96 94 -99999.99
1/24/2021 3:00:00 AM 5.77 42.386 0.604 5.48 93.9 -99999.99
1/24/2021 3:15:00 AM 5.74 42.332 0.603 5.24 93.9 -99999.99
1/24/2021 3:30:00 AM 5.71 42.278 0.602 5.28 93.7 -99999.99
1/24/2021 3:45:00 AM 5.66 42.188 0.602 5.11 93.6 -99999.99
1/24/2021 4:00:00 AM 5.61 42.098 0.601 5.68 93.5 -99999.99
1/24/2021 4:15:00 AM 5.58 42.044 0.601 5.22 93.3 -99999.99
1/24/2021 4:30:00 AM 5.54 41.972 0.6 5.42 93.2 -99999.99
1/24/2021 4:45:00 AM 5.51 41.918 0.6 5.55 93.1 -99999.99
1/24/2021 5:00:00 AM 5.48 41.864 0.6 5.29 93 -99999.99
1/24/2021 5:15:00 AM 5.45 41.81 0.6 5.45 93 -99999.99
1/24/2021 5:30:00 AM 5.42 41.756 0.6 5.62 93 -99999.99
1/24/2021 5:45:00 AM 5.41 41.738 0.6 5.76 92.9 -99999.99
1/24/2021 6:00:00 AM 5.38 41.684 0.6 5.74 92.7 -99999.99
1/24/2021 6:15:00 AM 5.37 41.666 0.6 6.04 92.7 -99999.99
1/24/2021 6:30:00 AM 5.34 41.612 0.6 5.62 92.7 -99999.99
1/24/2021 6:45:00 AM 5.32 41.576 0.6 5.63 92.7 -99999.99
1/24/2021 7:00:00 AM 5.31 41.558 0.6 5.63 92.6 -99999.99
1/24/2021 7:15:00 AM 5.29 41.522 0.6 5.48 92.6 -99999.99
1/24/2021 7:30:00 AM 5.28 41.504 0.6 5.49 92.6 -99999.99
1/24/2021 7:45:00 AM 5.26 41.468 0.6 5.31 93.1 -99999.99
1/24/2021 8:00:00 AM 5.26 41.468 0.6 5.47 93.7 -99999.99
1/24/2021 8:15:00 AM 5.25 41.45 0.6 5.41 94.7 -99999.99
1/24/2021 8:30:00 AM 5.24 41.432 0.6 5.31 95.9 -99999.99
1/24/2021 8:45:00 AM 5.25 41.45 0.6 5.3 97.3 -99999.99
1/24/2021 9:00:00 AM 5.25 41.45 0.6 5.49 99 -99999.99
1/24/2021 9:15:00 AM 5.26 41.468 0.6 5.32 100.9 -99999.99
1/24/2021 9:30:00 AM 5.3 41.54 0.599 5.45 103.5 -99999.99
1/24/2021 9:45:00 AM 5.34 41.612 0.598 5.46 106 -99999.99
1/24/2021 10:00:00 AM 5.32 41.576 0.601 5.4 107.9 -99999.99
1/24/2021 10:15:00 AM 5.33 41.594 0.602 5.46 110 -99999.99
1/24/2021 10:30:00 AM 5.39 41.702 0.602 5.37 112.4 -99999.99
1/24/2021 10:45:00 AM 5.48 41.864 0.601 5.47 114.5 -99999.99
1/24/2021 11:00:00 AM 5.6 42.08 0.6 5.49 117.4 -99999.99
1/24/2021 11:15:00 AM 5.67 42.206 0.599 5.53 119.5 -99999.99
1/24/2021 11:30:00 AM 5.77 42.386 0.599 5.42 121.7 -99999.99
1/24/2021 11:45:00 AM 5.84 42.512 0.598 5.47 123.3 -99999.99
1/24/2021 12:00:00 PM 5.93 42.674 0.597 5.39 124.7 -99999.99
1/24/2021 12:15:00 PM 5.99 42.782 0.596 5.47 125.7 -99999.99
1/24/2021 12:30:00 PM 6.06 42.908 0.596 5.59 127 -99999.99
1/24/2021 12:45:00 PM 6.15 43.07 0.595 5.47 128.2 -99999.99
1/24/2021 1:00:00 PM 6.21 43.178 0.595 5.28 129 -99999.99
1/24/2021 1:15:00 PM 6.26 43.268 0.594 5.46 130 -99999.99
1/24/2021 1:30:00 PM 6.29 43.322 0.594 5.51 130 -99999.99
1/24/2021 1:45:00 PM 6.32 43.376 0.594 5.62 130.5 -99999.99
1/24/2021 2:00:00 PM 6.34 43.412 0.593 5.4 130.7 -99999.99
1/24/2021 2:15:00 PM 6.37 43.466 0.593 5.09 130.9 -99999.99
1/24/2021 2:30:00 PM 6.37 43.466 0.593 5.99 130.7 -99999.99
1/24/2021 2:45:00 PM 6.39 43.502 0.593 5.44 130.6 -99999.99
1/24/2021 3:00:00 PM 6.37 43.466 0.593 5.23 129.9 -99999.99
1/24/2021 3:15:00 PM 6.38 43.484 0.593 5.21 129.7 -99999.99
1/24/2021 3:30:00 PM 6.37 43.466 0.592 5.18 129.1 -99999.99
1/24/2021 3:45:00 PM 6.38 43.484 0.592 5.09 128.3 -99999.99
1/24/2021 4:00:00 PM 6.34 43.412 0.593 5.06 127.5 -99999.99
1/24/2021 4:15:00 PM 6.26 43.268 0.596 5.06 125.6 -99999.99
1/24/2021 4:30:00 PM 6.21 43.178 0.597 4.87 123.4 -99999.99
1/24/2021 4:45:00 PM 6.2 43.16 0.596 5.23 121.6 -99999.99
1/24/2021 5:00:00 PM 6.19 43.142 0.595 5.14 119.7 -99999.99
1/24/2021 5:15:00 PM 6.19 43.142 0.595 5.57 117.8 -99999.99
1/24/2021 5:30:00 PM 6.19 43.142 0.594 5.26 115.9 -99999.99
1/24/2021 5:45:00 PM 6.21 43.178 0.594 5.7 114.5 -99999.99
1/24/2021 6:00:00 PM 6.23 43.214 0.594 5.36 113 -99999.99
1/24/2021 6:15:00 PM 6.25 43.25 0.593 5.35 111.8 -99999.99
1/24/2021 6:30:00 PM 6.26 43.268 0.593 5.48 110.6 -99999.99
1/24/2021 6:45:00 PM 6.27 43.286 0.594 5.41 109.6 -99999.99
1/24/2021 7:00:00 PM 6.28 43.304 0.593 5.72 108.9 -99999.99
1/24/2021 7:15:00 PM 6.28 43.304 0.593 5.93 107.9 -99999.99
1/24/2021 7:30:00 PM 6.29 43.322 0.593 5.7 107 -99999.99
1/24/2021 7:45:00 PM 6.3 43.34 0.593 5.56 106.1 -99999.99
1/24/2021 8:00:00 PM 6.32 43.376 0.593 5.46 105.4 -99999.99
1/24/2021 8:15:00 PM 6.33 43.394 0.593 5.71 104.7 -99999.99
1/24/2021 8:30:00 PM 6.35 43.43 0.593 5.18 103.8 -99999.99
1/24/2021 8:45:00 PM 6.36 43.448 0.592 6.1 103.3 -99999.99
1/24/2021 9:00:00 PM 6.36 43.448 0.593 6.31 102.7 -99999.99
1/24/2021 9:15:00 PM 6.36 43.448 0.593 6.18 101.9 -99999.99
1/24/2021 9:30:00 PM 6.37 43.466 0.593 5.57 101.4 -99999.99
1/24/2021 9:45:00 PM 6.37 43.466 0.593 6.12 100.6 -99999.99
1/24/2021 10:00:00 PM 6.38 43.484 0.593 6.09 100.1 -99999.99
1/24/2021 10:15:00 PM 6.39 43.502 0.594 6.5 99.6 -99999.99
1/24/2021 10:30:00 PM 6.39 43.502 0.594 6.41 99 -99999.99
1/24/2021 10:45:00 PM 6.4 43.52 0.594 6.26 98.4 -99999.99
1/24/2021 11:00:00 PM 6.42 43.556 0.595 6.32 98.1 -99999.99
1/24/2021 11:15:00 PM 6.44 43.592 0.595 6.49 97.5 -99999.99
1/24/2021 11:30:00 PM 6.41 43.538 0.599 6.88 96.6 -99999.99
1/24/2021 11:45:00 PM 6.38 43.484 0.601 6.79 96.2 -99999.99
1/25/2021 12:00:00 AM 6.39 43.502 0.6 6.48 95.6 -99999.99
1/25/2021 12:15:00 AM 6.4 43.52 0.6 6.22 95.1 -99999.99
1/25/2021 12:30:00 AM 6.43 43.574 0.599 7.28 94.6 -99999.99
1/25/2021 12:45:00 AM 6.45 43.61 0.598 6.45 94.1 -99999.99
1/25/2021 1:00:00 AM 6.47 43.646 0.598 6.56 93.6 -99999.99
1/25/2021 1:15:00 AM 6.49 43.682 0.598 6.74 93.2 -99999.99
1/25/2021 1:30:00 AM 6.51 43.718 0.598 6.8 93 -99999.99
1/25/2021 1:45:00 AM 6.53 43.754 0.598 6.77 92.5 -99999.99
1/25/2021 2:00:00 AM 6.54 43.772 0.598 6.54 92.3 -99999.99
1/25/2021 2:15:00 AM 6.55 43.79 0.598 6.81 91.9 -99999.99
1/25/2021 2:30:00 AM 6.57 43.826 0.599 6.8 91.8 -99999.99
1/25/2021 2:45:00 AM 6.57 43.826 0.599 6.65 91.5 -99999.99
1/25/2021 3:00:00 AM 6.58 43.844 0.599 6.75 91.2 -99999.99
1/25/2021 3:15:00 AM 6.58 43.844 0.599 7.03 91.2 -99999.99
1/25/2021 3:30:00 AM 6.59 43.862 0.599 7.17 91 -99999.99
1/25/2021 3:45:00 AM 6.6 43.88 0.599 7.2 90.8 -99999.99
1/25/2021 4:00:00 AM 6.61 43.898 0.599 6.97 90.7 -99999.99
1/25/2021 4:15:00 AM 6.62 43.916 0.599 7.07 90.5 -99999.99
1/25/2021 4:30:00 AM 6.62 43.916 0.599 7.14 90.2 -99999.99
1/25/2021 4:45:00 AM 6.63 43.934 0.599 7.54 90 -99999.99
1/25/2021 5:00:00 AM 6.64 43.952 0.599 7.7 89.9 -99999.99
1/25/2021 5:15:00 AM 6.65 43.97 0.599 7.94 89.7 -99999.99
1/25/2021 5:30:00 AM 6.66 43.988 0.599 7.4 89.7 -99999.99
1/25/2021 5:45:00 AM 6.67 44.006 0.599 7.34 89.7 -99999.99
1/25/2021 6:00:00 AM 6.68 44.024 0.598 7.46 89.9 -99999.99
1/25/2021 6:15:00 AM 6.67 44.006 0.6 7.97 89.7 -99999.99
1/25/2021 6:30:00 AM 6.63 43.934 0.603 7.08 89.4 -99999.99
1/25/2021 6:45:00 AM 6.61 43.898 0.604 7.56 89.2 -99999.99
1/25/2021 7:00:00 AM 6.62 43.916 0.602 7.49 89.3 -99999.99
1/25/2021 7:15:00 AM 6.64 43.952 0.601 7.43 89.3 -99999.99
1/25/2021 7:30:00 AM 6.65 43.97 0.601 7.28 89.4 -99999.99
1/25/2021 7:45:00 AM 6.65 43.97 0.6 7.32 89.6 -99999.99
1/25/2021 8:00:00 AM 6.66 43.988 0.6 7.19 89.9 -99999.99
1/25/2021 8:15:00 AM 6.66 43.988 0.6 7 90.4 -99999.99
1/25/2021 8:30:00 AM 6.66 43.988 0.599 7.07 91 -99999.99
1/25/2021 8:45:00 AM 6.66 43.988 0.599 7.03 91.5 -99999.99
1/25/2021 9:00:00 AM 6.65 43.97 0.6 6.99 92.4 -99999.99
1/25/2021 9:15:00 AM 6.64 43.952 0.6 6.87 93.1 -99999.99
1/25/2021 9:30:00 AM 6.64 43.952 0.6 6.81 94.2 -99999.99
1/25/2021 9:45:00 AM 6.64 43.952 0.6 7.09 95.7 -99999.99
1/25/2021 10:00:00 AM 6.65 43.97 0.599 7.06 97.5 -99999.99
1/25/2021 10:15:00 AM 6.67 44.006 0.599 6.72 99.4 -99999.99
1/25/2021 10:30:00 AM 6.69 44.042 0.599 6.32 101.8 -99999.99
1/25/2021 10:45:00 AM 6.71 44.078 0.599 6.92 104.5 -99999.99
1/25/2021 11:00:00 AM 6.74 44.132 0.599 6.55 106.3 -99999.99
1/25/2021 11:15:00 AM 6.78 44.204 0.598 6.79 109.3 -99999.99
1/25/2021 11:30:00 AM 6.83 44.294 0.598 6.88 111.3 -99999.99
1/25/2021 11:45:00 AM 6.87 44.366 0.597 6.84 113.8 -99999.99
1/25/2021 12:00:00 PM 6.92 44.456 0.596 6.95 115.8 -99999.99
1/25/2021 12:15:00 PM 6.98 44.564 0.595 6.92 117.7 -99999.99
1/25/2021 12:30:00 PM 7.02 44.636 0.594 7 118.8 -99999.99
1/25/2021 12:45:00 PM 7.06 44.708 0.594 7.1 120.1 -99999.99
1/25/2021 1:00:00 PM 7.1 44.78 0.593 6.97 121.1 -99999.99
1/25/2021 1:15:00 PM 7.16 44.888 0.593 7.22 123.3 -99999.99
1/25/2021 1:30:00 PM 7.21 44.978 0.592 7.06 124.8 -99999.99
1/25/2021 1:45:00 PM 7.23 45.014 0.592 7.19 126 -99999.99
1/25/2021 2:00:00 PM 7.23 45.014 0.595 7.05 126.7 -99999.99
1/25/2021 2:15:00 PM 7.22 44.996 0.598 7.26 127.1 -99999.99
1/25/2021 2:30:00 PM 7.24 45.032 0.598 7.61 127.4 -99999.99
1/25/2021 2:45:00 PM 7.26 45.068 0.596 7.49 127.4 -99999.99
1/25/2021 3:00:00 PM 7.28 45.104 0.595 7.61 127.1 -99999.99
1/25/2021 3:15:00 PM 7.29 45.122 0.594 7.5 126.3 -99999.99
1/25/2021 3:30:00 PM 7.31 45.158 0.593 7.64 125.2 -99999.99
1/25/2021 3:45:00 PM 7.31 45.158 0.593 7.59 124.4 -99999.99
1/25/2021 4:00:00 PM 7.31 45.158 0.592 7.57 123.1 -99999.99
1/25/2021 4:15:00 PM 7.3 45.14 0.592 7.97 121.2 -99999.99
1/25/2021 4:30:00 PM 7.3 45.14 0.593 7.9 119.2 -99999.99
1/25/2021 4:45:00 PM 7.29 45.122 0.593 7.81 116.8 -99999.99
1/25/2021 5:00:00 PM 7.28 45.104 0.593 7.93 114.5 -99999.99
1/25/2021 5:15:00 PM 7.29 45.122 0.593 7.71 112.2 -99999.99
1/25/2021 5:30:00 PM 7.29 45.122 0.593 7.6 110.3 -99999.99
1/25/2021 5:45:00 PM 7.3 45.14 0.593 8.2 108.3 -99999.99
1/25/2021 6:00:00 PM 7.31 45.158 0.592 8.36 107.4 -99999.99
1/25/2021 6:15:00 PM 7.31 45.158 0.592 8.27 107.2 -99999.99
1/25/2021 6:30:00 PM 7.31 45.158 0.592 7.92 106.6 -99999.99
1/25/2021 6:45:00 PM 7.3 45.14 0.593 7.99 105.8 -99999.99
1/25/2021 7:00:00 PM 7.3 45.14 0.593 7.87 105.1 -99999.99
1/25/2021 7:15:00 PM 7.3 45.14 0.592 7.99 104.2 -99999.99
1/25/2021 7:30:00 PM 7.29 45.122 0.593 7.83 103.5 -99999.99
1/25/2021 7:45:00 PM 7.29 45.122 0.593 7.73 102.8 -99999.99
1/25/2021 8:00:00 PM 7.29 45.122 0.593 7.98 102.2 -99999.99
1/25/2021 8:15:00 PM 7.29 45.122 0.593 8.25 101.7 -99999.99
1/25/2021 8:30:00 PM 7.29 45.122 0.593 8.25 101.2 -99999.99
1/25/2021 8:45:00 PM 7.25 45.05 0.597 7.86 100.3 -99999.99
1/25/2021 9:00:00 PM 7.23 45.014 0.598 8.04 99.6 -99999.99
1/25/2021 9:15:00 PM 7.23 45.014 0.597 8.22 99 -99999.99
1/25/2021 9:30:00 PM 7.23 45.014 0.596 8.74 98.2 -99999.99
1/25/2021 9:45:00 PM 7.24 45.032 0.596 7.94 97.6 -99999.99
1/25/2021 10:00:00 PM 7.25 45.05 0.595 8.67 97.1 -99999.99
1/25/2021 10:15:00 PM 7.26 45.068 0.595 10.56 96.4 -99999.99
1/25/2021 10:30:00 PM 7.25 45.05 0.595 7.92 95.8 -99999.99
1/25/2021 10:45:00 PM 7.25 45.05 0.595 8.26 95.2 -99999.99
1/25/2021 11:00:00 PM 7.25 45.05 0.595 8.02 94.8 -99999.99
1/25/2021 11:15:00 PM 7.25 45.05 0.595 7.89 94 -99999.99
1/25/2021 11:30:00 PM 7.25 45.05 0.595 7.8 93.6 -99999.99
1/25/2021 11:45:00 PM 7.25 45.05 0.595 7.58 93.1 -99999.99
1/26/2021 12:00:00 AM 7.25 45.05 0.595 8.26 92.6 -99999.99
1/26/2021 12:15:00 AM 7.25 45.05 0.595 7.83 92.2 -99999.99
1/26/2021 12:30:00 AM 7.25 45.05 0.595 8.55 91.6 -99999.99
1/26/2021 12:45:00 AM 7.25 45.05 0.595 8.09 91.2 -99999.99
1/26/2021 1:00:00 AM 7.25 45.05 0.595 8.24 90.9 -99999.99
1/26/2021 1:15:00 AM 7.24 45.032 0.595 8.13 90.5 -99999.99
1/26/2021 1:30:00 AM 7.24 45.032 0.595 8.42 90.3 -99999.99
1/26/2021 1:45:00 AM 7.24 45.032 0.595 8.22 89.9 -99999.99
1/26/2021 2:00:00 AM 7.24 45.032 0.594 8.15 89.7 -99999.99
1/26/2021 2:15:00 AM 7.24 45.032 0.594 8.39 89.5 -99999.99
1/26/2021 2:30:00 AM 7.24 45.032 0.594 8.57 89.3 -99999.99
1/26/2021 2:45:00 AM 7.24 45.032 0.593 8.12 89.1 -99999.99
1/26/2021 3:00:00 AM 7.24 45.032 0.593 9.05 89.1 -99999.99
1/26/2021 3:15:00 AM 7.24 45.032 0.593 8.78 89.1 -99999.99
1/26/2021 3:30:00 AM 7.24 45.032 0.594 8.96 88.9 -99999.99
1/26/2021 3:45:00 AM 7.2 44.96 0.597 8.69 88.5 -99999.99
1/26/2021 4:00:00 AM 7.18 44.924 0.598 10.81 88.5 -99999.99
1/26/2021 4:15:00 AM 7.19 44.942 0.597 9.42 88.4 -99999.99
1/26/2021 4:30:00 AM 7.19 44.942 0.596 10.02 88.4 -99999.99
1/26/2021 4:45:00 AM 7.2 44.96 0.596 9.16 88.3 -99999.99
1/26/2021 5:00:00 AM 7.21 44.978 0.595 8.69 88.2 -99999.99
1/26/2021 5:15:00 AM 7.22 44.996 0.595 8.9 88.1 -99999.99
1/26/2021 5:30:00 AM 7.22 44.996 0.595 9.44 88 -99999.99
1/26/2021 5:45:00 AM 7.23 45.014 0.595 8.6 88 -99999.99
1/26/2021 6:00:00 AM 7.23 45.014 0.595 8.71 87.9 -99999.99
1/26/2021 6:15:00 AM 7.24 45.032 0.595 9.23 87.8 -99999.99
1/26/2021 6:30:00 AM 7.24 45.032 0.595 19.26 87.7 -99999.99
1/26/2021 6:45:00 AM 7.24 45.032 0.595 9.09 87.5 -99999.99
1/26/2021 7:00:00 AM 7.25 45.05 0.595 9.16 87.5 -99999.99
1/26/2021 7:15:00 AM 7.24 45.032 0.595 10.53 87.5 -99999.99
1/26/2021 7:30:00 AM 7.24 45.032 0.596 9.04 87.6 -99999.99
1/26/2021 7:45:00 AM 7.23 45.014 0.596 9.05 87.7 -99999.99
1/26/2021 8:00:00 AM 7.22 44.996 0.596 8.88 88.1 -99999.99
1/26/2021 8:15:00 AM 7.22 44.996 0.595 9.45 88.4 -99999.99
1/26/2021 8:30:00 AM 7.2 44.96 0.595 8.14 89 -99999.99
1/26/2021 8:45:00 AM 7.19 44.942 0.595 8.32 89.9 -99999.99
1/26/2021 9:00:00 AM 7.19 44.942 0.595 8.34 90.4 -99999.99
1/26/2021 9:15:00 AM 7.17 44.906 0.595 7.97 90.5 -99999.99
1/26/2021 9:30:00 AM 7.17 44.906 0.596 7.98 90.6 -99999.99
1/26/2021 9:45:00 AM 7.17 44.906 0.596 8.04 91.2 -99999.99
1/26/2021 10:00:00 AM 7.17 44.906 0.596 7.6 91.2 -99999.99
1/26/2021 10:15:00 AM 7.17 44.906 0.596 8.09 91.7 -99999.99
1/26/2021 10:30:00 AM 7.15 44.87 0.595 9.79 93 -99999.99
1/26/2021 10:45:00 AM 7.14 44.852 0.595 8.09 94.4 -99999.99
1/26/2021 11:00:00 AM 7.12 44.816 0.596 35.44 95.4 -99999.99
1/26/2021 11:15:00 AM 7.09 44.762 0.599 7.98 96.5 -99999.99
1/26/2021 11:30:00 AM 7.09 44.762 0.601 7.63 98 -99999.99
1/26/2021 11:45:00 AM 7.11 44.798 0.6 7.38 99.7 -99999.99
1/26/2021 12:00:00 PM 7.13 44.834 0.599 7.72 101.5 -99999.99
1/26/2021 12:15:00 PM 7.15 44.87 0.598 7.22 103.1 -99999.99
1/26/2021 12:30:00 PM 7.17 44.906 0.597 7.39 103.7 -99999.99
1/26/2021 12:45:00 PM 7.19 44.942 0.596 7.11 104.8 -99999.99
1/26/2021 1:00:00 PM 7.21 44.978 0.596 9.78 105.6 -99999.99
1/26/2021 1:15:00 PM 7.22 44.996 0.596 7.08 106 -99999.99
1/26/2021 1:30:00 PM 7.24 45.032 0.595 7.03 106.1 -99999.99
1/26/2021 1:45:00 PM 7.26 45.068 0.595 7.25 106.4 -99999.99
1/26/2021 2:00:00 PM 7.27 45.086 0.595 7.58 106 -99999.99
1/26/2021 2:15:00 PM 7.27 45.086 0.595 7.49 105.6 -99999.99
1/26/2021 2:30:00 PM 7.26 45.068 0.594 6.97 105.7 -99999.99
1/26/2021 2:45:00 PM 7.26 45.068 0.594 7.04 105.2 -99999.99
1/26/2021 3:00:00 PM 7.26 45.068 0.594 6.91 104.9 -99999.99
1/26/2021 3:15:00 PM 7.27 45.086 0.594 8.1 104.2 -99999.99
1/26/2021 3:30:00 PM 7.27 45.086 0.594 7.05 103.4 -99999.99
1/26/2021 3:45:00 PM 7.28 45.104 0.594 7.12 102.9 -99999.99
1/26/2021 4:00:00 PM 7.28 45.104 0.595 7.34 102.4 -99999.99
1/26/2021 4:15:00 PM 7.28 45.104 0.595 7.31 102.1 -99999.99
1/26/2021 4:30:00 PM 7.29 45.122 0.594 7.03 101.5 -99999.99
1/26/2021 4:45:00 PM 7.29 45.122 0.594 8.52 101.1 -99999.99
1/26/2021 5:00:00 PM 7.29 45.122 0.596 7.13 101.1 -99999.99
1/26/2021 5:15:00 PM 7.29 45.122 0.597 7.68 101.1 -99999.99
1/26/2021 5:30:00 PM 7.29 45.122 0.601 7.93 100.5 -99999.99
1/26/2021 5:45:00 PM 7.26 45.068 0.606 7.47 99.6 -99999.99
1/26/2021 6:00:00 PM 7.22 44.996 0.61 7.24 98.6 -99999.99
1/26/2021 6:15:00 PM 7.2 44.96 0.61 7.26 97.8 -99999.99
1/26/2021 6:30:00 PM 7.2 44.96 0.608 13.28 97 -99999.99
1/26/2021 6:45:00 PM 7.22 44.996 0.605 7.51 96.3 -99999.99
1/26/2021 7:00:00 PM 7.23 45.014 0.603 8.64 95.8 -99999.99
1/26/2021 7:15:00 PM 7.25 45.05 0.601 7.43 95.4 -99999.99
1/26/2021 7:30:00 PM 7.26 45.068 0.599 7.49 95.1 -99999.99
1/26/2021 7:45:00 PM 7.27 45.086 0.597 13.2 95 -99999.99
1/26/2021 8:00:00 PM 7.28 45.104 0.596 32.3 94.8 -99999.99
1/26/2021 8:15:00 PM 7.29 45.122 0.596 8.23 94.6 -99999.99
1/26/2021 8:30:00 PM 7.29 45.122 0.596 7.56 94.4 -99999.99
1/26/2021 8:45:00 PM 7.3 45.14 0.596 7.7 94.1 -99999.99
1/26/2021 9:00:00 PM 7.3 45.14 0.597 7.58 93.8 -99999.99
1/26/2021 9:15:00 PM 7.3 45.14 0.597 7.77 93.5 -99999.99
1/26/2021 9:30:00 PM 7.3 45.14 0.598 7.57 93.3 -99999.99
1/26/2021 9:45:00 PM 7.31 45.158 0.598 7.82 93 -99999.99
1/26/2021 10:00:00 PM 7.31 45.158 0.598 7.42 92.6 -99999.99
1/26/2021 10:15:00 PM 7.32 45.176 0.597 7.5 92.4 -99999.99
1/26/2021 10:30:00 PM 7.33 45.194 0.597 7.74 92 -99999.99
1/26/2021 10:45:00 PM 7.33 45.194 0.596 7.69 91.8 -99999.99
1/26/2021 11:00:00 PM 7.34 45.212 0.596 8.52 91.4 -99999.99
1/26/2021 11:15:00 PM 7.34 45.212 0.596 7.67 91.2 -99999.99
1/26/2021 11:30:00 PM 7.35 45.23 0.595 7.88 91.1 -99999.99
1/26/2021 11:45:00 PM 7.37 45.266 0.595 8.12 91.1 -99999.99
1/27/2021 12:00:00 AM 7.38 45.284 0.594 7.54 91.2 -99999.99
1/27/2021 12:15:00 AM 7.37 45.266 0.597 7.4 90.9 -99999.99
1/27/2021 12:30:00 AM 7.34 45.212 0.599 7.52 90.7 -99999.99
1/27/2021 12:45:00 AM 7.33 45.194 0.6 7.6 90.6 -99999.99
1/27/2021 1:00:00 AM 7.34 45.212 0.598 7.72 90.7 -99999.99
1/27/2021 1:15:00 AM 7.36 45.248 0.597 7.73 90.5 -99999.99
1/27/2021 1:30:00 AM 7.37 45.266 0.596 7.17 90.3 -99999.99
1/27/2021 1:45:00 AM 7.39 45.302 0.596 7.83 90.4 -99999.99
1/27/2021 2:00:00 AM 7.4 45.32 0.595 8 90.2 -99999.99
1/27/2021 2:15:00 AM 7.41 45.338 0.595 7.42 90.2 -99999.99
1/27/2021 2:30:00 AM 7.42 45.356 0.595 7.6 90.3 -99999.99
1/27/2021 2:45:00 AM 7.42 45.356 0.595 9.22 90 -99999.99
1/27/2021 3:00:00 AM 7.42 45.356 0.595 8.17 90.1 -99999.99
1/27/2021 3:15:00 AM 7.43 45.374 0.596 7.79 90.1 -99999.99
1/27/2021 3:30:00 AM 7.43 45.374 0.596 7.76 90 -99999.99
1/27/2021 3:45:00 AM 7.43 45.374 0.598 7.67 90 -99999.99
1/27/2021 4:00:00 AM 7.43 45.374 0.6 7.83 90 -99999.99
1/27/2021 4:15:00 AM 7.43 45.374 0.603 7.84 89.9 -99999.99
1/27/2021 4:30:00 AM 7.43 45.374 0.607 8.57 89.9 -99999.99
1/27/2021 4:45:00 AM 7.43 45.374 0.611 7.81 89.9 -99999.99
1/27/2021 5:00:00 AM 7.43 45.374 0.614 7.86 90 -99999.99
1/27/2021 5:15:00 AM 7.43 45.374 0.617 7.49 89.9 -99999.99
1/27/2021 5:30:00 AM 7.43 45.374 0.619 8.08 89.8 -99999.99
1/27/2021 5:45:00 AM 7.44 45.392 0.621 7.48 89.8 -99999.99
1/27/2021 6:00:00 AM 7.45 45.41 0.621 8.07 89.7 -99999.99
1/27/2021 6:15:00 AM 7.45 45.41 0.621 8.51 89.8 -99999.99
1/27/2021 6:30:00 AM 7.46 45.428 0.621 9.75 89.8 -99999.99
1/27/2021 6:45:00 AM 7.46 45.428 0.619 8.61 90.1 -99999.99
1/27/2021 7:00:00 AM 7.45 45.41 0.618 7.44 90.2 -99999.99
1/27/2021 7:15:00 AM 7.42 45.356 0.621 7.46 90 -99999.99
1/27/2021 7:30:00 AM 7.4 45.32 0.622 8.02 90 -99999.99
1/27/2021 7:45:00 AM 7.4 45.32 0.621 7.32 90.1 -99999.99
1/27/2021 8:00:00 AM 7.4 45.32 0.62 7.9 90.3 -99999.99
1/27/2021 8:15:00 AM 7.41 45.338 0.618 7.26 90.7 -99999.99
1/27/2021 8:30:00 AM 7.41 45.338 0.617 8 91.4 -99999.99
1/27/2021 8:45:00 AM 7.41 45.338 0.616 7.14 92.4 -99999.99
1/27/2021 9:00:00 AM 7.42 45.356 0.616 6.92 93.8 -99999.99
1/27/2021 9:15:00 AM 7.44 45.392 0.616 7.43 96.1 -99999.99
1/27/2021 9:30:00 AM 7.47 45.446 0.617 7.08 99.1 -99999.99
1/27/2021 9:45:00 AM 7.51 45.518 0.617 6.97 102 -99999.99
1/27/2021 10:00:00 AM 7.54 45.572 0.616 7.05 105 -99999.99
1/27/2021 10:15:00 AM 7.55 45.59 0.615 6.74 105.9 -99999.99
1/27/2021 10:30:00 AM 7.57 45.626 0.614 8.2 107.6 -99999.99
1/27/2021 10:45:00 AM 7.59 45.662 0.613 6.79 109.6 -99999.99
1/27/2021 11:00:00 AM 7.64 45.752 0.612 7.17 112.9 -99999.99
1/27/2021 11:15:00 AM 7.7 45.86 0.61 7.78 116 -99999.99
1/27/2021 11:30:00 AM 7.74 45.932 0.609 7.6 118.7 -99999.99
1/27/2021 11:45:00 AM 7.77 45.986 0.608 6.7 120.6 -99999.99
1/27/2021 12:00:00 PM 7.87 46.166 0.606 6.59 123.1 -99999.99
1/27/2021 12:15:00 PM 7.96 46.328 0.605 6.72 125.7 -99999.99
1/27/2021 12:30:00 PM 7.96 46.328 0.604 6.81 126.6 -99999.99
1/27/2021 12:45:00 PM 7.99 46.382 0.603 7.2 127.8 -99999.99
1/27/2021 1:00:00 PM 8.02 46.436 0.602 6.64 129.3 -99999.99
1/27/2021 1:15:00 PM 8.04 46.472 0.601 6.52 130.4 -99999.99
1/27/2021 1:30:00 PM 8.05 46.49 0.6 6.33 130.3 -99999.99
1/27/2021 1:45:00 PM 8.06 46.508 0.599 6.28 130.7 -99999.99
1/27/2021 2:00:00 PM 8.12 46.616 0.598 6.74 132 -99999.99
1/27/2021 2:15:00 PM 8.14 46.652 0.598 6.44 132.8 -99999.99
1/27/2021 2:30:00 PM 8.09 46.562 0.601 8.5 131.9 -99999.99
1/27/2021 2:45:00 PM 8.05 46.49 0.603 6.48 132 -99999.99
1/27/2021 3:00:00 PM 8.06 46.508 0.603 6.51 132.1 -99999.99
1/27/2021 3:15:00 PM 8.04 46.472 0.601 6.54 131.8 -99999.99
1/27/2021 3:30:00 PM 8.04 46.472 0.6 6.27 131.4 -99999.99
1/27/2021 3:45:00 PM 8.02 46.436 0.599 6.42 131.8 -99999.99
1/27/2021 4:00:00 PM 7.97 46.346 0.599 6.81 130.3 -99999.99
1/27/2021 4:15:00 PM 7.91 46.238 0.599 6.57 127.8 -99999.99
1/27/2021 4:30:00 PM 7.88 46.184 0.6 6.78 125.5 -99999.99
1/27/2021 4:45:00 PM 7.85 46.13 0.6 6.35 123.7 -99999.99
1/27/2021 5:00:00 PM 7.83 46.094 0.6 6.29 120.8 -99999.99
1/27/2021 5:15:00 PM 7.82 46.076 0.601 6.44 118.6 -99999.99
1/27/2021 5:30:00 PM 7.8 46.04 0.601 6.57 115.9 -99999.99
1/27/2021 5:45:00 PM 7.8 46.04 0.601 6.51 113.8 -99999.99
1/27/2021 6:00:00 PM 7.8 46.04 0.601 6.67 112 -99999.99
1/27/2021 6:15:00 PM 7.8 46.04 0.601 6.86 110.5 -99999.99
1/27/2021 6:30:00 PM 7.79 46.022 0.601 6.68 109.1 -99999.99
1/27/2021 6:45:00 PM 7.77 45.986 0.6 7.12 107.6 -99999.99
1/27/2021 7:00:00 PM 7.76 45.968 0.6 7.19 106.6 -99999.99
1/27/2021 7:15:00 PM 7.75 45.95 0.6 6.76 105.4 -99999.99
1/27/2021 7:30:00 PM 7.75 45.95 0.6 6.52 104.5 -99999.99
1/27/2021 7:45:00 PM 7.74 45.932 0.599 6.75 103.7 -99999.99
1/27/2021 8:00:00 PM 7.73 45.914 0.599 6.86 102.9 -99999.99
1/27/2021 8:15:00 PM 7.73 45.914 0.599 6.61 102.2 -99999.99
1/27/2021 8:30:00 PM 7.71 45.878 0.599 7.05 101.6 -99999.99
1/27/2021 8:45:00 PM 7.7 45.86 0.598 7.49 100.9 -99999.99
1/27/2021 9:00:00 PM 7.68 45.824 0.598 7.53 100.3 -99999.99
1/27/2021 9:15:00 PM 7.66 45.788 0.598 7.32 99.8 -99999.99
1/27/2021 9:30:00 PM 7.62 45.716 0.601 7.31 99.2 -99999.99
1/27/2021 9:45:00 PM 7.58 45.644 0.603 6.77 98.6 -99999.99
1/27/2021 10:00:00 PM 7.56 45.608 0.603 6.88 97.9 -99999.99
1/27/2021 10:15:00 PM 7.55 45.59 0.601 7.09 97.3 -99999.99
1/27/2021 10:30:00 PM 7.54 45.572 0.601 6.72 96.8 -99999.99
1/27/2021 10:45:00 PM 7.53 45.554 0.6 6.97 96.2 -99999.99
1/27/2021 11:00:00 PM 7.51 45.518 0.6 7.08 95.8 -99999.99
1/27/2021 11:15:00 PM 7.49 45.482 0.6 7.01 95.2 -99999.99
1/27/2021 11:30:00 PM 7.47 45.446 0.6 6.98 94.7 -99999.99
1/27/2021 11:45:00 PM 7.45 45.41 0.599 6.9 94.3 -99999.99
1/28/2021 12:00:00 AM 7.43 45.374 0.599 7.26 93.8 -99999.99
1/28/2021 12:15:00 AM 7.41 45.338 0.599 6.88 93.5 -99999.99
1/28/2021 12:30:00 AM 7.38 45.284 0.6 7.68 93.2 -99999.99
1/28/2021 12:45:00 AM 7.36 45.248 0.6 7.01 92.9 -99999.99
1/28/2021 1:00:00 AM 7.34 45.212 0.6 7.2 92.5 -99999.99
1/28/2021 1:15:00 AM 7.31 45.158 0.6 7 92.4 -99999.99
1/28/2021 1:30:00 AM 7.29 45.122 0.6 6.86 92 -99999.99
1/28/2021 1:45:00 AM 7.27 45.086 0.6 7.16 91.9 -99999.99
1/28/2021 2:00:00 AM 7.24 45.032 0.6 7.18 91.7 -99999.99
1/28/2021 2:15:00 AM 7.21 44.978 0.6 8.71 91.5 -99999.99
1/28/2021 2:30:00 AM 7.19 44.942 0.6 7.41 91.5 -99999.99
1/28/2021 2:45:00 AM 7.18 44.924 0.6 7.42 91.2 -99999.99
1/28/2021 3:00:00 AM 7.15 44.87 0.6 8.14 91.2 -99999.99
1/28/2021 3:15:00 AM 7.13 44.834 0.6 8.66 91 -99999.99
1/28/2021 3:30:00 AM 7.1 44.78 0.6 7.64 90.9 -99999.99
1/28/2021 3:45:00 AM 7.06 44.708 0.6 7.58 90.7 -99999.99
1/28/2021 4:00:00 AM 7.01 44.618 0.6 7.32 90.6 -99999.99
1/28/2021 4:15:00 AM 6.97 44.546 0.6 7.56 90.8 -99999.99
1/28/2021 4:30:00 AM 6.92 44.456 0.6 7.33 90.4 -99999.99
1/28/2021 4:45:00 AM 6.85 44.33 0.603 7.5 89.6 -99999.99
1/28/2021 5:00:00 AM 6.76 44.168 0.607 7.33 88.9 -99999.99
1/28/2021 5:15:00 AM 6.71 44.078 0.608 7.51 88.7 -99999.99
1/28/2021 5:30:00 AM 6.68 44.024 0.608 7.68 88.4 -99999.99
1/28/2021 5:45:00 AM 6.65 43.97 0.607 7.63 88.5 -99999.99
1/28/2021 6:00:00 AM 6.63 43.934 0.607 7.74 88.4 -99999.99
1/28/2021 6:15:00 AM 6.59 43.862 0.607 7.43 88.3 -99999.99
1/28/2021 6:30:00 AM 6.58 43.844 0.606 7.3 88.9 -99999.99
1/28/2021 6:45:00 AM 6.55 43.79 0.605 7.58 89.3 -99999.99
1/28/2021 7:00:00 AM 6.51 43.718 0.604 8.14 89.6 -99999.99
1/28/2021 7:15:00 AM 6.47 43.646 0.604 7.23 89.6 -99999.99
1/28/2021 7:30:00 AM 6.43 43.574 0.604 7.39 89.9 -99999.99
1/28/2021 7:45:00 AM 6.39 43.502 0.603 7.39 90.3 -99999.99
1/28/2021 8:00:00 AM 6.36 43.448 0.603 9.04 91 -99999.99
1/28/2021 8:15:00 AM 6.33 43.394 0.603 7.42 92.1 -99999.99
1/28/2021 8:30:00 AM 6.31 43.358 0.602 7.07 93.6 -99999.99
1/28/2021 8:45:00 AM 6.28 43.304 0.602 7.06 94.9 -99999.99
1/28/2021 9:00:00 AM 6.24 43.232 0.602 7.22 96.5 -99999.99
1/28/2021 9:15:00 AM 6.22 43.196 0.602 7.26 98.5 -99999.99
1/28/2021 9:30:00 AM 6.21 43.178 0.601 7.65 100.7 -99999.99
1/28/2021 9:45:00 AM 6.23 43.214 0.601 7.16 103.6 -99999.99
1/28/2021 10:00:00 AM 6.23 43.214 0.601 6.97 106.1 -99999.99
1/28/2021 10:15:00 AM 6.26 43.268 0.6 6.97 108.9 -99999.99
1/28/2021 10:30:00 AM 6.3 43.34 0.6 7.23 111.4 -99999.99
1/28/2021 10:45:00 AM 6.34 43.412 0.599 6.95 113.7 -99999.99
1/28/2021 11:00:00 AM 6.41 43.538 0.599 6.62 116 -99999.99
1/28/2021 11:15:00 AM 6.48 43.664 0.599 7.99 118.2 -99999.99
1/28/2021 11:30:00 AM 6.55 43.79 0.598 6.64 120.7 -99999.99
1/28/2021 11:45:00 AM 6.6 43.88 0.598 6.72 122.4 -99999.99
1/28/2021 12:00:00 PM 6.61 43.898 0.601 6.61 123.8 -99999.99
1/28/2021 12:15:00 PM 6.66 43.988 0.602 7.05 125.3 -99999.99
1/28/2021 12:30:00 PM 6.72 44.096 0.601 6.85 126.6 -99999.99
1/28/2021 12:45:00 PM 6.8 44.24 0.6 6.66 127.9 -99999.99
1/28/2021 1:00:00 PM 6.85 44.33 0.598 6.88 129 -99999.99
1/28/2021 1:15:00 PM 6.88 44.384 0.597 6.73 129.6 -99999.99
1/28/2021 1:30:00 PM 6.91 44.438 0.596 6.88 130.2 -99999.99
1/28/2021 1:45:00 PM 6.92 44.456 0.595 6.84 130.7 -99999.99
1/28/2021 2:00:00 PM 6.91 44.438 0.595 6.66 130.9 -99999.99
1/28/2021 2:15:00 PM 6.91 44.438 0.594 6.49 130.8 -99999.99
1/28/2021 2:30:00 PM 6.89 44.402 0.594 6.57 130.8 -99999.99
1/28/2021 2:45:00 PM 6.88 44.384 0.594 7.93 130.5 -99999.99
1/28/2021 3:00:00 PM 6.84 44.312 0.594 6.72 130 -99999.99
1/28/2021 3:15:00 PM 6.78 44.204 0.595 6.7 129.2 -99999.99
1/28/2021 3:30:00 PM 6.73 44.114 0.595 8.92 128.4 -99999.99
1/28/2021 3:45:00 PM 6.67 44.006 0.595 6.28 127 -99999.99
1/28/2021 4:00:00 PM 6.59 43.862 0.595 6.47 125.7 -99999.99
1/28/2021 4:15:00 PM 6.54 43.772 0.596 6.63 124 -99999.99
1/28/2021 4:30:00 PM 6.48 43.664 0.596 6.35 122 -99999.99
1/28/2021 4:45:00 PM 6.4 43.52 0.597 6.6 119.8 -99999.99
1/28/2021 5:00:00 PM 6.33 43.394 0.597 6.56 117.7 -99999.99
1/28/2021 5:15:00 PM 6.28 43.304 0.597 6.81 115.8 -99999.99
1/28/2021 5:30:00 PM 6.21 43.178 0.598 6.53 113.6 -99999.99
1/28/2021 5:45:00 PM 6.15 43.07 0.599 6.62 111.5 -99999.99
1/28/2021 6:00:00 PM 6.09 42.962 0.6 6.7 109.6 -99999.99
1/28/2021 6:15:00 PM 6.03 42.854 0.602 6.62 108 -99999.99
1/28/2021 6:30:00 PM 5.99 42.782 0.602 6.53 106.4 -99999.99
1/28/2021 6:45:00 PM 5.94 42.692 0.603 6.36 105.1 -99999.99
1/28/2021 7:00:00 PM 5.9 42.62 0.603 6.3 103.9 -99999.99
1/28/2021 7:15:00 PM 5.87 42.566 0.603 6.56 102.8 -99999.99
1/28/2021 7:30:00 PM 5.83 42.494 0.604 6.47 101.8 -99999.99
1/28/2021 7:45:00 PM 5.8 42.44 0.603 6.36 100.9 -99999.99
1/28/2021 8:00:00 PM 5.75 42.35 0.603 6.56 100 -99999.99
1/28/2021 8:15:00 PM 5.68 42.224 0.606 6.48 99.4 -99999.99
1/28/2021 8:30:00 PM 5.6 42.08 0.608 6.54 98.7 -99999.99
1/28/2021 8:45:00 PM 5.54 41.972 0.609 6.34 98.1 -99999.99
1/28/2021 9:00:00 PM 5.49 41.882 0.608 6.35 97.2 -99999.99
1/28/2021 9:15:00 PM 5.44 41.792 0.607 6.21 96.5 -99999.99
1/28/2021 9:30:00 PM 5.41 41.738 0.606 6.38 95.8 -99999.99
1/28/2021 9:45:00 PM 5.37 41.666 0.606 6.58 95.1 -99999.99
1/28/2021 10:00:00 PM 5.35 41.63 0.605 6.26 94.5 -99999.99
1/28/2021 10:15:00 PM 5.33 41.594 0.605 6.89 93.9 -99999.99
1/28/2021 10:30:00 PM 5.32 41.576 0.605 8.29 93.5 -99999.99
1/28/2021 10:45:00 PM 5.29 41.522 0.605 6.49 93.1 -99999.99
1/28/2021 11:00:00 PM 5.26 41.468 0.605 6.42 92.7 -99999.99
1/28/2021 11:15:00 PM 5.23 41.414 0.605 6.25 92.4 -99999.99
1/28/2021 11:30:00 PM 5.21 41.378 0.605 6.61 92 -99999.99
1/28/2021 11:45:00 PM 5.19 41.342 0.605 6.36 91.6 -99999.99
1/29/2021 12:00:00 AM 5.15 41.27 0.605 6.77 91.3 -99999.99
1/29/2021 12:15:00 AM 5.14 41.252 0.605 6.4 91 -99999.99
1/29/2021 12:30:00 AM 5.12 41.216 0.605 7.22 90.6 -99999.99
1/29/2021 12:45:00 AM 5.11 41.198 0.605 6.34 90.4 -99999.99
1/29/2021 1:00:00 AM 5.1 41.18 0.605 6.31 90.1 -99999.99
1/29/2021 1:15:00 AM 5.09 41.162 0.605 6.21 89.7 -99999.99
1/29/2021 1:30:00 AM 5.07 41.126 0.605 6.37 89.7 -99999.99
1/29/2021 1:45:00 AM 5.04 41.072 0.605 6.57 89.4 -99999.99
1/29/2021 2:00:00 AM 5.01 41.018 0.605 6.42 89.3 -99999.99
1/29/2021 2:15:00 AM 4.96 40.928 0.605 6.48 89.2 -99999.99
1/29/2021 2:30:00 AM 4.92 40.856 0.605 6.38 89.1 -99999.99
1/29/2021 2:45:00 AM 4.89 40.802 0.605 6.48 88.9 -99999.99
1/29/2021 3:00:00 AM 4.85 40.73 0.605 6.43 88.8 -99999.99
1/29/2021 3:15:00 AM 4.81 40.658 0.605 6.66 88.6 -99999.99
1/29/2021 3:30:00 AM 4.77 40.586 0.605 6.61 88.6 -99999.99
1/29/2021 3:45:00 AM 4.77 40.586 0.604 6.64 88.7 -99999.99
1/29/2021 4:00:00 AM 4.73 40.514 0.604 6.34 88.6 -99999.99
1/29/2021 4:15:00 AM 4.66 40.388 0.606 6.42 88.4 -99999.99
1/29/2021 4:30:00 AM 4.59 40.262 0.609 6.5 88.3 -99999.99
1/29/2021 4:45:00 AM 4.55 40.19 0.61 6.55 88.3 -99999.99
1/29/2021 5:00:00 AM 4.53 40.154 0.609 6.53 88.4 -99999.99
1/29/2021 5:15:00 AM 4.53 40.154 0.609 6.26 88.4 -99999.99
1/29/2021 5:30:00 AM 4.52 40.136 0.608 6.43 88.3 -99999.99
1/29/2021 5:45:00 AM 4.5 40.1 0.608 7.2 88.3 -99999.99
1/29/2021 6:00:00 AM 4.49 40.082 0.608 6.6 88.2 -99999.99
1/29/2021 6:15:00 AM 4.48 40.064 0.608 6.12 88.3 -99999.99
1/29/2021 6:30:00 AM 4.47 40.046 0.608 6.3 88.2 -99999.99
1/29/2021 6:45:00 AM 4.44 39.992 0.608 6.48 88.2 -99999.99
1/29/2021 7:00:00 AM 4.41 39.938 0.608 6.43 88.1 -99999.99
1/29/2021 7:15:00 AM 4.36 39.848 0.608 6.51 88.1 -99999.99
1/29/2021 7:30:00 AM 4.31 39.758 0.608 6.49 88 -99999.99
1/29/2021 7:45:00 AM 4.29 39.722 0.609 6.55 88.5 -99999.99
1/29/2021 8:00:00 AM 4.27 39.686 0.609 6.32 89.1 -99999.99
1/29/2021 8:15:00 AM 4.25 39.65 0.609 6.6 90 -99999.99
1/29/2021 8:30:00 AM 4.25 39.65 0.609 6.66 91.4 -99999.99
1/29/2021 8:45:00 AM 4.23 39.614 0.609 6.54 93.1 -99999.99
1/29/2021 9:00:00 AM 4.24 39.632 0.609 6.34 95.3 -99999.99
1/29/2021 9:15:00 AM 4.27 39.686 0.609 6.26 97.8 -99999.99
1/29/2021 9:30:00 AM 4.31 39.758 0.609 6.29 100.7 -99999.99
1/29/2021 9:45:00 AM 4.35 39.83 0.609 6.34 103.4 -99999.99
1/29/2021 10:00:00 AM 4.4 39.92 0.609 6.26 106.4 -99999.99
1/29/2021 10:15:00 AM 4.46 40.028 0.609 6.43 109.4 -99999.99
1/29/2021 10:30:00 AM 4.52 40.136 0.609 6.54 112.3 -99999.99
1/29/2021 10:45:00 AM 4.57 40.226 0.608 6.48 114 -99999.99
1/29/2021 11:00:00 AM 4.64 40.352 0.608 6.48 116.3 -99999.99
1/29/2021 11:15:00 AM 4.7 40.46 0.608 18.07 118.2 -99999.99
1/29/2021 11:30:00 AM 4.77 40.586 0.608 6.4 120.1 -99999.99
1/29/2021 11:45:00 AM 4.85 40.73 0.607 6.97 121.9 -99999.99
1/29/2021 12:00:00 PM 4.91 40.838 0.606 6.73 123.6 -99999.99
1/29/2021 12:15:00 PM 4.93 40.874 0.608 6.55 125.1 -99999.99
1/29/2021 12:30:00 PM 4.94 40.892 0.611 6.43 126.6 -99999.99
1/29/2021 12:45:00 PM 4.98 40.964 0.611 7.24 128 -99999.99
1/29/2021 1:00:00 PM 5.02 41.036 0.611 6.31 129.6 -99999.99
1/29/2021 1:15:00 PM 5.1 41.18 0.609 6.39 130.9 -99999.99
1/29/2021 1:30:00 PM 5.16 41.288 0.608 6.11 132.2 -99999.99
1/29/2021 1:45:00 PM 5.22 41.396 0.607 6.84 133.2 -99999.99
1/29/2021 2:00:00 PM 5.27 41.486 0.606 6.41 133.8 -99999.99
1/29/2021 2:15:00 PM 5.29 41.522 0.605 6.22 134.3 -99999.99
1/29/2021 2:30:00 PM 5.32 41.576 0.605 6.14 134.5 -99999.99
1/29/2021 2:45:00 PM 5.37 41.666 0.604 6.21 134.6 -99999.99
1/29/2021 3:00:00 PM 5.43 41.774 0.604 6.39 134.9 -99999.99
1/29/2021 3:15:00 PM 5.47 41.846 0.603 6.22 135 -99999.99
1/29/2021 3:30:00 PM 5.52 41.936 0.602 6.5 135 -99999.99
1/29/2021 3:45:00 PM 5.55 41.99 0.601 6.15 133.4 -99999.99
1/29/2021 4:00:00 PM 5.56 42.008 0.6 6.1 131.4 -99999.99
1/29/2021 4:15:00 PM 5.57 42.026 0.6 6.01 130.3 -99999.99
1/29/2021 4:30:00 PM 5.54 41.972 0.6 6.69 128.6 -99999.99
1/29/2021 4:45:00 PM 5.5 41.9 0.601 5.92 126.2 -99999.99
1/29/2021 5:00:00 PM 5.45 41.81 0.601 6 123.8 -99999.99
1/29/2021 5:15:00 PM 5.4 41.72 0.602 6.12 121.1 -99999.99
1/29/2021 5:30:00 PM 5.37 41.666 0.603 6.11 118.4 -99999.99
1/29/2021 5:45:00 PM 5.35 41.63 0.603 6.15 116.2 -99999.99
1/29/2021 6:00:00 PM 5.34 41.612 0.604 6.43 113.9 -99999.99
1/29/2021 6:15:00 PM 5.32 41.576 0.604 6.55 112.1 -99999.99
1/29/2021 6:30:00 PM 5.31 41.558 0.604 6.4 110.5 -99999.99
1/29/2021 6:45:00 PM 5.32 41.576 0.604 6.46 109.1 -99999.99
1/29/2021 7:00:00 PM 5.34 41.612 0.604 6.44 107.9 -99999.99
1/29/2021 7:15:00 PM 5.36 41.648 0.603 6.21 106.8 -99999.99
1/29/2021 7:30:00 PM 5.38 41.684 0.604 6.55 106 -99999.99
1/29/2021 7:45:00 PM 5.33 41.594 0.607 6.63 105.5 -99999.99
1/29/2021 8:00:00 PM 5.28 41.504 0.609 6.53 104.7 -99999.99
1/29/2021 8:15:00 PM 5.27 41.486 0.609 5.99 103.7 -99999.99
1/29/2021 8:30:00 PM 5.27 41.486 0.607 6.38 103.2 -99999.99
1/29/2021 8:45:00 PM 5.27 41.486 0.606 5.98 102.5 -99999.99
1/29/2021 9:00:00 PM 5.27 41.486 0.606 6.13 101.9 -99999.99
1/29/2021 9:15:00 PM 5.28 41.504 0.605 6.27 101.4 -99999.99
1/29/2021 9:30:00 PM 5.3 41.54 0.605 6.44 100.9 -99999.99
1/29/2021 9:45:00 PM 5.3 41.54 0.604 6.36 100.3 -99999.99
1/29/2021 10:00:00 PM 5.3 41.54 0.604 6.4 99.7 -99999.99
1/29/2021 10:15:00 PM 5.3 41.54 0.604 6.08 99.2 -99999.99
1/29/2021 10:30:00 PM 5.31 41.558 0.604 6.15 98.6 -99999.99
1/29/2021 10:45:00 PM 5.32 41.576 0.604 6.33 98 -99999.99
1/29/2021 11:00:00 PM 5.32 41.576 0.604 6.47 97.3 -99999.99
1/29/2021 11:15:00 PM 5.33 41.594 0.604 6.63 96.7 -99999.99
1/29/2021 11:30:00 PM 5.34 41.612 0.604 6.46 96.1 -99999.99
1/29/2021 11:45:00 PM 5.35 41.63 0.605 7.34 95.4 -99999.99
1/30/2021 12:00:00 AM 5.35 41.63 0.605 6.95 94.8 -99999.99
1/30/2021 12:15:00 AM 5.35 41.63 0.605 6.83 94.4 -99999.99
1/30/2021 12:30:00 AM 5.35 41.63 0.605 7.55 94 -99999.99
1/30/2021 12:45:00 AM 5.35 41.63 0.605 6.68 93.7 -99999.99
1/30/2021 1:00:00 AM 5.35 41.63 0.605 7.4 93.5 -99999.99
1/30/2021 1:15:00 AM 5.35 41.63 0.605 7.3 93.2 -99999.99
1/30/2021 1:30:00 AM 5.34 41.612 0.605 7.16 93 -99999.99
1/30/2021 1:45:00 AM 5.32 41.576 0.605 7.48 92.9 -99999.99
1/30/2021 2:00:00 AM 5.32 41.576 0.605 7.14 92.7 -99999.99
1/30/2021 2:15:00 AM 5.31 41.558 0.605 7.54 92.4 -99999.99
1/30/2021 2:30:00 AM 5.31 41.558 0.605 7.42 92.4 -99999.99
1/30/2021 2:45:00 AM 5.31 41.558 0.605 8.47 92.3 -99999.99
1/30/2021 3:00:00 AM 5.32 41.576 0.604 255.7 92.3 -99999.99
1/30/2021 3:15:00 AM 5.31 41.558 0.604 7.67 92.2 -99999.99
1/30/2021 3:30:00 AM 5.23 41.414 0.608 7.84 91.7 -99999.99
1/30/2021 3:45:00 AM 5.18 41.324 0.609 7.35 91.8 -99999.99
1/30/2021 4:00:00 AM 5.17 41.306 0.608 6.89 91.7 -99999.99
1/30/2021 4:15:00 AM 5.17 41.306 0.606 7.44 91.6 -99999.99
1/30/2021 4:30:00 AM 5.15 41.27 0.605 7.35 91.5 -99999.99
1/30/2021 4:45:00 AM 5.13 41.234 0.604 7.2 91.5 -99999.99
1/30/2021 5:00:00 AM 5.1 41.18 0.604 6.6 91.3 -99999.99
1/30/2021 5:15:00 AM 5.08 41.144 0.603 7.04 91.2 -99999.99
1/30/2021 5:30:00 AM 5.06 41.108 0.603 6.69 91 -99999.99
1/30/2021 5:45:00 AM 5.03 41.054 0.603 7.3 90.9 -99999.99
1/30/2021 6:00:00 AM 5.02 41.036 0.603 7.08 90.7 -99999.99
1/30/2021 6:15:00 AM 5 41 0.603 6.61 90.5 -99999.99
1/30/2021 6:30:00 AM 4.98 40.964 0.603 7.59 90.5 -99999.99
1/30/2021 6:45:00 AM 4.97 40.946 0.603 7.14 90.4 -99999.99
1/30/2021 7:00:00 AM 4.96 40.928 0.603 7.2 90.4 -99999.99
1/30/2021 7:15:00 AM 4.95 40.91 0.603 7.08 90.3 -99999.99
1/30/2021 7:30:00 AM 4.95 40.91 0.603 7.4 90.4 -99999.99
1/30/2021 7:45:00 AM 4.94 40.892 0.603 6.53 90.8 -99999.99
1/30/2021 8:00:00 AM 4.94 40.892 0.603 6.7 91.5 -99999.99
1/30/2021 8:15:00 AM 4.95 40.91 0.603 7.09 92.4 -99999.99
1/30/2021 8:30:00 AM 4.96 40.928 0.603 6.98 93.5 -99999.99
1/30/2021 8:45:00 AM 4.98 40.964 0.603 6.98 94.8 -99999.99
1/30/2021 9:00:00 AM 4.99 40.982 0.604 6.79 96.6 -99999.99
1/30/2021 9:15:00 AM 5.01 41.018 0.604 6.91 98.7 -99999.99
1/30/2021 9:30:00 AM 5.05 41.09 0.604 6.6 101.4 -99999.99
1/30/2021 9:45:00 AM 5.11 41.198 0.603 7.39 104 -99999.99
1/30/2021 10:00:00 AM 5.17 41.306 0.603 7.68 106.7 -99999.99
1/30/2021 10:15:00 AM 5.25 41.45 0.603 6.9 109.2 -99999.99
1/30/2021 10:30:00 AM 5.32 41.576 0.602 6.88 111.5 -99999.99
1/30/2021 10:45:00 AM 5.43 41.774 0.601 14.17 114.1 -99999.99
1/30/2021 11:00:00 AM 5.52 41.936 0.601 7.12 116.4 -99999.99
1/30/2021 11:15:00 AM 5.55 41.99 0.604 7.34 118.2 -99999.99
1/30/2021 11:30:00 AM 5.6 42.08 0.606 6.49 120.4 -99999.99
1/30/2021 11:45:00 AM 5.7 42.26 0.604 7.25 122.4 -99999.99
1/30/2021 12:00:00 PM 5.82 42.476 0.602 6.59 124.2 -99999.99
1/30/2021 12:15:00 PM 5.92 42.656 0.601 6.92 125.8 -99999.99
1/30/2021 12:30:00 PM 6.01 42.818 0.599 6.56 127.2 -99999.99
1/30/2021 12:45:00 PM 6.1 42.98 0.599 6.73 128.6 -99999.99
1/30/2021 1:00:00 PM 6.17 43.106 0.598 6.78 129.6 -99999.99
1/30/2021 1:15:00 PM 6.24 43.232 0.598 6.78 130.1 -99999.99
1/30/2021 1:30:00 PM 6.3 43.34 0.597 6.8 130.7 -99999.99
1/30/2021 1:45:00 PM 6.35 43.43 0.597 6.8 131.3 -99999.99
1/30/2021 2:00:00 PM 6.38 43.484 0.597 8.18 131.8 -99999.99
1/30/2021 2:15:00 PM 6.39 43.502 0.598 6.76 131.9 -99999.99
1/30/2021 2:30:00 PM 6.39 43.502 0.597 6.66 131.7 -99999.99
1/30/2021 2:45:00 PM 6.38 43.484 0.597 7.7 131.3 -99999.99
1/30/2021 3:00:00 PM 6.38 43.484 0.596 6.66 130.8 -99999.99
1/30/2021 3:15:00 PM 6.35 43.43 0.597 7.34 130 -99999.99
1/30/2021 3:30:00 PM 6.33 43.394 0.597 6.2 129.1 -99999.99
1/30/2021 3:45:00 PM 6.31 43.358 0.597 6.42 128.1 -99999.99
1/30/2021 4:00:00 PM 6.27 43.286 0.597 6.77 126.6 -99999.99
1/30/2021 4:15:00 PM 6.23 43.214 0.598 6.38 124.8 -99999.99
1/30/2021 4:30:00 PM 6.19 43.142 0.598 7.21 122.4 -99999.99
1/30/2021 4:45:00 PM 6.15 43.07 0.599 6.66 120.2 -99999.99
1/30/2021 5:00:00 PM 6.12 43.016 0.599 6.54 117.8 -99999.99
1/30/2021 5:15:00 PM 6.1 42.98 0.599 6.55 115.6 -99999.99
1/30/2021 5:30:00 PM 6.07 42.926 0.6 6.99 113.5 -99999.99
1/30/2021 5:45:00 PM 6.06 42.908 0.6 6.88 111.3 -99999.99
1/30/2021 6:00:00 PM 6.05 42.89 0.6 6.82 109.6 -99999.99
1/30/2021 6:15:00 PM 6.05 42.89 0.6 6.44 108.1 -99999.99
1/30/2021 6:30:00 PM 6.04 42.872 0.601 6.45 106.9 -99999.99
1/30/2021 6:45:00 PM 6.03 42.854 0.6 7.02 106.1 -99999.99
1/30/2021 7:00:00 PM 6.01 42.818 0.601 6.62 105.1 -99999.99
1/30/2021 7:15:00 PM 5.96 42.728 0.604 6.64 104.3 -99999.99
1/30/2021 7:30:00 PM 5.91 42.638 0.606 7.45 103.5 -99999.99
1/30/2021 7:45:00 PM 5.89 42.602 0.605 6.13 102.7 -99999.99
1/30/2021 8:00:00 PM 5.87 42.566 0.604 6.63 102 -99999.99
1/30/2021 8:15:00 PM 5.85 42.53 0.603 6.44 101.4 -99999.99
1/30/2021 8:30:00 PM 5.84 42.512 0.603 6.59 100.7 -99999.99
1/30/2021 8:45:00 PM 5.82 42.476 0.603 6.26 100.4 -99999.99
1/30/2021 9:00:00 PM 5.81 42.458 0.602 6.74 99.6 -99999.99
1/30/2021 9:15:00 PM 5.79 42.422 0.602 7.15 99.2 -99999.99
1/30/2021 9:30:00 PM 5.77 42.386 0.602 8.06 98.7 -99999.99
1/30/2021 9:45:00 PM 5.76 42.368 0.602 6.83 98.2 -99999.99
1/30/2021 10:00:00 PM 5.76 42.368 0.602 7.38 97.7 -99999.99
1/30/2021 10:15:00 PM 5.75 42.35 0.602 7.06 97.3 -99999.99
1/30/2021 10:30:00 PM 5.75 42.35 0.602 7.53 96.9 -99999.99
1/30/2021 10:45:00 PM 5.75 42.35 0.602 8.14 96.5 -99999.99
1/30/2021 11:00:00 PM 5.76 42.368 0.602 7.42 96.1 -99999.99
1/30/2021 11:15:00 PM 5.76 42.368 0.602 6.73 95.5 -99999.99
1/30/2021 11:30:00 PM 5.76 42.368 0.603 7.51 95.1 -99999.99
1/30/2021 11:45:00 PM 5.76 42.368 0.603 7.49 94.6 -99999.99
1/31/2021 12:00:00 AM 5.77 42.386 0.603 7.43 93.9 -99999.99
1/31/2021 12:15:00 AM 5.79 42.422 0.603 6.82 93.4 -99999.99
1/31/2021 12:30:00 AM 5.8 42.44 0.603 7.15 93 -99999.99
1/31/2021 12:45:00 AM 5.82 42.476 0.603 7.07 92.5 -99999.99
1/31/2021 1:00:00 AM 5.83 42.494 0.603 7.13 92 -99999.99
1/31/2021 1:15:00 AM 5.84 42.512 0.603 7.64 91.7 -99999.99
1/31/2021 1:30:00 AM 5.86 42.548 0.603 7.24 91.4 -99999.99
1/31/2021 1:45:00 AM 5.87 42.566 0.603 7.82 91.1 -99999.99
1/31/2021 2:00:00 AM 5.89 42.602 0.603 7.06 90.9 -99999.99
1/31/2021 2:15:00 AM 5.9 42.62 0.603 7.06 90.8 -99999.99
1/31/2021 2:30:00 AM 5.91 42.638 0.603 8.31 90.8 -99999.99
1/31/2021 2:45:00 AM 5.92 42.656 0.603 7.41 90.6 -99999.99
1/31/2021 3:00:00 AM 5.93 42.674 0.603 7.09 90.6 -99999.99
1/31/2021 3:15:00 AM 5.93 42.674 0.603 7.64 90.6 -99999.99
1/31/2021 3:30:00 AM 5.94 42.692 0.603 7.57 90.8 -99999.99
1/31/2021 4:00:00 AM 5.88 42.584 0.606 7.41 90.3 -99999.99
1/31/2021 4:15:00 AM 5.84 42.512 0.608 7.93 90.1 -99999.99
1/31/2021 4:30:00 AM 5.85 42.53 0.607 7.57 90.1 -99999.99
1/31/2021 4:45:00 AM 5.86 42.548 0.606 7.22 90 -99999.99
1/31/2021 5:00:00 AM 5.86 42.548 0.605 7.03 90 -99999.99
1/31/2021 5:15:00 AM 5.86 42.548 0.604 6.68 90 -99999.99
1/31/2021 5:30:00 AM 5.86 42.548 0.604 6.63 89.7 -99999.99
1/31/2021 5:45:00 AM 5.86 42.548 0.603 6.99 89.7 -99999.99
1/31/2021 6:00:00 AM 5.86 42.548 0.602 7.19 89.5 -99999.99
1/31/2021 6:15:00 AM 5.85 42.53 0.602 7.46 89.5 -99999.99
1/31/2021 6:30:00 AM 5.85 42.53 0.602 7.06 89.4 -99999.99
1/31/2021 6:45:00 AM 5.83 42.494 0.602 6.72 89.3 -99999.99
1/31/2021 7:00:00 AM 5.81 42.458 0.602 7.37 88.8 -99999.99
1/31/2021 7:15:00 AM 5.8 42.44 0.604 8.13 88.3 -99999.99
1/31/2021 7:30:00 AM 5.78 42.404 0.603 6.81 88 -99999.99
1/31/2021 7:45:00 AM 5.78 42.404 0.604 7.58 87.8 -99999.99
1/31/2021 8:00:00 AM 5.78 42.404 0.604 7.8 88.3 -99999.99
1/31/2021 8:15:00 AM 5.79 42.422 0.604 7.66 89.8 -99999.99
1/31/2021 8:30:00 AM 5.8 42.44 0.604 7.01 91.5 -99999.99
1/31/2021 8:45:00 AM 5.82 42.476 0.604 7.14 92.5 -99999.99
1/31/2021 9:00:00 AM 5.87 42.566 0.603 7.36 95.1 -99999.99
1/31/2021 9:15:00 AM 5.91 42.638 0.603 7.51 97.6 -99999.99
1/31/2021 9:30:00 AM 5.94 42.692 0.603 7.2 99 -99999.99
1/31/2021 9:45:00 AM 5.97 42.746 0.602 7.16 100.7 -99999.99
1/31/2021 10:00:00 AM 5.99 42.782 0.602 7.56 102.3 -99999.99
1/31/2021 10:15:00 AM 5.98 42.764 0.602 7.12 103.8 -99999.99
1/31/2021 10:30:00 AM 5.96 42.728 0.602 6.98 105.2 -99999.99
1/31/2021 10:45:00 AM 5.97 42.746 0.601 9.42 107.4 -99999.99
1/31/2021 11:00:00 AM 5.99 42.782 0.601 8 109.4 -99999.99
1/31/2021 11:15:00 AM 6 42.8 0.601 7.35 110.2 -99999.99
1/31/2021 11:30:00 AM 6.01 42.818 0.601 8.23 110.1 -99999.99
1/31/2021 11:45:00 AM 6.01 42.818 0.6 7.77 110.6 -99999.99
1/31/2021 12:00:00 PM 6 42.8 0.599 8.03 111.3 -99999.99
1/31/2021 12:15:00 PM 5.99 42.782 0.601 7.58 113.2 -99999.99
1/31/2021 12:30:00 PM 5.97 42.746 0.603 7.58 115.7 -99999.99
1/31/2021 12:45:00 PM 5.94 42.692 0.606 8.18 117.7 -99999.99
1/31/2021 1:00:00 PM 5.91 42.638 0.606 7.55 117.9 -99999.99
1/31/2021 1:15:00 PM 5.89 42.602 0.604 7.54 118.2 -99999.99
1/31/2021 1:30:00 PM 5.89 42.602 0.603 7.76 119.2 -99999.99
1/31/2021 1:45:00 PM 5.85 42.53 0.602 7.61 118.9 -99999.99
1/31/2021 2:00:00 PM 5.86 42.548 0.602 7.92 119 -99999.99
1/31/2021 2:15:00 PM 5.89 42.602 0.601 7.21 119.9 -99999.99
1/31/2021 2:30:00 PM 5.9 42.62 0.601 7.4 120.3 -99999.99
1/31/2021 2:45:00 PM 5.92 42.656 0.6 7.41 121.4 -99999.99
1/31/2021 3:00:00 PM 5.93 42.674 0.6 7.33 121.3 -99999.99
1/31/2021 3:15:00 PM 5.93 42.674 0.599 7.27 120.5 -99999.99
1/31/2021 3:30:00 PM 5.88 42.584 0.599 7.8 119.6 -99999.99
1/31/2021 3:45:00 PM 5.86 42.548 0.599 8.13 118.2 -99999.99
1/31/2021 4:00:00 PM 5.83 42.494 0.599 7.51 116.9 -99999.99
1/31/2021 4:15:00 PM 5.79 42.422 0.599 7.27 115.5 -99999.99
1/31/2021 4:30:00 PM 5.77 42.386 0.599 7.68 113.9 -99999.99
1/31/2021 4:45:00 PM 5.76 42.368 0.599 6.78 112.3 -99999.99
1/31/2021 5:00:00 PM 5.72 42.296 0.599 7.57 110.5 -99999.99
1/31/2021 5:15:00 PM 5.65 42.17 0.599 7.13 108.4 -99999.99
1/31/2021 5:30:00 PM 5.6 42.08 0.599 7 106.5 -99999.99
1/31/2021 5:45:00 PM 5.56 42.008 0.599 6.88 104.6 -99999.99
1/31/2021 6:00:00 PM 5.51 41.918 0.6 7.27 103 -99999.99
1/31/2021 6:15:00 PM 5.46 41.828 0.6 7.08 101.6 -99999.99
1/31/2021 6:30:00 PM 5.43 41.774 0.6 7.28 100.4 -99999.99
1/31/2021 6:45:00 PM 5.39 41.702 0.6 7.41 99.2 -99999.99
1/31/2021 7:00:00 PM 5.37 41.666 0.6 6.79 98.6 -99999.99
1/31/2021 7:15:00 PM 5.33 41.594 0.6 8.37 98 -99999.99
1/31/2021 7:30:00 PM 5.3 41.54 0.6 7.17 97.3 -99999.99
1/31/2021 7:45:00 PM 5.28 41.504 0.599 7.25 96.7 -99999.99
1/31/2021 8:00:00 PM 5.26 41.468 0.599 6.78 96.2 -99999.99
1/31/2021 8:15:00 PM 5.24 41.432 0.599 6.63 95.5 -99999.99
1/31/2021 8:30:00 PM 5.19 41.342 0.602 7.72 95.3 -99999.99
1/31/2021 8:45:00 PM 5.11 41.198 0.604 7.24 94.8 -99999.99
1/31/2021 9:00:00 PM 5.03 41.054 0.603 7.78 94.2 -99999.99
1/31/2021 9:15:00 PM 4.97 40.946 0.602 7.56 93.5 -99999.99
1/31/2021 9:30:00 PM 4.91 40.838 0.601 7.1 93.2 -99999.99
1/31/2021 9:45:00 PM 4.89 40.802 0.6 6.82 92.8 -99999.99
1/31/2021 10:00:00 PM 4.87 40.766 0.599 6.84 92.3 -99999.99
1/31/2021 10:15:00 PM 4.84 40.712 0.599 7.12 91.8 -99999.99
1/31/2021 10:30:00 PM 4.8 40.64 0.598 6.78 91.4 -99999.99
1/31/2021 10:45:00 PM 4.76 40.568 0.597 6.97 90.9 -99999.99
1/31/2021 11:00:00 PM 4.72 40.496 0.597 6.61 90.7 -99999.99
1/31/2021 11:15:00 PM 4.68 40.424 0.596 7.36 90.4 -99999.99
1/31/2021 11:30:00 PM 4.63 40.334 0.596 7.64 90 -99999.99
1/31/2021 11:45:00 PM 4.58 40.244 0.596 8.06 89.6 -99999.99
2/1/2021 12:00:00 AM 4.53 40.154 0.595 7 89.4 -99999.99
2/1/2021 12:15:00 AM 4.5 40.1 0.595 6.64 89.2 -99999.99
2/1/2021 12:30:00 AM 4.49 40.082 0.595 7.2 88.8 -99999.99
2/1/2021 12:45:00 AM 4.47 40.046 0.595 7.14 88.6 -99999.99
2/1/2021 1:00:00 AM 4.47 40.046 0.595 7.51 88.3 -99999.99
2/1/2021 1:15:00 AM 4.46 40.028 0.595 7.64 88.1 -99999.99
2/1/2021 1:30:00 AM 4.46 40.028 0.595 7.6 87.9 -99999.99
2/1/2021 1:45:00 AM 4.46 40.028 0.595 7.45 87.6 -99999.99
2/1/2021 2:00:00 AM 4.47 40.046 0.595 7.43 87.4 -99999.99
2/1/2021 2:15:00 AM 4.48 40.064 0.595 7.46 87.3 -99999.99
2/1/2021 2:30:00 AM 4.5 40.1 0.595 7.56 87 -99999.99
2/1/2021 2:45:00 AM 4.52 40.136 0.595 7.36 87 -99999.99
2/1/2021 3:00:00 AM 4.54 40.172 0.595 8.24 86.8 -99999.99
2/1/2021 3:15:00 AM 4.56 40.208 0.595 7.45 86.9 -99999.99
2/1/2021 3:30:00 AM 4.55 40.19 0.596 7.49 86.6 -99999.99
2/1/2021 3:45:00 AM 4.48 40.064 0.599 7.42 86.3 -99999.99
2/1/2021 4:00:00 AM 4.42 39.956 0.6 7.5 86.2 -99999.99
2/1/2021 4:15:00 AM 4.4 39.92 0.6 8.47 86.2 -99999.99
2/1/2021 4:30:00 AM 4.4 39.92 0.599 7.34 86.1 -99999.99
2/1/2021 4:45:00 AM 4.4 39.92 0.598 8.48 86 -99999.99
2/1/2021 5:00:00 AM 4.41 39.938 0.597 7.72 86 -99999.99
2/1/2021 5:15:00 AM 4.4 39.92 0.596 7.02 85.9 -99999.99
2/1/2021 5:30:00 AM 4.4 39.92 0.596 7.14 85.7 -99999.99
2/1/2021 5:45:00 AM 4.38 39.884 0.595 7.92 85.5 -99999.99
2/1/2021 6:00:00 AM 4.35 39.83 0.594 7.54 85.4 -99999.99
2/1/2021 6:15:00 AM 4.31 39.758 0.594 7.57 85.4 -99999.99
2/1/2021 6:30:00 AM 4.25 39.65 0.594 7.15 85.3 -99999.99
2/1/2021 6:45:00 AM 4.15 39.47 0.593 8.24 85 -99999.99
2/1/2021 7:00:00 AM 4.1 39.38 0.593 8.31 84.8 -99999.99
2/1/2021 7:15:00 AM 4.11 39.398 0.593 7.67 85.1 -99999.99
2/1/2021 7:30:00 AM 4.12 39.416 0.593 8.15 85.2 -99999.99
2/1/2021 7:45:00 AM 4.12 39.416 0.593 8.47 85.4 -99999.99
2/1/2021 8:00:00 AM 4.16 39.488 0.593 8.9 86.1 -99999.99
2/1/2021 8:15:00 AM 4.17 39.506 0.594 8.52 87 -99999.99
2/1/2021 8:30:00 AM 4.19 39.542 0.594 8.26 88.3 -99999.99
2/1/2021 8:45:00 AM 4.22 39.596 0.595 9.09 90.6 -99999.99
2/1/2021 9:00:00 AM 4.25 39.65 0.596 8.15 93.5 -99999.99
2/1/2021 9:15:00 AM 4.29 39.722 0.597 8.75 96.4 -99999.99
2/1/2021 9:30:00 AM 4.32 39.776 0.599 8.12 98.4 -99999.99
2/1/2021 9:45:00 AM 4.38 39.884 0.601 8.38 100.1 -99999.99
2/1/2021 10:00:00 AM 4.43 39.974 0.603 7.81 101.2 -99999.99
2/1/2021 10:15:00 AM 4.48 40.064 0.605 8.79 102.4 -99999.99
2/1/2021 10:30:00 AM 4.51 40.118 0.607 8.33 103.5 -99999.99
2/1/2021 10:45:00 AM 4.54 40.172 0.609 8.18 104.8 -99999.99
2/1/2021 11:00:00 AM 4.6 40.28 0.609 8.34 106.4 -99999.99
2/1/2021 11:15:00 AM 4.66 40.388 0.61 8.67 108.4 -99999.99
2/1/2021 11:30:00 AM 4.68 40.424 0.612 8.33 110.1 -99999.99
2/1/2021 11:45:00 AM 4.66 40.388 0.616 7.32 111.5 -99999.99
2/1/2021 12:00:00 PM 4.66 40.388 0.618 8.56 112.7 -99999.99
2/1/2021 12:15:00 PM 4.66 40.388 0.617 7.96 113.8 -99999.99
2/1/2021 12:30:00 PM 4.67 40.406 0.615 7.34 114.8 -99999.99
2/1/2021 12:45:00 PM 4.66 40.388 0.611 7.33 115.1 -99999.99
2/1/2021 1:00:00 PM 4.59 40.262 0.606 7.91 114.5 -99999.99
2/1/2021 1:15:00 PM 4.46 40.028 0.602 7.21 114.2 -99999.99
2/1/2021 1:30:00 PM 4.35 39.83 0.598 8.02 114.1 -99999.99
2/1/2021 1:45:00 PM 4.24 39.632 0.595 7.99 113.9 -99999.99
2/1/2021 2:00:00 PM 4.16 39.488 0.593 7.74 113.2 -99999.99
2/1/2021 2:15:00 PM 4.12 39.416 0.591 7.11 112.5 -99999.99
2/1/2021 2:30:00 PM 4.14 39.452 0.589 8.97 112.2 -99999.99
2/1/2021 2:45:00 PM 4.17 39.506 0.588 7.23 112.5 -99999.99
2/1/2021 3:00:00 PM 4.18 39.524 0.587 13.8 112.6 -99999.99
2/1/2021 3:15:00 PM 4.19 39.542 0.586 7.58 112.6 -99999.99
2/1/2021 3:30:00 PM 4.18 39.524 0.585 7.51 112.3 -99999.99
2/1/2021 3:45:00 PM 4.15 39.47 0.584 8.88 111.6 -99999.99
2/1/2021 4:00:00 PM 4.11 39.398 0.583 8.9 110.7 -99999.99
2/1/2021 4:15:00 PM 4.08 39.344 0.582 8.82 109.6 -99999.99
2/1/2021 4:30:00 PM 4.06 39.308 0.581 9.48 108.6 -99999.99
2/1/2021 4:45:00 PM 3.99 39.182 0.581 9.43 107.3 -99999.99
2/1/2021 5:00:00 PM 3.93 39.074 0.58 14.31 105.7 -99999.99
2/1/2021 5:15:00 PM 3.87 38.966 0.58 8.37 104.1 -99999.99
2/1/2021 5:30:00 PM 3.84 38.912 0.58 8.88 103 -99999.99
2/1/2021 5:45:00 PM 3.82 38.876 0.579 8.01 102 -99999.99
2/1/2021 6:00:00 PM 3.82 38.876 0.579 7.88 101 -99999.99
2/1/2021 6:15:00 PM 3.84 38.912 0.58 8.21 100.3 -99999.99
2/1/2021 6:30:00 PM 3.86 38.948 0.58 8.11 99.5 -99999.99
2/1/2021 6:45:00 PM 3.86 38.948 0.581 8.22 99.2 -99999.99
2/1/2021 7:00:00 PM 3.86 38.948 0.581 8.51 98.6 -99999.99
2/1/2021 7:15:00 PM 3.84 38.912 0.582 8.59 98 -99999.99
2/1/2021 7:30:00 PM 3.8 38.84 0.582 9.5 97.1 -99999.99
2/1/2021 7:45:00 PM 3.78 38.804 0.581 8.53 96.4 -99999.99
2/1/2021 8:00:00 PM 3.75 38.75 0.581 7.94 95.8 -99999.99
2/1/2021 8:15:00 PM 3.75 38.75 0.581 7.69 95.4 -99999.99
2/1/2021 8:30:00 PM 3.76 38.768 0.581 7.24 95 -99999.99
2/1/2021 8:45:00 PM 3.76 38.768 0.58 8.05 94.5 -99999.99
2/1/2021 9:00:00 PM 3.79 38.822 0.579 8.32 94.2 -99999.99
2/1/2021 9:15:00 PM 3.76 38.768 0.578 7.57 93.9 -99999.99
2/1/2021 9:30:00 PM 3.69 38.642 0.578 9.25 93.8 -99999.99
2/1/2021 9:45:00 PM 3.64 38.552 0.579 9.34 93.6 -99999.99
2/1/2021 10:00:00 PM 3.65 38.57 0.579 9.03 93.3 -99999.99
2/1/2021 10:15:00 PM 3.69 38.642 0.578 8.97 92.9 -99999.99
2/1/2021 10:30:00 PM 3.73 38.714 0.577 10.27 92.6 -99999.99
2/1/2021 10:45:00 PM 3.77 38.786 0.577 9.25 92.2 -99999.99
2/1/2021 11:00:00 PM 3.8 38.84 0.577 8.62 92 -99999.99
2/1/2021 11:15:00 PM 3.81 38.858 0.576 10.47 91.5 -99999.99
2/1/2021 11:30:00 PM 3.79 38.822 0.576 9.23 91 -99999.99
2/1/2021 11:45:00 PM 3.75 38.75 0.576 9.74 90.7 -99999.99
2/2/2021 12:00:00 AM 3.72 38.696 0.575 9.77 90.3 -99999.99
2/2/2021 12:15:00 AM 3.71 38.678 0.575 9.1 90 -99999.99
2/2/2021 12:30:00 AM 3.7 38.66 0.575 9.31 89.6 -99999.99
2/2/2021 12:45:00 AM 3.71 38.678 0.575 9.81 89.3 -99999.99
2/2/2021 1:00:00 AM 3.73 38.714 0.576 9.36 89 -99999.99
2/2/2021 1:15:00 AM 3.75 38.75 0.576 9.26 88.6 -99999.99
2/2/2021 1:30:00 AM 3.77 38.786 0.576 9.4 88.4 -99999.99
2/2/2021 1:45:00 AM 3.8 38.84 0.576 9.35 88.1 -99999.99
2/2/2021 2:00:00 AM 3.82 38.876 0.577 8.94 87.8 -99999.99
2/2/2021 2:15:00 AM 3.85 38.93 0.577 8.41 87.6 -99999.99
2/2/2021 2:30:00 AM 3.86 38.948 0.577 8.63 87.6 -99999.99
2/2/2021 2:45:00 AM 3.88 38.984 0.577 8.11 87.4 -99999.99
2/2/2021 3:00:00 AM 3.89 39.002 0.578 8.48 87.3 -99999.99
2/2/2021 3:15:00 AM 3.91 39.038 0.579 9.41 87.1 -99999.99
2/2/2021 3:30:00 AM 3.93 39.074 0.579 8.84 86.9 -99999.99
2/2/2021 3:45:00 AM 3.94 39.092 0.58 8.99 86.7 -99999.99
2/2/2021 4:00:00 AM 3.94 39.092 0.58 8.21 86.5 -99999.99
2/2/2021 4:15:00 AM 3.95 39.11 0.58 9.18 86.3 -99999.99
2/2/2021 4:30:00 AM 3.96 39.128 0.58 9.92 86.3 -99999.99
2/2/2021 4:45:00 AM 3.96 39.128 0.581 9.88 86.1 -99999.99
2/2/2021 5:00:00 AM 3.98 39.164 0.581 10.28 85.9 -99999.99
2/2/2021 5:15:00 AM 4 39.2 0.581 9.21 85.8 -99999.99
2/2/2021 5:30:00 AM 4.03 39.254 0.582 11.34 85.6 -99999.99
2/2/2021 5:45:00 AM 4.05 39.29 0.582 7.86 85.6 -99999.99
2/2/2021 6:00:00 AM 4.07 39.326 0.583 9.36 85.6 -99999.99
2/2/2021 6:15:00 AM 4.09 39.362 0.583 9.66 85.3 -99999.99
2/2/2021 6:30:00 AM 4.1 39.38 0.584 9.16 85.4 -99999.99
2/2/2021 6:45:00 AM 4.13 39.434 0.584 9.78 85.3 -99999.99
2/2/2021 7:00:00 AM 4.14 39.452 0.585 9.69 85.2 -99999.99
2/2/2021 7:15:00 AM 4.15 39.47 0.585 9.53 85.4 -99999.99
2/2/2021 7:30:00 AM 4.16 39.488 0.585 9.13 85.4 -99999.99
2/2/2021 7:45:00 AM 4.18 39.524 0.585 8.94 85.9 -99999.99
2/2/2021 8:00:00 AM 4.2 39.56 0.585 9.09 87.1 -99999.99
2/2/2021 8:15:00 AM 4.23 39.614 0.585 8.31 88.9 -99999.99
2/2/2021 8:30:00 AM 4.27 39.686 0.585 8.56 91.8 -99999.99
2/2/2021 8:45:00 AM 4.32 39.776 0.584 7.96 94.7 -99999.99
2/2/2021 9:00:00 AM 4.38 39.884 0.584 7.64 97.2 -99999.99
2/2/2021 9:15:00 AM 4.46 40.028 0.584 8.28 98.7 -99999.99
2/2/2021 9:30:00 AM 4.53 40.154 0.585 8.76 100.7 -99999.99
2/2/2021 9:45:00 AM 4.58 40.244 0.589 9.38 102.4 -99999.99
2/2/2021 10:00:00 AM 4.67 40.406 0.589 8.76 105.3 -99999.99
2/2/2021 10:15:00 AM 4.86 40.748 0.585 10 110 -99999.99
2/2/2021 10:30:00 AM 5.06 41.108 0.582 9.05 114.5 -99999.99
2/2/2021 10:45:00 AM 5.23 41.414 0.581 8.78 117.7 -99999.99
2/2/2021 11:00:00 AM 5.35 41.63 0.58 8.68 120.3 -99999.99
2/2/2021 11:15:00 AM 5.47 41.846 0.579 8.65 122.1 -99999.99
2/2/2021 11:30:00 AM 5.56 42.008 0.579 8.54 124.1 -99999.99
2/2/2021 11:45:00 AM 5.65 42.17 0.579 8.7 125.8 -99999.99
2/2/2021 12:00:00 PM 5.76 42.368 0.579 9.07 128 -99999.99
2/2/2021 12:15:00 PM 5.87 42.566 0.578 10.1 129.8 -99999.99
2/2/2021 12:30:00 PM 5.97 42.746 0.578 9.93 131.7 -99999.99
2/2/2021 12:45:00 PM 6.05 42.89 0.578 9.2 132.9 -99999.99
2/2/2021 1:00:00 PM 6.11 42.998 0.578 9.7 133.3 -99999.99
2/2/2021 1:15:00 PM 6.18 43.124 0.578 9.6 134 -99999.99
2/2/2021 1:30:00 PM 6.3 43.34 0.577 9.12 135.5 -99999.99
2/2/2021 1:45:00 PM 6.38 43.484 0.576 9.68 136.9 -99999.99
2/2/2021 2:00:00 PM 6.38 43.484 0.578 9.08 137.1 -99999.99
2/2/2021 2:15:00 PM 6.41 43.538 0.579 9.08 138.2 -99999.99
2/2/2021 2:30:00 PM 6.44 43.592 0.579 8.46 138.6 -99999.99
2/2/2021 2:45:00 PM 6.45 43.61 0.577 8.65 138.4 -99999.99
2/2/2021 3:00:00 PM 6.46 43.628 0.576 8.56 138.1 -99999.99
2/2/2021 3:15:00 PM 6.46 43.628 0.575 9.14 137.3 -99999.99
2/2/2021 3:30:00 PM 6.45 43.61 0.574 8.56 136.6 -99999.99
2/2/2021 3:45:00 PM 6.43 43.574 0.574 8.78 135.1 -99999.99
2/2/2021 4:00:00 PM 6.41 43.538 0.574 7.87 133.3 -99999.99
2/2/2021 4:15:00 PM 6.37 43.466 0.573 8.24 131 -99999.99
2/2/2021 4:30:00 PM 6.33 43.394 0.574 8.7 128.2 -99999.99
2/2/2021 4:45:00 PM 6.3 43.34 0.574 8.04 125.5 -99999.99
2/2/2021 5:00:00 PM 6.26 43.268 0.575 7.41 122.8 -99999.99
2/2/2021 5:15:00 PM 6.22 43.196 0.575 7.48 120.2 -99999.99
2/2/2021 5:30:00 PM 6.18 43.124 0.576 7.59 118 -99999.99
2/2/2021 5:45:00 PM 6.15 43.07 0.576 7.31 115.5 -99999.99
2/2/2021 6:00:00 PM 6.12 43.016 0.577 6.4 113.4 -99999.99
2/2/2021 6:15:00 PM 6.09 42.962 0.578 7.61 111.7 -99999.99
2/2/2021 6:30:00 PM 6.06 42.908 0.579 10.39 109.9 -99999.99
2/2/2021 6:45:00 PM 6.03 42.854 0.578 9.59 108.1 -99999.99
2/2/2021 7:00:00 PM 6.01 42.818 0.579 9.37 107 -99999.99
2/2/2021 7:15:00 PM 5.98 42.764 0.582 9.55 105.8 -99999.99
2/2/2021 7:30:00 PM 5.92 42.656 0.586 11.29 104.7 -99999.99
2/2/2021 7:45:00 PM 5.89 42.602 0.589 10.15 103.4 -99999.99
2/2/2021 8:00:00 PM 5.87 42.566 0.59 10.49 102.6 -99999.99
2/2/2021 8:15:00 PM 5.87 42.566 0.591 9.28 101.6 -99999.99
2/2/2021 8:30:00 PM 5.87 42.566 0.591 9.64 101.1 -99999.99
2/2/2021 8:45:00 PM 5.87 42.566 0.591 9.58 100.7 -99999.99
2/2/2021 9:00:00 PM 5.87 42.566 0.591 10.66 100.3 -99999.99
2/2/2021 9:15:00 PM 5.87 42.566 0.591 10.11 99.9 -99999.99
2/2/2021 9:30:00 PM 5.88 42.584 0.591 10.22 99.4 -99999.99
2/2/2021 9:45:00 PM 5.88 42.584 0.591 10.3 98.9 -99999.99
2/2/2021 10:00:00 PM 5.88 42.584 0.59 11.23 98.3 -99999.99
2/2/2021 10:15:00 PM 5.9 42.62 0.59 10.97 97.8 -99999.99
2/2/2021 10:30:00 PM 5.91 42.638 0.589 13.8 97.1 -99999.99
2/2/2021 10:45:00 PM 5.91 42.638 0.589 9.78 96.4 -99999.99
2/2/2021 11:00:00 PM 5.91 42.638 0.589 10.32 95.7 -99999.99
2/2/2021 11:15:00 PM 5.92 42.656 0.589 9.94 95.3 -99999.99
2/2/2021 11:30:00 PM 5.92 42.656 0.589 11.09 94.8 -99999.99
2/2/2021 11:45:00 PM 5.92 42.656 0.589 10.28 94.2 -99999.99
2/3/2021 12:00:00 AM 5.92 42.656 0.589 10.31 93.7 -99999.99
2/3/2021 12:15:00 AM 5.92 42.656 0.588 11.53 93.1 -99999.99
2/3/2021 12:30:00 AM 5.91 42.638 0.588 11.33 92.8 -99999.99
2/3/2021 12:45:00 AM 5.91 42.638 0.588 15.49 92.2 -99999.99
2/3/2021 1:00:00 AM 5.92 42.656 0.588 11.08 92 -99999.99
2/3/2021 1:15:00 AM 5.92 42.656 0.588 11.18 91.6 -99999.99
2/3/2021 1:30:00 AM 5.92 42.656 0.588 12.04 91.4 -99999.99
2/3/2021 1:45:00 AM 5.92 42.656 0.588 11.27 91.2 -99999.99
2/3/2021 2:00:00 AM 5.92 42.656 0.588 9.29 91 -99999.99
2/3/2021 2:15:00 AM 5.91 42.638 0.588 10.6 91 -99999.99
2/3/2021 2:30:00 AM 5.89 42.602 0.59 10.03 90.7 -99999.99
2/3/2021 2:45:00 AM 5.83 42.494 0.593 11.13 90.3 -99999.99
2/3/2021 3:00:00 AM 5.81 42.458 0.594 9.96 89.9 -99999.99
2/3/2021 3:15:00 AM 5.81 42.458 0.593 11.72 89.9 -99999.99
2/3/2021 3:30:00 AM 5.82 42.476 0.592 11.39 89.9 -99999.99
2/3/2021 3:45:00 AM 5.82 42.476 0.591 10.7 89.9 -99999.99
2/3/2021 4:00:00 AM 5.82 42.476 0.591 11.62 89.6 -99999.99
2/3/2021 4:15:00 AM 5.82 42.476 0.591 11.66 89.6 -99999.99
2/3/2021 4:30:00 AM 5.81 42.458 0.591 11.58 89.4 -99999.99
2/3/2021 4:45:00 AM 5.82 42.476 0.591 11.4 89.3 -99999.99
2/3/2021 5:00:00 AM 5.82 42.476 0.592 11.33 89.1 -99999.99
2/3/2021 5:15:00 AM 5.82 42.476 0.593 10.78 89 -99999.99
2/3/2021 5:30:00 AM 5.82 42.476 0.594 11.68 88.8 -99999.99
2/3/2021 5:45:00 AM 5.82 42.476 0.595 10.83 88.7 -99999.99
2/3/2021 6:00:00 AM 5.82 42.476 0.597 12.75 88.5 -99999.99
2/3/2021 6:15:00 AM 5.82 42.476 0.598 12.71 88.5 -99999.99
2/3/2021 6:30:00 AM 5.81 42.458 0.599 11.44 88.4 -99999.99
2/3/2021 6:45:00 AM 5.81 42.458 0.601 11.06 88.2 -99999.99
2/3/2021 7:00:00 AM 5.82 42.476 0.602 10.85 88.2 -99999.99
2/3/2021 7:15:00 AM 5.82 42.476 0.603 10.68 88.2 -99999.99
2/3/2021 7:30:00 AM 5.82 42.476 0.605 11.75 88.2 -99999.99
2/3/2021 7:45:00 AM 5.82 42.476 0.606 11.74 88.4 -99999.99
2/3/2021 8:00:00 AM 5.82 42.476 0.608 12.53 89 -99999.99
2/3/2021 8:15:00 AM 5.82 42.476 0.609 11.82 89.9 -99999.99
2/3/2021 8:30:00 AM 5.83 42.494 0.61 12.3 91.4 -99999.99
2/3/2021 8:45:00 AM 5.85 42.53 0.611 12.12 93.7 -99999.99
2/3/2021 9:00:00 AM 5.88 42.584 0.613 13.84 96.1 -99999.99
2/3/2021 9:15:00 AM 5.91 42.638 0.614 12.09 98.7 -99999.99
2/3/2021 9:30:00 AM 5.96 42.728 0.615 13.33 101.5 -99999.99
2/3/2021 9:45:00 AM 5.99 42.782 0.616 12.6 104.3 -99999.99
2/3/2021 10:00:00 AM 6.05 42.89 0.616 12.42 107.5 -99999.99
2/3/2021 10:15:00 AM 6.08 42.944 0.617 13.62 110.8 -99999.99
2/3/2021 10:30:00 AM 6.08 42.944 0.621 14.92 112.9 -99999.99
2/3/2021 10:45:00 AM 6.08 42.944 0.624 12.09 115.2 -99999.99
2/3/2021 11:00:00 AM 6.14 43.052 0.625 11.61 117.8 -99999.99
2/3/2021 11:15:00 AM 6.2 43.16 0.624 12.65 119.8 -99999.99
2/3/2021 11:30:00 AM 6.25 43.25 0.624 13.83 121.4 -99999.99
2/3/2021 11:45:00 AM 6.29 43.322 0.624 12.84 122.2 -99999.99
2/3/2021 12:00:00 PM 6.33 43.394 0.624 13.3 123.6 -99999.99
2/3/2021 12:15:00 PM 6.37 43.466 0.624 13.58 124.7 -99999.99
2/3/2021 12:30:00 PM 6.42 43.556 0.624 12.73 126.5 -99999.99
2/3/2021 12:45:00 PM 6.46 43.628 0.624 13.17 127.6 -99999.99
2/3/2021 1:00:00 PM 6.51 43.718 0.623 14.15 129 -99999.99
2/3/2021 1:15:00 PM 6.56 43.808 0.623 12.41 130.5 -99999.99
2/3/2021 1:30:00 PM 6.63 43.934 0.622 13.75 132.2 -99999.99
2/3/2021 1:45:00 PM 6.72 44.096 0.621 13.2 133.9 -99999.99
2/3/2021 2:00:00 PM 6.77 44.186 0.62 13.59 134.7 -99999.99
2/3/2021 2:15:00 PM 6.81 44.258 0.619 13.71 135.5 -99999.99
2/3/2021 2:30:00 PM 6.84 44.312 0.618 13.09 135.8 -99999.99
2/3/2021 2:45:00 PM 6.86 44.348 0.617 13.8 135.9 -99999.99
2/3/2021 3:00:00 PM 6.88 44.384 0.616 13.42 135.9 -99999.99
2/3/2021 3:15:00 PM 6.86 44.348 0.615 12.81 135.2 -99999.99
2/3/2021 3:30:00 PM 6.85 44.33 0.614 12.53 134.2 -99999.99
2/3/2021 3:45:00 PM 6.86 44.348 0.613 12.84 133.4 -99999.99
2/3/2021 4:00:00 PM 6.86 44.348 0.611 12.92 132.6 -99999.99
2/3/2021 4:15:00 PM 6.86 44.348 0.61 12.41 132.2 -99999.99
2/3/2021 4:30:00 PM 6.85 44.33 0.608 13.12 131 -99999.99
2/3/2021 4:45:00 PM 6.82 44.276 0.607 13.32 129 -99999.99
2/3/2021 5:00:00 PM 6.8 44.24 0.606 12.39 126.5 -99999.99
2/3/2021 5:15:00 PM 6.76 44.168 0.605 11.67 123.8 -99999.99
2/3/2021 5:30:00 PM 6.72 44.096 0.604 12.8 121.2 -99999.99
2/3/2021 5:45:00 PM 6.68 44.024 0.603 13.61 118.8 -99999.99
2/3/2021 6:00:00 PM 6.64 43.952 0.602 11.74 116.7 -99999.99
2/3/2021 6:15:00 PM 6.58 43.844 0.605 12.13 114.8 -99999.99
2/3/2021 6:30:00 PM 6.53 43.754 0.605 13.21 113 -99999.99
2/3/2021 6:45:00 PM 6.5 43.7 0.604 14.46 111.1 -99999.99
2/3/2021 7:00:00 PM 6.47 43.646 0.604 12.7 109.3 -99999.99
2/3/2021 7:15:00 PM 6.43 43.574 0.603 12.72 107.9 -99999.99
2/3/2021 7:30:00 PM 6.41 43.538 0.602 13.44 106.8 -99999.99
2/3/2021 7:45:00 PM 6.39 43.502 0.602 12.95 105.8 -99999.99
2/3/2021 8:00:00 PM 6.37 43.466 0.601 10.91 105.1 -99999.99
2/3/2021 8:15:00 PM 6.37 43.466 0.601 13.28 104.6 -99999.99
2/3/2021 8:30:00 PM 6.36 43.448 0.601 13.75 103.7 -99999.99
2/3/2021 8:45:00 PM 6.37 43.466 0.601 13.36 103.2 -99999.99
2/3/2021 9:00:00 PM 6.37 43.466 0.601 13.97 102.3 -99999.99
2/3/2021 9:15:00 PM 6.37 43.466 0.6 13.35 101.7 -99999.99
2/3/2021 9:30:00 PM 6.36 43.448 0.601 13.7 101.2 -99999.99
2/3/2021 9:45:00 PM 6.35 43.43 0.601 15.7 100.6 -99999.99
2/3/2021 10:00:00 PM 6.33 43.394 0.601 13.91 99.9 -99999.99
2/3/2021 10:15:00 PM 6.32 43.376 0.601 14.66 99.4 -99999.99
2/3/2021 10:30:00 PM 6.31 43.358 0.602 16.07 98.7 -99999.99
2/3/2021 10:45:00 PM 6.3 43.34 0.602 14.44 98.2 -99999.99
2/3/2021 11:00:00 PM 6.29 43.322 0.602 15.4 97.7 -99999.99
2/3/2021 11:15:00 PM 6.27 43.286 0.602 14.91 97.1 -99999.99
2/3/2021 11:30:00 PM 6.25 43.25 0.603 13.22 96.6 -99999.99
2/3/2021 11:45:00 PM 6.24 43.232 0.602 14.94 96.1 -99999.99
2/4/2021 12:00:00 AM 6.22 43.196 0.603 13.64 95.4 -99999.99
2/4/2021 12:15:00 AM 6.2 43.16 0.603 14.23 95.1 -99999.99
2/4/2021 12:30:00 AM 6.18 43.124 0.603 12.9 94.4 -99999.99
2/4/2021 12:45:00 AM 6.16 43.088 0.603 13.79 93.9 -99999.99
2/4/2021 1:00:00 AM 6.13 43.034 0.603 12.83 93.5 -99999.99
2/4/2021 1:15:00 AM 6.1 42.98 0.604 15.07 93.2 -99999.99
2/4/2021 1:30:00 AM 6.07 42.926 0.604 14.13 92.8 -99999.99
2/4/2021 1:45:00 AM 6.04 42.872 0.603 14.32 92.7 -99999.99
2/4/2021 2:00:00 AM 6 42.8 0.605 14.43 92.6 -99999.99
2/4/2021 2:15:00 AM 5.93 42.674 0.608 13.9 92 -99999.99
2/4/2021 2:30:00 AM 5.89 42.602 0.609 15.23 91.7 -99999.99
2/4/2021 2:45:00 AM 5.88 42.584 0.607 13.58 91.6 -99999.99
2/4/2021 3:00:00 AM 5.87 42.566 0.606 13.88 91.4 -99999.99
2/4/2021 3:15:00 AM 5.85 42.53 0.606 15.25 91.2 -99999.99
2/4/2021 3:30:00 AM 5.83 42.494 0.605 15.19 91 -99999.99
2/4/2021 3:45:00 AM 5.81 42.458 0.605 13.45 90.7 -99999.99
2/4/2021 4:00:00 AM 5.79 42.422 0.604 14.68 90.5 -99999.99
2/4/2021 4:15:00 AM 5.77 42.386 0.604 14.19 90.3 -99999.99
2/4/2021 4:30:00 AM 5.75 42.35 0.604 13.35 90.1 -99999.99
2/4/2021 4:45:00 AM 5.73 42.314 0.604 13.48 89.8 -99999.99
2/4/2021 5:00:00 AM 5.71 42.278 0.604 14.68 89.6 -99999.99
2/4/2021 5:15:00 AM 5.68 42.224 0.604 13.71 89.5 -99999.99
2/4/2021 5:30:00 AM 5.66 42.188 0.604 14.51 89.4 -99999.99
2/4/2021 5:45:00 AM 5.63 42.134 0.604 13.88 89.2 -99999.99
2/4/2021 6:00:00 AM 5.61 42.098 0.605 14.52 89.1 -99999.99
2/4/2021 6:15:00 AM 5.58 42.044 0.605 13.72 89.1 -99999.99
2/4/2021 6:30:00 AM 5.55 41.99 0.605 16.74 89 -99999.99
2/4/2021 6:45:00 AM 5.52 41.936 0.606 14.53 88.9 -99999.99
2/4/2021 7:00:00 AM 5.49 41.882 0.608 14.5 88.4 -99999.99
2/4/2021 7:15:00 AM 5.45 41.81 0.61 13.48 88 -99999.99
2/4/2021 7:30:00 AM 5.42 41.756 0.611 16.39 87.9 -99999.99
2/4/2021 7:45:00 AM 5.39 41.702 0.612 16.81 87.9 -99999.99
2/4/2021 8:00:00 AM 5.38 41.684 0.614 21.05 88.6 -99999.99
2/4/2021 8:15:00 AM 5.37 41.666 0.614 14.91 89.4 -99999.99
2/4/2021 8:30:00 AM 5.36 41.648 0.615 14.74 90.6 -99999.99
2/4/2021 8:45:00 AM 5.38 41.684 0.615 14.37 92.3 -99999.99
2/4/2021 9:00:00 AM 5.43 41.774 0.614 13.67 94.6 -99999.99
2/4/2021 9:15:00 AM 5.48 41.864 0.614 14.17 97.1 -99999.99
2/4/2021 9:30:00 AM 5.55 41.99 0.613 14.28 100.1 -99999.99
2/4/2021 9:45:00 AM 5.64 42.152 0.612 14.22 103.1 -99999.99
2/4/2021 10:00:00 AM 5.69 42.242 0.615 14.34 105.6 -99999.99
2/4/2021 10:15:00 AM 5.72 42.296 0.619 14.47 107.8 -99999.99
2/4/2021 10:30:00 AM 5.81 42.458 0.618 12.87 110.3 -99999.99
2/4/2021 10:45:00 AM 5.94 42.692 0.617 14.29 112.9 -99999.99
2/4/2021 11:00:00 AM 6.08 42.944 0.616 14.52 115.2 -99999.99
2/4/2021 11:15:00 AM 6.23 43.214 0.615 14.52 117.4 -99999.99
2/4/2021 11:30:00 AM 6.36 43.448 0.615 14.21 119.4 -99999.99
2/4/2021 11:45:00 AM 6.49 43.682 0.614 14.16 121.4 -99999.99
2/4/2021 12:00:00 PM 6.61 43.898 0.614 12.87 123.2 -99999.99
2/4/2021 12:15:00 PM 6.72 44.096 0.613 14.16 124.5 -99999.99
2/4/2021 12:30:00 PM 6.82 44.276 0.612 14.39 125.6 -99999.99
2/4/2021 12:45:00 PM 6.92 44.456 0.612 14.4 126.7 -99999.99
2/4/2021 1:00:00 PM 7.01 44.618 0.611 15.43 127.7 -99999.99
2/4/2021 1:15:00 PM 7.07 44.726 0.61 14.6 128.6 -99999.99
2/4/2021 1:30:00 PM 7.15 44.87 0.61 16.95 129.3 -99999.99
2/4/2021 1:45:00 PM 7.22 44.996 0.609 17.43 130 -99999.99
2/4/2021 2:00:00 PM 7.27 45.086 0.609 15.22 130.6 -99999.99
2/4/2021 2:15:00 PM 7.31 45.158 0.609 15 130.5 -99999.99
2/4/2021 2:30:00 PM 7.32 45.176 0.608 16.82 130.2 -99999.99
2/4/2021 2:45:00 PM 7.31 45.158 0.608 14.38 130.2 -99999.99
2/4/2021 3:00:00 PM 7.31 45.158 0.607 14.97 129.6 -99999.99
2/4/2021 3:15:00 PM 7.3 45.14 0.607 15.12 129.5 -99999.99
2/4/2021 3:30:00 PM 7.27 45.086 0.607 17.2 128.7 -99999.99
2/4/2021 3:45:00 PM 7.24 45.032 0.606 16.76 127.6 -99999.99
2/4/2021 4:00:00 PM 7.2 44.96 0.606 14.88 126.3 -99999.99
2/4/2021 4:15:00 PM 7.16 44.888 0.606 15.59 125 -99999.99
2/4/2021 4:30:00 PM 7.12 44.816 0.606 14.3 123.4 -99999.99
2/4/2021 4:45:00 PM 7.08 44.744 0.606 16.12 121.3 -99999.99
2/4/2021 5:00:00 PM 7.03 44.654 0.606 16 119.3 -99999.99
2/4/2021 5:15:00 PM 6.98 44.564 0.605 14.41 117.3 -99999.99
2/4/2021 5:30:00 PM 6.94 44.492 0.605 15.14 115.2 -99999.99
2/4/2021 5:45:00 PM 6.91 44.438 0.605 14.95 113.3 -99999.99
2/4/2021 6:00:00 PM 6.88 44.384 0.608 13.65 111.6 -99999.99
2/4/2021 6:15:00 PM 6.85 44.33 0.611 15.95 110 -99999.99
2/4/2021 6:30:00 PM 6.8 44.24 0.614 16.14 108.6 -99999.99
2/4/2021 6:45:00 PM 6.77 44.186 0.614 15.6 106.9 -99999.99
2/4/2021 7:00:00 PM 6.76 44.168 0.612 15.49 105.7 -99999.99
2/4/2021 7:15:00 PM 6.75 44.15 0.611 15.72 104.3 -99999.99
2/4/2021 7:30:00 PM 6.73 44.114 0.61 16.18 103.5 -99999.99
2/4/2021 7:45:00 PM 6.71 44.078 0.61 15.32 102.5 -99999.99
2/4/2021 8:00:00 PM 6.7 44.06 0.609 15.4 101.6 -99999.99
2/4/2021 8:15:00 PM 6.68 44.024 0.609 16.16 100.6 -99999.99
2/4/2021 8:30:00 PM 6.66 43.988 0.609 16.88 99.9 -99999.99
2/4/2021 8:45:00 PM 6.64 43.952 0.609 16.76 99 -99999.99
2/4/2021 9:00:00 PM 6.63 43.934 0.609 16.87 98.3 -99999.99
2/4/2021 9:15:00 PM 6.62 43.916 0.61 19.57 97.6 -99999.99
2/4/2021 9:30:00 PM 6.62 43.916 0.61 15.08 96.9 -99999.99
2/4/2021 9:45:00 PM 6.61 43.898 0.611 23.79 96.3 -99999.99
2/4/2021 10:00:00 PM 6.61 43.898 0.611 15.1 95.7 -99999.99
2/4/2021 10:15:00 PM 6.61 43.898 0.611 15.82 95.1 -99999.99
2/4/2021 10:30:00 PM 6.61 43.898 0.611 14.39 94.5 -99999.99
2/4/2021 10:45:00 PM 6.61 43.898 0.611 15.47 93.9 -99999.99
2/4/2021 11:00:00 PM 6.62 43.916 0.612 15.4 93.3 -99999.99
2/4/2021 11:15:00 PM 6.63 43.934 0.612 15.16 92.8 -99999.99
2/4/2021 11:30:00 PM 6.63 43.934 0.612 16.64 92.3 -99999.99
2/4/2021 11:45:00 PM 6.64 43.952 0.612 15.68 91.6 -99999.99
2/5/2021 12:00:00 AM 6.65 43.97 0.611 14.66 91 -99999.99
2/5/2021 12:15:00 AM 6.66 43.988 0.611 13.28 90.5 -99999.99
2/5/2021 12:30:00 AM 6.67 44.006 0.611 18.11 89.9 -99999.99
2/5/2021 12:45:00 AM 6.69 44.042 0.611 15.29 89.4 -99999.99
2/5/2021 1:00:00 AM 6.69 44.042 0.611 16.04 88.8 -99999.99
2/5/2021 1:15:00 AM 6.7 44.06 0.611 16.04 88.2 -99999.99
2/5/2021 1:30:00 AM 6.71 44.078 0.611 15.22 87.8 -99999.99
2/5/2021 1:45:00 AM 6.72 44.096 0.61 16.37 87.4 -99999.99
2/5/2021 2:00:00 AM 6.72 44.096 0.61 17.53 87 -99999.99
2/5/2021 2:15:00 AM 6.73 44.114 0.609 15.93 86.7 -99999.99
2/5/2021 2:30:00 AM 6.73 44.114 0.609 16.81 86.3 -99999.99
2/5/2021 2:45:00 AM 6.73 44.114 0.609 16.63 86.2 -99999.99
2/5/2021 3:00:00 AM 6.73 44.114 0.608 16.8 85.9 -99999.99
2/5/2021 3:15:00 AM 6.73 44.114 0.608 18.35 85.7 -99999.99
2/5/2021 3:30:00 AM 6.73 44.114 0.608 20.51 85.5 -99999.99
2/5/2021 3:45:00 AM 6.72 44.096 0.607 33.01 85.3 -99999.99
2/5/2021 4:00:00 AM 6.72 44.096 0.607 15.39 85.1 -99999.99
2/5/2021 4:15:00 AM 6.72 44.096 0.606 17.46 85.1 -99999.99
2/5/2021 4:30:00 AM 6.71 44.078 0.606 15.63 85.1 -99999.99
2/5/2021 4:45:00 AM 6.7 44.06 0.606 17.3 84.9 -99999.99